Roubidoux Creek (Missouri), Polla Road (06928420)

StateMissouriLatestUnknown (17 cfs)
RiverRoubidoux CreekRatingObservedEstimated
Updated2021-02-27 15:30 (1 hour ago)Flood - The river is flooding. Obstacles can be treacherous or deadly. The river should be avoided at this stage for casual trips and definitely for the inexperienced. Trips should be attempted only with protective gear and equipment.Flood(none)(none)
Discharge17 cfs (median: 31 cfs)High - The river is high and potentially dangerous, especially for the young and / or inexperienced. Normal stream obstacles are sometimes difficult to navigate. Extended distances can be attempted, but canoe travel may not be advisable.High(none)(none)
Height1.02 feetGood - Conditions are ideal for a canoe or kayak. Boats typically will drag on fewer than one-quarter of riffles, if at all, and portages are unnecessary or rare. Normal float lengths can be attempted without a problem.Good(none)(none)
TrendSteady (falling over 24 hours)Low - River is low but can still be floated. Some riffles are okay but most come with significant dragging and might need a portage. Float lengths should be reduced to accommodate low flow, dragging, and portages.Low(none)(none)
USGSExternal icon USGS Site (External icon Google Maps)Poor - River is too low to float comfortably. Most or all riffles will drag or must be portaged and some obstacles (such as slick shelf rock) cause undue problems. Avoid the river at this stage for casual paddling trips.Poor(none)(none)

Trending Data

Plot Image

Trips for Roubidoux Creek (Missouri), Polla Road (06928420)

DateStartEndDistanceConditionDischargeHeightFishingDetails

A total of 0 rows are displayed.

Condition Descriptions

Fishing Conditions

Fish Species

Notes

Classic Trip List

The classic River Trips application is still available for use. It is updated with the new system using a data retrofit. It is no longer maintained. The original River Trips application is no longer updated (as of 1 Dec 2016) but can be checked for errors or for the condition of the data before it was converted to the new system.

Gauge Data Table

ObservationHeightDischargeMaximum
Discharge
Minimum
Discharge
Mean
Discharge
P05P10P20P25P50
(Median)
P75P80P90P95
2021-02-27 15:30 1.02 17 1180 (2013) 0 (2014) 235 0 0 0 31 335 546 1080
2021-02-27 14:30 1.03 17 1180 (2013) 0 (2014) 235 0 0 0 31 335 546 1080
2021-02-27 13:30 1.07 19 1180 (2013) 0 (2014) 235 0 0 0 31 335 546 1080
2021-02-27 12:30 1.03 17 1180 (2013) 0 (2014) 235 0 0 0 31 335 546 1080
2021-02-27 11:30 1.05 18 1180 (2013) 0 (2014) 235 0 0 0 31 335 546 1080
2021-02-27 10:30 1.05 18 1180 (2013) 0 (2014) 235 0 0 0 31 335 546 1080
2021-02-27 09:30 1.11 22 1180 (2013) 0 (2014) 235 0 0 0 31 335 546 1080
2021-02-27 08:30 1.13 23 1180 (2013) 0 (2014) 235 0 0 0 31 335 546 1080
2021-02-27 07:30 1.14 24 1180 (2013) 0 (2014) 235 0 0 0 31 335 546 1080
2021-02-27 06:30 1.15 24 1180 (2013) 0 (2014) 235 0 0 0 31 335 546 1080
2021-02-27 05:30 1.16 25 1180 (2013) 0 (2014) 235 0 0 0 31 335 546 1080
2021-02-27 04:30 1.18 26 1180 (2013) 0 (2014) 235 0 0 0 31 335 546 1080
2021-02-27 03:30 1.18 26 1180 (2013) 0 (2014) 235 0 0 0 31 335 546 1080
2021-02-27 02:30 1.20 28 1180 (2013) 0 (2014) 235 0 0 0 31 335 546 1080
2021-02-27 01:30 1.15 24 1180 (2013) 0 (2014) 235 0 0 0 31 335 546 1080
2021-02-27 00:30 1.22 29 1180 (2013) 0 (2014) 235 0 0 0 31 335 546 1080
2021-02-26 23:30 1.23 30 1760 (2018) 0 (2015) 338 0 0 0 42 645 706 1460
2021-02-26 22:30 1.24 31 1760 (2018) 0 (2015) 338 0 0 0 42 645 706 1460
2021-02-26 21:30 1.24 31 1760 (2018) 0 (2015) 338 0 0 0 42 645 706 1460
2021-02-26 20:30 1.25 32 1760 (2018) 0 (2015) 338 0 0 0 42 645 706 1460
2021-02-26 19:30 1.27 34 1760 (2018) 0 (2015) 338 0 0 0 42 645 706 1460
2021-02-26 18:30 1.26 33 1760 (2018) 0 (2015) 338 0 0 0 42 645 706 1460
2021-02-26 17:30 1.29 35 1760 (2018) 0 (2015) 338 0 0 0 42 645 706 1460
2021-02-26 16:30 1.28 34 1760 (2018) 0 (2015) 338 0 0 0 42 645 706 1460
2021-02-26 15:30 1.31 37 1760 (2018) 0 (2015) 338 0 0 0 42 645 706 1460
2021-02-26 14:30 1.31 37 1760 (2018) 0 (2015) 338 0 0 0 42 645 706 1460
2021-02-26 13:30 1.32 38 1760 (2018) 0 (2015) 338 0 0 0 42 645 706 1460
2021-02-26 12:30 1.33 39 1760 (2018) 0 (2015) 338 0 0 0 42 645 706 1460
2021-02-26 11:30 1.34 40 1760 (2018) 0 (2015) 338 0 0 0 42 645 706 1460
2021-02-26 10:30 1.37 43 1760 (2018) 0 (2015) 338 0 0 0 42 645 706 1460
2021-02-26 09:30 1.38 44 1760 (2018) 0 (2015) 338 0 0 0 42 645 706 1460
2021-02-26 08:30 1.40 46 1760 (2018) 0 (2015) 338 0 0 0 42 645 706 1460
2021-02-26 07:30 1.41 47 1760 (2018) 0 (2015) 338 0 0 0 42 645 706 1460
2021-02-26 06:30 1.42 48 1760 (2018) 0 (2015) 338 0 0 0 42 645 706 1460
2021-02-26 05:30 1.42 48 1760 (2018) 0 (2015) 338 0 0 0 42 645 706 1460
2021-02-26 04:30 1.44 50 1760 (2018) 0 (2015) 338 0 0 0 42 645 706 1460
2021-02-26 03:30 1.44 50 1760 (2018) 0 (2015) 338 0 0 0 42 645 706 1460
2021-02-26 02:30 1.46 53 1760 (2018) 0 (2015) 338 0 0 0 42 645 706 1460
2021-02-26 01:30 1.48 55 1760 (2018) 0 (2015) 338 0 0 0 42 645 706 1460
2021-02-26 00:30 1.50 58 1760 (2018) 0 (2015) 338 0 0 0 42 645 706 1460
2021-02-25 23:30 1.50 58 6240 (2018) 0 (2015) 761 0 0 0 3 746 1150 4840
2021-02-25 22:30 1.52 60 6240 (2018) 0 (2015) 761 0 0 0 3 746 1150 4840
2021-02-25 21:30 1.52 60 6240 (2018) 0 (2015) 761 0 0 0 3 746 1150 4840
2021-02-25 20:30 1.54 63 6240 (2018) 0 (2015) 761 0 0 0 3 746 1150 4840
2021-02-25 19:30 1.56 65 6240 (2018) 0 (2015) 761 0 0 0 3 746 1150 4840
2021-02-25 18:30 1.56 65 6240 (2018) 0 (2015) 761 0 0 0 3 746 1150 4840
2021-02-25 17:30 1.58 68 6240 (2018) 0 (2015) 761 0 0 0 3 746 1150 4840
2021-02-25 16:30 1.58 68 6240 (2018) 0 (2015) 761 0 0 0 3 746 1150 4840
2021-02-25 15:30 1.59 70 6240 (2018) 0 (2015) 761 0 0 0 3 746 1150 4840
2021-02-25 14:30 1.59 70 6240 (2018) 0 (2015) 761 0 0 0 3 746 1150 4840
2021-02-25 13:30 1.60 71 6240 (2018) 0 (2015) 761 0 0 0 3 746 1150 4840
2021-02-25 12:30 1.62 74 6240 (2018) 0 (2015) 761 0 0 0 3 746 1150 4840
2021-02-25 11:30 1.61 72 6240 (2018) 0 (2015) 761 0 0 0 3 746 1150 4840
2021-02-25 10:30 1.62 74 6240 (2018) 0 (2015) 761 0 0 0 3 746 1150 4840
2021-02-25 09:30 1.63 75 6240 (2018) 0 (2015) 761 0 0 0 3 746 1150 4840
2021-02-25 08:30 1.62 74 6240 (2018) 0 (2015) 761 0 0 0 3 746 1150 4840
2021-02-25 07:30 1.62 74 6240 (2018) 0 (2015) 761 0 0 0 3 746 1150 4840
2021-02-25 06:30 1.63 75 6240 (2018) 0 (2015) 761 0 0 0 3 746 1150 4840
2021-02-25 05:30 1.61 72 6240 (2018) 0 (2015) 761 0 0 0 3 746 1150 4840
2021-02-25 04:30 1.58 68 6240 (2018) 0 (2015) 761 0 0 0 3 746 1150 4840
2021-02-25 03:30 1.54 63 6240 (2018) 0 (2015) 761 0 0 0 3 746 1150 4840
2021-02-25 02:30 1.45 52 6240 (2018) 0 (2015) 761 0 0 0 3 746 1150 4840
2021-02-25 01:30 1.13 23 6240 (2018) 0 (2015) 761 0 0 0 3 746 1150 4840
2021-02-25 00:30 0.63 4 6240 (2018) 0 (2015) 761 0 0 0 3 746 1150 4840
2021-02-24 23:30 0.63 4 5580 (2018) 0 (2015) 536 0 0 0 3 123 345 4100
2021-02-24 22:30 0.56 2 5580 (2018) 0 (2015) 536 0 0 0 3 123 345 4100
2021-02-24 21:30 0.58 3 5580 (2018) 0 (2015) 536 0 0 0 3 123 345 4100
2021-02-24 20:30 0.63 4 5580 (2018) 0 (2015) 536 0 0 0 3 123 345 4100
2021-02-24 19:30 0.58 3 5580 (2018) 0 (2015) 536 0 0 0 3 123 345 4100
2021-02-24 18:30 0.57 3 5580 (2018) 0 (2015) 536 0 0 0 3 123 345 4100
2021-02-24 17:30 0.56 2 5580 (2018) 0 (2015) 536 0 0 0 3 123 345 4100
2021-02-24 16:30 0.56 2 5580 (2018) 0 (2015) 536 0 0 0 3 123 345 4100
2021-02-24 15:30 0.58 3 5580 (2018) 0 (2015) 536 0 0 0 3 123 345 4100
2021-02-24 14:30 0.62 3 5580 (2018) 0 (2015) 536 0 0 0 3 123 345 4100
2021-02-24 13:30 0.56 2 5580 (2018) 0 (2015) 536 0 0 0 3 123 345 4100
2021-02-24 12:30 0.56 2 5580 (2018) 0 (2015) 536 0 0 0 3 123 345 4100
2021-02-24 11:30 0.63 4 5580 (2018) 0 (2015) 536 0 0 0 3 123 345 4100
2021-02-24 10:30 0.62 3 5580 (2018) 0 (2015) 536 0 0 0 3 123 345 4100
2021-02-24 09:30 0.55 2 5580 (2018) 0 (2015) 536 0 0 0 3 123 345 4100
2021-02-24 08:30 0.62 3 5580 (2018) 0 (2015) 536 0 0 0 3 123 345 4100
2021-02-24 07:30 0.63 4 5580 (2018) 0 (2015) 536 0 0 0 3 123 345 4100
2021-02-24 06:30 0.63 4 5580 (2018) 0 (2015) 536 0 0 0 3 123 345 4100
2021-02-24 05:30 0.63 4 5580 (2018) 0 (2015) 536 0 0 0 3 123 345 4100
2021-02-24 04:30 0.63 4 5580 (2018) 0 (2015) 536 0 0 0 3 123 345 4100
2021-02-24 03:30 0.63 4 5580 (2018) 0 (2015) 536 0 0 0 3 123 345 4100
2021-02-24 02:30 0.63 4 5580 (2018) 0 (2015) 536 0 0 0 3 123 345 4100
2021-02-24 01:30 0.63 4 5580 (2018) 0 (2015) 536 0 0 0 3 123 345 4100
2021-02-24 00:30 0.63 4 5580 (2018) 0 (2015) 536 0 0 0 3 123 345 4100
2021-02-23 23:30 0.63 4 577 (2019) 0 (2015) 84 0 0 0 3 125 187 473
2021-02-23 22:30 0.64 4 577 (2019) 0 (2015) 84 0 0 0 3 125 187 473
2021-02-23 21:30 0.64 4 577 (2019) 0 (2015) 84 0 0 0 3 125 187 473
2021-02-23 20:30 0.64 4 577 (2019) 0 (2015) 84 0 0 0 3 125 187 473
2021-02-23 19:30 0.64 4 577 (2019) 0 (2015) 84 0 0 0 3 125 187 473
2021-02-23 18:30 0.64 4 577 (2019) 0 (2015) 84 0 0 0 3 125 187 473
2021-02-23 17:30 0.63 4 577 (2019) 0 (2015) 84 0 0 0 3 125 187 473
2021-02-23 16:30 0.63 4 577 (2019) 0 (2015) 84 0 0 0 3 125 187 473
2021-02-23 15:30 0.60 3 577 (2019) 0 (2015) 84 0 0 0 3 125 187 473
2021-02-23 14:30 0.57 3 577 (2019) 0 (2015) 84 0 0 0 3 125 187 473
2021-02-23 13:30 0.61 3 577 (2019) 0 (2015) 84 0 0 0 3 125 187 473
2021-02-23 12:30 0.64 4 577 (2019) 0 (2015) 84 0 0 0 3 125 187 473
2021-02-23 11:30 0.64 4 577 (2019) 0 (2015) 84 0 0 0 3 125 187 473
2021-02-23 10:30 0.64 4 577 (2019) 0 (2015) 84 0 0 0 3 125 187 473
2021-02-23 09:30 0.64 4 577 (2019) 0 (2015) 84 0 0 0 3 125 187 473
2021-02-23 08:30 0.64 4 577 (2019) 0 (2015) 84 0 0 0 3 125 187 473
2021-02-23 07:30 0.64 4 577 (2019) 0 (2015) 84 0 0 0 3 125 187 473
2021-02-23 06:30 0.64 4 577 (2019) 0 (2015) 84 0 0 0 3 125 187 473
2021-02-23 05:30 0.64 4 577 (2019) 0 (2015) 84 0 0 0 3 125 187 473
2021-02-23 04:30 0.64 4 577 (2019) 0 (2015) 84 0 0 0 3 125 187 473
2021-02-23 03:30 0.64 4 577 (2019) 0 (2015) 84 0 0 0 3 125 187 473
2021-02-23 02:30 0.64 4 577 (2019) 0 (2015) 84 0 0 0 3 125 187 473
2021-02-23 01:30 0.64 4 577 (2019) 0 (2015) 84 0 0 0 3 125 187 473
2021-02-23 00:30 0.64 4 577 (2019) 0 (2015) 84 0 0 0 3 125 187 473
2021-02-22 23:30 0.65 4 518 (2019) 0 (2016) 91 0 0 0 4 74 224 492
2021-02-22 22:30 0.64 4 518 (2019) 0 (2016) 91 0 0 0 4 74 224 492
2021-02-22 21:30 0.64 4 518 (2019) 0 (2016) 91 0 0 0 4 74 224 492
2021-02-22 20:30 0.65 4 518 (2019) 0 (2016) 91 0 0 0 4 74 224 492
2021-02-22 19:30 0.65 4 518 (2019) 0 (2016) 91 0 0 0 4 74 224 492
2021-02-22 18:30 0.65 4 518 (2019) 0 (2016) 91 0 0 0 4 74 224 492
2021-02-22 17:30 0.65 4 518 (2019) 0 (2016) 91 0 0 0 4 74 224 492
2021-02-22 16:30 0.66 4 518 (2019) 0 (2016) 91 0 0 0 4 74 224 492
2021-02-22 15:30 0.65 4 518 (2019) 0 (2016) 91 0 0 0 4 74 224 492
2021-02-22 14:30 0.65 4 518 (2019) 0 (2016) 91 0 0 0 4 74 224 492
2021-02-22 13:30 0.63 4 518 (2019) 0 (2016) 91 0 0 0 4 74 224 492
2021-02-22 12:30 0.66 4 518 (2019) 0 (2016) 91 0 0 0 4 74 224 492
2021-02-22 11:30 0.66 4 518 (2019) 0 (2016) 91 0 0 0 4 74 224 492
2021-02-22 10:30 0.65 4 518 (2019) 0 (2016) 91 0 0 0 4 74 224 492
2021-02-22 09:30 0.64 4 518 (2019) 0 (2016) 91 0 0 0 4 74 224 492
2021-02-22 08:30 0.65 4 518 (2019) 0 (2016) 91 0 0 0 4 74 224 492
2021-02-22 07:30 0.63 4 518 (2019) 0 (2016) 91 0 0 0 4 74 224 492
2021-02-22 06:30 0.64 4 518 (2019) 0 (2016) 91 0 0 0 4 74 224 492
2021-02-22 05:30 0.63 4 518 (2019) 0 (2016) 91 0 0 0 4 74 224 492
2021-02-22 04:30 0.59 3 518 (2019) 0 (2016) 91 0 0 0 4 74 224 492
2021-02-22 03:30 0.40 1 518 (2019) 0 (2016) 91 0 0 0 4 74 224 492
2021-02-22 02:30 0.63 4 518 (2019) 0 (2016) 91 0 0 0 4 74 224 492
2021-02-22 01:30 0.64 4 518 (2019) 0 (2016) 91 0 0 0 4 74 224 492
2021-02-22 00:30 0.62 3 518 (2019) 0 (2016) 91 0 0 0 4 74 224 492
2021-02-21 23:30 0.62 3 577 (2019) 0 (2016) 65 0 0 0 6 53 78 434
2021-02-21 22:30 0.62 3 577 (2019) 0 (2016) 65 0 0 0 6 53 78 434
2021-02-21 21:30 0.60 3 577 (2019) 0 (2016) 65 0 0 0 6 53 78 434
2021-02-21 20:30 0.57 3 577 (2019) 0 (2016) 65 0 0 0 6 53 78 434
2021-02-21 19:30 0.47 1 577 (2019) 0 (2016) 65 0 0 0 6 53 78 434
2021-02-21 18:30 0.49 2 577 (2019) 0 (2016) 65 0 0 0 6 53 78 434
2021-02-21 17:30 0.54 2 577 (2019) 0 (2016) 65 0 0 0 6 53 78 434
2021-02-21 16:30 0.63 4 577 (2019) 0 (2016) 65 0 0 0 6 53 78 434
2021-02-21 15:30 0.65 4 577 (2019) 0 (2016) 65 0 0 0 6 53 78 434
2021-02-21 14:30 0.65 4 577 (2019) 0 (2016) 65 0 0 0 6 53 78 434
2021-02-21 13:30 0.64 4 577 (2019) 0 (2016) 65 0 0 0 6 53 78 434
2021-02-21 12:30 0.60 3 577 (2019) 0 (2016) 65 0 0 0 6 53 78 434
2021-02-21 11:30 0.61 3 577 (2019) 0 (2016) 65 0 0 0 6 53 78 434
2021-02-21 10:30 0.61 3 577 (2019) 0 (2016) 65 0 0 0 6 53 78 434
2021-02-21 09:30 0.62 3 577 (2019) 0 (2016) 65 0 0 0 6 53 78 434
2021-02-21 08:30 0.62 3 577 (2019) 0 (2016) 65 0 0 0 6 53 78 434
2021-02-21 07:30 0.62 3 577 (2019) 0 (2016) 65 0 0 0 6 53 78 434
2021-02-21 06:30 0.63 4 577 (2019) 0 (2016) 65 0 0 0 6 53 78 434
2021-02-21 05:30 0.63 4 577 (2019) 0 (2016) 65 0 0 0 6 53 78 434
2021-02-21 04:30 0.63 4 577 (2019) 0 (2016) 65 0 0 0 6 53 78 434
2021-02-21 03:30 0.63 4 577 (2019) 0 (2016) 65 0 0 0 6 53 78 434
2021-02-21 02:30 0.62 3 577 (2019) 0 (2016) 65 0 0 0 6 53 78 434
2021-02-21 01:30 0.61 3 577 (2019) 0 (2016) 65 0 0 0 6 53 78 434
2021-02-21 00:30 0.61 3 577 (2019) 0 (2016) 65 0 0 0 6 53 78 434
2021-02-20 23:30 0.61 3 88 (2020) 0 (2015) 19 0 0 0 5 32 44 78
2021-02-20 22:30 0.60 3 88 (2020) 0 (2015) 19 0 0 0 5 32 44 78
2021-02-20 21:30 0.60 3 88 (2020) 0 (2015) 19 0 0 0 5 32 44 78
2021-02-20 20:30 0.60 3 88 (2020) 0 (2015) 19 0 0 0 5 32 44 78
2021-02-20 19:30 0.61 3 88 (2020) 0 (2015) 19 0 0 0 5 32 44 78
2021-02-20 18:30 0.60 3 88 (2020) 0 (2015) 19 0 0 0 5 32 44 78
2021-02-20 17:30 0.61 3 88 (2020) 0 (2015) 19 0 0 0 5 32 44 78
2021-02-20 16:30 0.61 3 88 (2020) 0 (2015) 19 0 0 0 5 32 44 78
2021-02-20 15:30 0.62 3 88 (2020) 0 (2015) 19 0 0 0 5 32 44 78
2021-02-20 14:30 0.62 3 88 (2020) 0 (2015) 19 0 0 0 5 32 44 78
2021-02-20 13:30 0.76 6 88 (2020) 0 (2015) 19 0 0 0 5 32 44 78
2021-02-20 12:30 0.51 2 88 (2020) 0 (2015) 19 0 0 0 5 32 44 78
2021-02-20 11:30 0.86 10 88 (2020) 0 (2015) 19 0 0 0 5 32 44 78
2021-02-20 10:30 0.62 3 88 (2020) 0 (2015) 19 0 0 0 5 32 44 78
2021-02-20 09:30 0.64 4 88 (2020) 0 (2015) 19 0 0 0 5 32 44 78
2021-02-20 08:30 0.63 4 88 (2020) 0 (2015) 19 0 0 0 5 32 44 78
2021-02-20 07:30 0.62 3 88 (2020) 0 (2015) 19 0 0 0 5 32 44 78
2021-02-20 06:30 0.61 3 88 (2020) 0 (2015) 19 0 0 0 5 32 44 78
2021-02-20 05:30 0.62 3 88 (2020) 0 (2015) 19 0 0 0 5 32 44 78
2021-02-20 04:30 0.63 4 88 (2020) 0 (2015) 19 0 0 0 5 32 44 78
2021-02-20 03:30 0.64 4 88 (2020) 0 (2015) 19 0 0 0 5 32 44 78
2021-02-20 02:30 0.65 4 88 (2020) 0 (2015) 19 0 0 0 5 32 44 78
2021-02-20 01:30 0.64 4 88 (2020) 0 (2015) 19 0 0 0 5 32 44 78
2021-02-20 00:30 0.63 4 88 (2020) 0 (2015) 19 0 0 0 5 32 44 78
2021-02-19 23:30 0.64 4 114 (2020) 0 (2015) 27 0 0 0 12 50 60 100
2021-02-19 22:30 0.65 4 114 (2020) 0 (2015) 27 0 0 0 12 50 60 100
2021-02-19 21:30 0.62 3 114 (2020) 0 (2015) 27 0 0 0 12 50 60 100
2021-02-19 20:30 0.63 4 114 (2020) 0 (2015) 27 0 0 0 12 50 60 100
2021-02-19 19:30 0.62 3 114 (2020) 0 (2015) 27 0 0 0 12 50 60 100
2021-02-19 18:30 0.62 3 114 (2020) 0 (2015) 27 0 0 0 12 50 60 100
2021-02-19 17:30 0.67 4 114 (2020) 0 (2015) 27 0 0 0 12 50 60 100
2021-02-19 16:30 0.68 5 114 (2020) 0 (2015) 27 0 0 0 12 50 60 100
2021-02-19 15:30 0.66 4 114 (2020) 0 (2015) 27 0 0 0 12 50 60 100
2021-02-19 14:30 0.61 3 114 (2020) 0 (2015) 27 0 0 0 12 50 60 100
2021-02-19 13:30 0.60 3 114 (2020) 0 (2015) 27 0 0 0 12 50 60 100
2021-02-19 12:30 0.61 3 114 (2020) 0 (2015) 27 0 0 0 12 50 60 100
2021-02-19 11:30 0.62 3 114 (2020) 0 (2015) 27 0 0 0 12 50 60 100
2021-02-19 10:30 0.63 4 114 (2020) 0 (2015) 27 0 0 0 12 50 60 100
2021-02-19 09:30 0.64 4 114 (2020) 0 (2015) 27 0 0 0 12 50 60 100
2021-02-19 08:30 0.65 4 114 (2020) 0 (2015) 27 0 0 0 12 50 60 100
2021-02-19 07:30 0.66 4 114 (2020) 0 (2015) 27 0 0 0 12 50 60 100
2021-02-19 06:30 0.63 4 114 (2020) 0 (2015) 27 0 0 0 12 50 60 100
2021-02-19 05:30 0.61 3 114 (2020) 0 (2015) 27 0 0 0 12 50 60 100
2021-02-19 04:30 0.61 3 114 (2020) 0 (2015) 27 0 0 0 12 50 60 100
2021-02-19 03:30 0.62 3 114 (2020) 0 (2015) 27 0 0 0 12 50 60 100
2021-02-19 02:30 0.63 4 114 (2020) 0 (2015) 27 0 0 0 12 50 60 100
2021-02-19 01:30 0.64 4 114 (2020) 0 (2015) 27 0 0 0 12 50 60 100
2021-02-19 00:30 0.64 4 114 (2020) 0 (2015) 27 0 0 0 12 50 60 100
2021-02-18 23:30 0.64 4 153 (2020) 0 (2016) 44 0 0 0 19 79 100 145
2021-02-18 22:30 0.65 4 153 (2020) 0 (2016) 44 0 0 0 19 79 100 145
2021-02-18 21:30 0.65 4 153 (2020) 0 (2016) 44 0 0 0 19 79 100 145
2021-02-18 20:30 0.65 4 153 (2020) 0 (2016) 44 0 0 0 19 79 100 145
2021-02-18 19:30 0.65 4 153 (2020) 0 (2016) 44 0 0 0 19 79 100 145
2021-02-18 18:30 0.65 4 153 (2020) 0 (2016) 44 0 0 0 19 79 100 145
2021-02-18 17:30 0.63 4 153 (2020) 0 (2016) 44 0 0 0 19 79 100 145
2021-02-18 16:30 0.63 4 153 (2020) 0 (2016) 44 0 0 0 19 79 100 145
2021-02-18 15:30 0.63 4 153 (2020) 0 (2016) 44 0 0 0 19 79 100 145
2021-02-18 14:30 0.64 4 153 (2020) 0 (2016) 44 0 0 0 19 79 100 145
2021-02-18 13:30 0.65 4 153 (2020) 0 (2016) 44 0 0 0 19 79 100 145
2021-02-18 12:30 0.66 4 153 (2020) 0 (2016) 44 0 0 0 19 79 100 145
2021-02-18 11:30 0.65 4 153 (2020) 0 (2016) 44 0 0 0 19 79 100 145
2021-02-18 10:30 0.65 4 153 (2020) 0 (2016) 44 0 0 0 19 79 100 145
2021-02-18 09:30 0.65 4 153 (2020) 0 (2016) 44 0 0 0 19 79 100 145
2021-02-18 08:30 0.66 4 153 (2020) 0 (2016) 44 0 0 0 19 79 100 145
2021-02-18 07:30 0.65 4 153 (2020) 0 (2016) 44 0 0 0 19 79 100 145
2021-02-18 06:30 0.65 4 153 (2020) 0 (2016) 44 0 0 0 19 79 100 145
2021-02-18 05:30 0.65 4 153 (2020) 0 (2016) 44 0 0 0 19 79 100 145
2021-02-18 04:30 0.64 4 153 (2020) 0 (2016) 44 0 0 0 19 79 100 145
2021-02-18 03:30 0.64 4 153 (2020) 0 (2016) 44 0 0 0 19 79 100 145
2021-02-18 02:30 0.64 4 153 (2020) 0 (2016) 44 0 0 0 19 79 100 145
2021-02-18 01:30 0.64 4 153 (2020) 0 (2016) 44 0 0 0 19 79 100 145
2021-02-18 00:30 0.64 4 153 (2020) 0 (2016) 44 0 0 0 19 79 100 145
2021-02-17 23:30 0.64 4 254 (2012) 0 (2017) 72 0 0 0 26 143 170 238
2021-02-17 22:30 0.64 4 254 (2012) 0 (2017) 72 0 0 0 26 143 170 238
2021-02-17 21:30 0.64 4 254 (2012) 0 (2017) 72 0 0 0 26 143 170 238
2021-02-17 20:30 0.64 4 254 (2012) 0 (2017) 72 0 0 0 26 143 170 238
2021-02-17 19:30 0.64 4 254 (2012) 0 (2017) 72 0 0 0 26 143 170 238
2021-02-17 18:30 0.64 4 254 (2012) 0 (2017) 72 0 0 0 26 143 170 238
2021-02-17 17:30 0.64 4 254 (2012) 0 (2017) 72 0 0 0 26 143 170 238
2021-02-17 16:30 0.65 4 254 (2012) 0 (2017) 72 0 0 0 26 143 170 238
2021-02-17 15:30 0.65 4 254 (2012) 0 (2017) 72 0 0 0 26 143 170 238
2021-02-17 14:30 0.65 4 254 (2012) 0 (2017) 72 0 0 0 26 143 170 238
2021-02-17 13:30 0.65 4 254 (2012) 0 (2017) 72 0 0 0 26 143 170 238
2021-02-17 12:30 0.65 4 254 (2012) 0 (2017) 72 0 0 0 26 143 170 238
2021-02-17 11:30 0.65 4 254 (2012) 0 (2017) 72 0 0 0 26 143 170 238
2021-02-17 10:30 0.65 4 254 (2012) 0 (2017) 72 0 0 0 26 143 170 238
2021-02-17 09:30 0.66 4 254 (2012) 0 (2017) 72 0 0 0 26 143 170 238
2021-02-17 08:30 0.67 4 254 (2012) 0 (2017) 72 0 0 0 26 143 170 238
2021-02-17 07:30 0.67 4 254 (2012) 0 (2017) 72 0 0 0 26 143 170 238
2021-02-17 06:30 254 (2012) 0 (2017) 72 0 0 0 26 143 170 238
2021-02-17 05:30 254 (2012) 0 (2017) 72 0 0 0 26 143 170 238
2021-02-17 04:30 254 (2012) 0 (2017) 72 0 0 0 26 143 170 238
2021-02-17 03:30 254 (2012) 0 (2017) 72 0 0 0 26 143 170 238
2021-02-17 02:30 254 (2012) 0 (2017) 72 0 0 0 26 143 170 238
2021-02-17 01:30 254 (2012) 0 (2017) 72 0 0 0 26 143 170 238
2021-02-17 00:30 254 (2012) 0 (2017) 72 0 0 0 26 143 170 238
2021-02-16 23:30 265 (2020) 0 (2017) 76 0 0 0 35 157 173 243
2021-02-16 22:30 265 (2020) 0 (2017) 76 0 0 0 35 157 173 243
2021-02-16 21:30 265 (2020) 0 (2017) 76 0 0 0 35 157 173 243
2021-02-16 20:30 265 (2020) 0 (2017) 76 0 0 0 35 157 173 243
2021-02-16 19:30 265 (2020) 0 (2017) 76 0 0 0 35 157 173 243
2021-02-16 18:30 265 (2020) 0 (2017) 76 0 0 0 35 157 173 243
2021-02-16 17:30 265 (2020) 0 (2017) 76 0 0 0 35 157 173 243
2021-02-16 16:30 265 (2020) 0 (2017) 76 0 0 0 35 157 173 243
2021-02-16 15:30 265 (2020) 0 (2017) 76 0 0 0 35 157 173 243
2021-02-16 14:30 265 (2020) 0 (2017) 76 0 0 0 35 157 173 243
2021-02-16 13:30 265 (2020) 0 (2017) 76 0 0 0 35 157 173 243
2021-02-16 12:30 265 (2020) 0 (2017) 76 0 0 0 35 157 173 243
2021-02-16 11:30 265 (2020) 0 (2017) 76 0 0 0 35 157 173 243
2021-02-16 10:30 265 (2020) 0 (2017) 76 0 0 0 35 157 173 243
2021-02-16 09:30 265 (2020) 0 (2017) 76 0 0 0 35 157 173 243
2021-02-16 08:30 265 (2020) 0 (2017) 76 0 0 0 35 157 173 243
2021-02-16 07:30 265 (2020) 0 (2017) 76 0 0 0 35 157 173 243
2021-02-16 06:30 265 (2020) 0 (2017) 76 0 0 0 35 157 173 243
2021-02-16 05:30 265 (2020) 0 (2017) 76 0 0 0 35 157 173 243
2021-02-16 04:30 265 (2020) 0 (2017) 76 0 0 0 35 157 173 243
2021-02-16 02:30 265 (2020) 0 (2017) 76 0 0 0 35 157 173 243
2021-02-16 01:30 265 (2020) 0 (2017) 76 0 0 0 35 157 173 243
2021-02-16 00:30 265 (2020) 0 (2017) 76 0 0 0 35 157 173 243
2021-02-15 23:30 377 (2020) 0 (2016) 85 0 0 0 2 201 269 356
2021-02-15 22:30 377 (2020) 0 (2016) 85 0 0 0 2 201 269 356
2021-02-15 21:30 377 (2020) 0 (2016) 85 0 0 0 2 201 269 356
2021-02-15 20:30 377 (2020) 0 (2016) 85 0 0 0 2 201 269 356
2021-02-15 19:30 377 (2020) 0 (2016) 85 0 0 0 2 201 269 356
2021-02-15 18:30 377 (2020) 0 (2016) 85 0 0 0 2 201 269 356
2021-02-15 17:30 377 (2020) 0 (2016) 85 0 0 0 2 201 269 356
2021-02-15 16:30 377 (2020) 0 (2016) 85 0 0 0 2 201 269 356
2021-02-15 15:30 377 (2020) 0 (2016) 85 0 0 0 2 201 269 356
2021-02-15 14:30 377 (2020) 0 (2016) 85 0 0 0 2 201 269 356
2021-02-15 13:30 377 (2020) 0 (2016) 85 0 0 0 2 201 269 356
2021-02-15 12:30 377 (2020) 0 (2016) 85 0 0 0 2 201 269 356
2021-02-15 11:30 377 (2020) 0 (2016) 85 0 0 0 2 201 269 356
2021-02-15 10:30 377 (2020) 0 (2016) 85 0 0 0 2 201 269 356
2021-02-15 09:30 0.71 5 377 (2020) 0 (2016) 85 0 0 0 2 201 269 356
2021-02-15 08:30 0.38 1 377 (2020) 0 (2016) 85 0 0 0 2 201 269 356
2021-02-15 07:30 0.59 3 377 (2020) 0 (2016) 85 0 0 0 2 201 269 356
2021-02-15 06:30 0.50 2 377 (2020) 0 (2016) 85 0 0 0 2 201 269 356
2021-02-15 05:30 0.77 7 377 (2020) 0 (2016) 85 0 0 0 2 201 269 356
2021-02-15 04:30 0.76 6 377 (2020) 0 (2016) 85 0 0 0 2 201 269 356
2021-02-15 03:30 0.67 4 377 (2020) 0 (2016) 85 0 0 0 2 201 269 356
2021-02-15 02:30 0.60 3 377 (2020) 0 (2016) 85 0 0 0 2 201 269 356
2021-02-15 01:30 0.53 2 377 (2020) 0 (2016) 85 0 0 0 2 201 269 356
2021-02-15 00:30 0.72 5 377 (2020) 0 (2016) 85 0 0 0 2 201 269 356
2021-02-14 23:30 0.73 6 681 (2020) 0 (2016) 145 0 0 0 1 330 467 640
2021-02-14 22:30 0.68 5 681 (2020) 0 (2016) 145 0 0 0 1 330 467 640
2021-02-14 21:30 0.70 5 681 (2020) 0 (2016) 145 0 0 0 1 330 467 640
2021-02-14 20:30 0.69 5 681 (2020) 0 (2016) 145 0 0 0 1 330 467 640
2021-02-14 19:30 0.70 5 681 (2020) 0 (2016) 145 0 0 0 1 330 467 640
2021-02-14 18:30 0.70 5 681 (2020) 0 (2016) 145 0 0 0 1 330 467 640
2021-02-14 17:30 0.69 5 681 (2020) 0 (2016) 145 0 0 0 1 330 467 640
2021-02-14 16:30 0.71 5 681 (2020) 0 (2016) 145 0 0 0 1 330 467 640
2021-02-14 15:30 0.70 5 681 (2020) 0 (2016) 145 0 0 0 1 330 467 640
2021-02-14 14:30 0.87 10 681 (2020) 0 (2016) 145 0 0 0 1 330 467 640
2021-02-14 13:30 0.66 4 681 (2020) 0 (2016) 145 0 0 0 1 330 467 640
2021-02-14 12:30 0.66 4 681 (2020) 0 (2016) 145 0 0 0 1 330 467 640
2021-02-14 11:30 0.74 6 681 (2020) 0 (2016) 145 0 0 0 1 330 467 640
2021-02-14 10:30 0.66 4 681 (2020) 0 (2016) 145 0 0 0 1 330 467 640
2021-02-14 09:30 0.72 5 681 (2020) 0 (2016) 145 0 0 0 1 330 467 640
2021-02-14 08:30 0.81 8 681 (2020) 0 (2016) 145 0 0 0 1 330 467 640
2021-02-14 07:30 0.69 5 681 (2020) 0 (2016) 145 0 0 0 1 330 467 640
2021-02-14 06:30 0.71 5 681 (2020) 0 (2016) 145 0 0 0 1 330 467 640
2021-02-14 05:30 0.72 5 681 (2020) 0 (2016) 145 0 0 0 1 330 467 640
2021-02-14 04:30 0.71 5 681 (2020) 0 (2016) 145 0 0 0 1 330 467 640
2021-02-14 03:30 0.71 5 681 (2020) 0 (2016) 145 0 0 0 1 330 467 640
2021-02-14 02:30 0.71 5 681 (2020) 0 (2016) 145 0 0 0 1 330 467 640
2021-02-14 01:30 0.72 5 681 (2020) 0 (2016) 145 0 0 0 1 330 467 640
2021-02-14 00:30 0.72 5 681 (2020) 0 (2016) 145 0 0 0 1 330 467 640
2021-02-13 23:30 0.72 5 1200 (2019) 0 (2016) 273 0 0 0 1 589 930 1200
2021-02-13 22:30 0.71 5 1200 (2019) 0 (2016) 273 0 0 0 1 589 930 1200
2021-02-13 21:30 0.72 5 1200 (2019) 0 (2016) 273 0 0 0 1 589 930 1200
2021-02-13 20:30 0.72 5 1200 (2019) 0 (2016) 273 0 0 0 1 589 930 1200
2021-02-13 19:30 0.70 5 1200 (2019) 0 (2016) 273 0 0 0 1 589 930 1200
2021-02-13 18:30 0.71 5 1200 (2019) 0 (2016) 273 0 0 0 1 589 930 1200
2021-02-13 17:30 0.64 4 1200 (2019) 0 (2016) 273 0 0 0 1 589 930 1200
2021-02-13 16:30 0.69 5 1200 (2019) 0 (2016) 273 0 0 0 1 589 930 1200
2021-02-13 15:30 0.64 4 1200 (2019) 0 (2016) 273 0 0 0 1 589 930 1200
2021-02-13 14:30 0.69 5 1200 (2019) 0 (2016) 273 0 0 0 1 589 930 1200
2021-02-13 13:30 0.72 5 1200 (2019) 0 (2016) 273 0 0 0 1 589 930 1200
2021-02-13 12:30 0.66 4 1200 (2019) 0 (2016) 273 0 0 0 1 589 930 1200
2021-02-13 11:30 0.68 5 1200 (2019) 0 (2016) 273 0 0 0 1 589 930 1200
2021-02-13 10:30 0.70 5 1200 (2019) 0 (2016) 273 0 0 0 1 589 930 1200
2021-02-13 09:30 0.72 5 1200 (2019) 0 (2016) 273 0 0 0 1 589 930 1200
2021-02-13 08:30 0.73 6 1200 (2019) 0 (2016) 273 0 0 0 1 589 930 1200
2021-02-13 07:30 0.73 6 1200 (2019) 0 (2016) 273 0 0 0 1 589 930 1200
2021-02-13 06:30 0.68 5 1200 (2019) 0 (2016) 273 0 0 0 1 589 930 1200
2021-02-13 05:30 0.73 6 1200 (2019) 0 (2016) 273 0 0 0 1 589 930 1200
2021-02-13 04:30 0.71 5 1200 (2019) 0 (2016) 273 0 0 0 1 589 930 1200
2021-02-13 03:30 0.65 4 1200 (2019) 0 (2016) 273 0 0 0 1 589 930 1200
2021-02-13 02:30 0.73 6 1200 (2019) 0 (2016) 273 0 0 0 1 589 930 1200
2021-02-13 01:30 0.73 6 1200 (2019) 0 (2016) 273 0 0 0 1 589 930 1200
2021-02-13 00:30 0.74 6 1200 (2019) 0 (2016) 273 0 0 0 1 589 930 1200
2021-02-12 23:30 0.74 6 1910 (2009) 0 (2017) 348 0 0 0 1 203 906 1910
2021-02-12 22:30 0.74 6 1910 (2009) 0 (2017) 348 0 0 0 1 203 906 1910
2021-02-12 21:30 0.74 6 1910 (2009) 0 (2017) 348 0 0 0 1 203 906 1910
2021-02-12 20:30 0.74 6 1910 (2009) 0 (2017) 348 0 0 0 1 203 906 1910
2021-02-12 19:30 0.74 6 1910 (2009) 0 (2017) 348 0 0 0 1 203 906 1910
2021-02-12 18:30 0.74 6 1910 (2009) 0 (2017) 348 0 0 0 1 203 906 1910
2021-02-12 17:30 0.74 6 1910 (2009) 0 (2017) 348 0 0 0 1 203 906 1910
2021-02-12 16:30 0.74 6 1910 (2009) 0 (2017) 348 0 0 0 1 203 906 1910
2021-02-12 15:30 0.68 5 1910 (2009) 0 (2017) 348 0 0 0 1 203 906 1910
2021-02-12 14:30 0.74 6 1910 (2009) 0 (2017) 348 0 0 0 1 203 906 1910
2021-02-12 13:30 0.71 5 1910 (2009) 0 (2017) 348 0 0 0 1 203 906 1910
2021-02-12 12:30 0.75 6 1910 (2009) 0 (2017) 348 0 0 0 1 203 906 1910
2021-02-12 11:30 0.75 6 1910 (2009) 0 (2017) 348 0 0 0 1 203 906 1910
2021-02-12 10:30 0.67 4 1910 (2009) 0 (2017) 348 0 0 0 1 203 906 1910
2021-02-12 09:30 0.73 7 1910 (2009) 0 (2017) 348 0 0 0 1 203 906 1910
2021-02-12 08:30 0.72 7 1910 (2009) 0 (2017) 348 0 0 0 1 203 906 1910
2021-02-12 07:30 0.75 8 1910 (2009) 0 (2017) 348 0 0 0 1 203 906 1910
2021-02-12 06:30 0.68 6 1910 (2009) 0 (2017) 348 0 0 0 1 203 906 1910
2021-02-12 05:30 0.75 8 1910 (2009) 0 (2017) 348 0 0 0 1 203 906 1910
2021-02-12 04:30 0.70 6 1910 (2009) 0 (2017) 348 0 0 0 1 203 906 1910
2021-02-12 03:30 0.76 8 1910 (2009) 0 (2017) 348 0 0 0 1 203 906 1910
2021-02-12 02:30 0.75 8 1910 (2009) 0 (2017) 348 0 0 0 1 203 906 1910
2021-02-12 01:30 0.76 8 1910 (2009) 0 (2017) 348 0 0 0 1 203 906 1910
2021-02-12 00:30 0.76 8 1910 (2009) 0 (2017) 348 0 0 0 1 203 906 1910
2021-02-11 23:30 0.76 8 1510 (2009) 0 (2017) 171 0 0 0 0 167 205 1130
2021-02-11 22:30 0.76 8 1510 (2009) 0 (2017) 171 0 0 0 0 167 205 1130
2021-02-11 21:30 0.76 8 1510 (2009) 0 (2017) 171 0 0 0 0 167 205 1130
2021-02-11 20:30 0.77 8 1510 (2009) 0 (2017) 171 0 0 0 0 167 205 1130
2021-02-11 19:30 0.76 8 1510 (2009) 0 (2017) 171 0 0 0 0 167 205 1130
2021-02-11 18:30 0.77 8 1510 (2009) 0 (2017) 171 0 0 0 0 167 205 1130
2021-02-11 17:30 0.77 8 1510 (2009) 0 (2017) 171 0 0 0 0 167 205 1130
2021-02-11 16:30 0.77 8 1510 (2009) 0 (2017) 171 0 0 0 0 167 205 1130
2021-02-11 15:30 0.78 9 1510 (2009) 0 (2017) 171 0 0 0 0 167 205 1130
2021-02-11 14:30 0.78 9 1510 (2009) 0 (2017) 171 0 0 0 0 167 205 1130
2021-02-11 13:30 0.78 9 1510 (2009) 0 (2017) 171 0 0 0 0 167 205 1130
2021-02-11 12:30 0.78 9 1510 (2009) 0 (2017) 171 0 0 0 0 167 205 1130
2021-02-11 11:30 0.78 9 1510 (2009) 0 (2017) 171 0 0 0 0 167 205 1130
2021-02-11 10:30 0.79 9 1510 (2009) 0 (2017) 171 0 0 0 0 167 205 1130
2021-02-11 09:30 0.79 9 1510 (2009) 0 (2017) 171 0 0 0 0 167 205 1130
2021-02-11 08:30 0.79 9 1510 (2009) 0 (2017) 171 0 0 0 0 167 205 1130
2021-02-11 07:30 0.80 9 1510 (2009) 0 (2017) 171 0 0 0 0 167 205 1130
2021-02-11 06:30 0.80 9 1510 (2009) 0 (2017) 171 0 0 0 0 167 205 1130
2021-02-11 05:30 0.80 9 1510 (2009) 0 (2017) 171 0 0 0 0 167 205 1130
2021-02-11 04:30 0.81 10 1510 (2009) 0 (2017) 171 0 0 0 0 167 205 1130
2021-02-11 03:30 0.81 10 1510 (2009) 0 (2017) 171 0 0 0 0 167 205 1130
2021-02-11 02:30 0.81 10 1510 (2009) 0 (2017) 171 0 0 0 0 167 205 1130
2021-02-11 01:30 0.82 10 1510 (2009) 0 (2017) 171 0 0 0 0 167 205 1130
2021-02-11 00:30 0.83 10 1510 (2009) 0 (2017) 171 0 0 0 0 167 205 1130
2021-02-10 23:30 0.83 10 336 (2019) 0 (2017) 59 0 0 0 0 107 133 284
2021-02-10 22:30 0.84 11 336 (2019) 0 (2017) 59 0 0 0 0 107 133 284
2021-02-10 21:30 0.84 11 336 (2019) 0 (2017) 59 0 0 0 0 107 133 284
2021-02-10 20:30 0.85 11 336 (2019) 0 (2017) 59 0 0 0 0 107 133 284
2021-02-10 19:30 0.86 12 336 (2019) 0 (2017) 59 0 0 0 0 107 133 284
2021-02-10 18:30 0.87 12 336 (2019) 0 (2017) 59 0 0 0 0 107 133 284
2021-02-10 17:30 0.85 11 336 (2019) 0 (2017) 59 0 0 0 0 107 133 284
2021-02-10 16:30 0.85 11 336 (2019) 0 (2017) 59 0 0 0 0 107 133 284
2021-02-10 15:30 0.89 13 336 (2019) 0 (2017) 59 0 0 0 0 107 133 284
2021-02-10 14:30 0.90 13 336 (2019) 0 (2017) 59 0 0 0 0 107 133 284
2021-02-10 13:30 0.88 12 336 (2019) 0 (2017) 59 0 0 0 0 107 133 284
2021-02-10 12:30 0.91 14 336 (2019) 0 (2017) 59 0 0 0 0 107 133 284
2021-02-10 11:30 0.92 14 336 (2019) 0 (2017) 59 0 0 0 0 107 133 284
2021-02-10 10:30 0.92 14 336 (2019) 0 (2017) 59 0 0 0 0 107 133 284
2021-02-10 09:30 0.94 15 336 (2019) 0 (2017) 59 0 0 0 0 107 133 284
2021-02-10 08:30 0.94 15 336 (2019) 0 (2017) 59 0 0 0 0 107 133 284
2021-02-10 07:30 0.95 16 336 (2019) 0 (2017) 59 0 0 0 0 107 133 284
2021-02-10 06:30 0.96 16 336 (2019) 0 (2017) 59 0 0 0 0 107 133 284
2021-02-10 05:30 0.97 17 336 (2019) 0 (2017) 59 0 0 0 0 107 133 284
2021-02-10 04:30 0.98 17 336 (2019) 0 (2017) 59 0 0 0 0 107 133 284
2021-02-10 03:30 0.99 18 336 (2019) 0 (2017) 59 0 0 0 0 107 133 284
2021-02-10 02:30 1.00 18 336 (2019) 0 (2017) 59 0 0 0 0 107 133 284
2021-02-10 01:30 1.01 19 336 (2019) 0 (2017) 59 0 0 0 0 107 133 284
2021-02-10 00:30 1.01 19 336 (2019) 0 (2017) 59 0 0 0 0 107 133 284
2021-02-09 23:30 1.02 19 725 (2019) 0 (2017) 93 0 0 0 0 106 166 572
2021-02-09 22:30 1.03 20 725 (2019) 0 (2017) 93 0 0 0 0 106 166 572
2021-02-09 21:30 1.04 21 725 (2019) 0 (2017) 93 0 0 0 0 106 166 572
2021-02-09 20:30 1.05 21 725 (2019) 0 (2017) 93 0 0 0 0 106 166 572
2021-02-09 19:30 1.06 22 725 (2019) 0 (2017) 93 0 0 0 0 106 166 572
2021-02-09 18:30 1.07 22 725 (2019) 0 (2017) 93 0 0 0 0 106 166 572
2021-02-09 17:30 1.08 23 725 (2019) 0 (2017) 93 0 0 0 0 106 166 572
2021-02-09 16:30 1.08 23 725 (2019) 0 (2017) 93 0 0 0 0 106 166 572
2021-02-09 15:30 1.09 24 725 (2019) 0 (2017) 93 0 0 0 0 106 166 572
2021-02-09 14:30 1.10 24 725 (2019) 0 (2017) 93 0 0 0 0 106 166 572
2021-02-09 13:30 1.11 25 725 (2019) 0 (2017) 93 0 0 0 0 106 166 572
2021-02-09 12:30 1.12 26 725 (2019) 0 (2017) 93 0 0 0 0 106 166 572
2021-02-09 11:30 1.13 26 725 (2019) 0 (2017) 93 0 0 0 0 106 166 572
2021-02-09 10:30 1.09 24 725 (2019) 0 (2017) 93 0 0 0 0 106 166 572
2021-02-09 09:30 1.14 27 725 (2019) 0 (2017) 93 0 0 0 0 106 166 572
2021-02-09 08:30 1.15 28 725 (2019) 0 (2017) 93 0 0 0 0 106 166 572
2021-02-09 07:30 1.12 26 725 (2019) 0 (2017) 93 0 0 0 0 106 166 572
2021-02-09 06:30 1.17 29 725 (2019) 0 (2017) 93 0 0 0 0 106 166 572
2021-02-09 05:30 1.16 29 725 (2019) 0 (2017) 93 0 0 0 0 106 166 572
2021-02-09 04:30 1.13 26 725 (2019) 0 (2017) 93 0 0 0 0 106 166 572
2021-02-09 03:30 1.19 31 725 (2019) 0 (2017) 93 0 0 0 0 106 166 572
2021-02-09 02:30 1.15 28 725 (2019) 0 (2017) 93 0 0 0 0 106 166 572
2021-02-09 01:30 1.15 28 725 (2019) 0 (2017) 93 0 0 0 0 106 166 572
2021-02-09 00:30 1.19 31 725 (2019) 0 (2017) 93 0 0 0 0 106 166 572
2021-02-08 23:30 1.17 29 2390 (2019) 0 (2017) 241 0 0 0 0 148 219 1750
2021-02-08 22:30 1.23 34 2390 (2019) 0 (2017) 241 0 0 0 0 148 219 1750
2021-02-08 21:30 1.20 32 2390 (2019) 0 (2017) 241 0 0 0 0 148 219 1750
2021-02-08 20:30 1.23 34 2390 (2019) 0 (2017) 241 0 0 0 0 148 219 1750
2021-02-08 19:30 1.23 34 2390 (2019) 0 (2017) 241 0 0 0 0 148 219 1750
2021-02-08 18:30 1.27 38 2390 (2019) 0 (2017) 241 0 0 0 0 148 219 1750
2021-02-08 17:30 1.27 38 2390 (2019) 0 (2017) 241 0 0 0 0 148 219 1750
2021-02-08 16:30 1.28 39 2390 (2019) 0 (2017) 241 0 0 0 0 148 219 1750
2021-02-08 15:30 1.29 40 2390 (2019) 0 (2017) 241 0 0 0 0 148 219 1750
2021-02-08 14:30 1.30 41 2390 (2019) 0 (2017) 241 0 0 0 0 148 219 1750
2021-02-08 13:30 1.29 40 2390 (2019) 0 (2017) 241 0 0 0 0 148 219 1750
2021-02-08 12:30 1.32 43 2390 (2019) 0 (2017) 241 0 0 0 0 148 219 1750
2021-02-08 11:30 1.32 43 2390 (2019) 0 (2017) 241 0 0 0 0 148 219 1750
2021-02-08 10:30 1.32 43 2390 (2019) 0 (2017) 241 0 0 0 0 148 219 1750
2021-02-08 09:30 1.34 45 2390 (2019) 0 (2017) 241 0 0 0 0 148 219 1750
2021-02-08 08:30 1.35 46 2390 (2019) 0 (2017) 241 0 0 0 0 148 219 1750
2021-02-08 07:30 1.36 47 2390 (2019) 0 (2017) 241 0 0 0 0 148 219 1750
2021-02-08 06:30 1.36 47 2390 (2019) 0 (2017) 241 0 0 0 0 148 219 1750
2021-02-08 05:30 1.38 49 2390 (2019) 0 (2017) 241 0 0 0 0 148 219 1750
2021-02-08 04:30 1.38 49 2390 (2019) 0 (2017) 241 0 0 0 0 148 219 1750
2021-02-08 03:30 1.40 52 2390 (2019) 0 (2017) 241 0 0 0 0 148 219 1750
2021-02-08 02:30 1.40 52 2390 (2019) 0 (2017) 241 0 0 0 0 148 219 1750
2021-02-08 01:30 1.41 53 2390 (2019) 0 (2017) 241 0 0 0 0 148 219 1750
2021-02-08 00:30 1.42 54 2390 (2019) 0 (2017) 241 0 0 0 0 148 219 1750
2021-02-07 23:30 1.42 54 1800 (2019) 0 (2017) 210 0 0 0 0 213 310 1380
2021-02-07 22:30 1.44 56 1800 (2019) 0 (2017) 210 0 0 0 0 213 310 1380
2021-02-07 21:30 1.44 56 1800 (2019) 0 (2017) 210 0 0 0 0 213 310 1380
2021-02-07 20:30 1.45 58 1800 (2019) 0 (2017) 210 0 0 0 0 213 310 1380
2021-02-07 19:30 1.45 58 1800 (2019) 0 (2017) 210 0 0 0 0 213 310 1380
2021-02-07 18:30 1.46 59 1800 (2019) 0 (2017) 210 0 0 0 0 213 310 1380
2021-02-07 17:30 1.46 59 1800 (2019) 0 (2017) 210 0 0 0 0 213 310 1380
2021-02-07 16:30 1.48 61 1800 (2019) 0 (2017) 210 0 0 0 0 213 310 1380
2021-02-07 15:30 1.50 64 1800 (2019) 0 (2017) 210 0 0 0 0 213 310 1380
2021-02-07 14:30 1.50 64 1800 (2019) 0 (2017) 210 0 0 0 0 213 310 1380
2021-02-07 13:30 1.50 64 1800 (2019) 0 (2017) 210 0 0 0 0 213 310 1380
2021-02-07 12:30 1.51 65 1800 (2019) 0 (2017) 210 0 0 0 0 213 310 1380
2021-02-07 10:30 1.55 71 1800 (2019) 0 (2017) 210 0 0 0 0 213 310 1380
2021-02-07 09:30 1.55 71 1800 (2019) 0 (2017) 210 0 0 0 0 213 310 1380
2021-02-07 08:30 1.56 72 1800 (2019) 0 (2017) 210 0 0 0 0 213 310 1380
2021-02-07 07:30 1.56 72 1800 (2019) 0 (2017) 210 0 0 0 0 213 310 1380
2021-02-07 06:30 1.59 77 1800 (2019) 0 (2017) 210 0 0 0 0 213 310 1380
2021-02-07 05:30 1.60 78 1800 (2019) 0 (2017) 210 0 0 0 0 213 310 1380
2021-02-07 04:30 1.61 80 1800 (2019) 0 (2017) 210 0 0 0 0 213 310 1380
2021-02-07 03:30 1.62 82 1800 (2019) 0 (2017) 210 0 0 0 0 213 310 1380
2021-02-07 02:30 1.62 82 1800 (2019) 0 (2017) 210 0 0 0 0 213 310 1380
2021-02-07 01:30 1.64 85 1800 (2019) 0 (2017) 210 0 0 0 0 213 310 1380
2021-02-07 00:30 1.65 86 1800 (2019) 0 (2017) 210 0 0 0 0 213 310 1380
2021-02-06 23:30 1.68 92 312 (2010) 0 (2017) 50 0 0 0 0 86 134 268
2021-02-06 22:30 1.68 92 312 (2010) 0 (2017) 50 0 0 0 0 86 134 268
2021-02-06 21:30 1.68 92 312 (2010) 0 (2017) 50 0 0 0 0 86 134 268
2021-02-06 20:30 1.71 97 312 (2010) 0 (2017) 50 0 0 0 0 86 134 268
2021-02-06 19:30 1.72 99 312 (2010) 0 (2017) 50 0 0 0 0 86 134 268
2021-02-06 18:30 1.73 100 312 (2010) 0 (2017) 50 0 0 0 0 86 134 268
2021-02-06 17:30 1.73 100 312 (2010) 0 (2017) 50 0 0 0 0 86 134 268
2021-02-06 16:30 1.77 108 312 (2010) 0 (2017) 50 0 0 0 0 86 134 268
2021-02-06 15:30 1.77 108 312 (2010) 0 (2017) 50 0 0 0 0 86 134 268
2021-02-06 14:30 1.79 112 312 (2010) 0 (2017) 50 0 0 0 0 86 134 268
2021-02-06 13:30 1.79 112 312 (2010) 0 (2017) 50 0 0 0 0 86 134 268
2021-02-06 12:30 1.80 114 312 (2010) 0 (2017) 50 0 0 0 0 86 134 268
2021-02-06 11:30 1.83 120 312 (2010) 0 (2017) 50 0 0 0 0 86 134 268
2021-02-06 10:30 1.83 120 312 (2010) 0 (2017) 50 0 0 0 0 86 134 268
2021-02-06 09:30 1.86 126 312 (2010) 0 (2017) 50 0 0 0 0 86 134 268
2021-02-06 08:30 1.85 124 312 (2010) 0 (2017) 50 0 0 0 0 86 134 268
2021-02-06 07:30 1.88 131 312 (2010) 0 (2017) 50 0 0 0 0 86 134 268
2021-02-06 06:30 1.88 131 312 (2010) 0 (2017) 50 0 0 0 0 86 134 268
2021-02-06 05:30 1.90 135 312 (2010) 0 (2017) 50 0 0 0 0 86 134 268
2021-02-06 04:30 1.93 142 312 (2010) 0 (2017) 50 0 0 0 0 86 134 268
2021-02-06 03:30 1.94 144 312 (2010) 0 (2017) 50 0 0 0 0 86 134 268
2021-02-06 02:30 1.94 144 312 (2010) 0 (2017) 50 0 0 0 0 86 134 268
2021-02-06 01:30 1.96 149 312 (2010) 0 (2017) 50 0 0 0 0 86 134 268
2021-02-06 00:30 1.97 152 312 (2010) 0 (2017) 50 0 0 0 0 86 134 268
2021-02-05 23:30 1.98 154 328 (2012) 0 (2017) 34 0 0 0 0 26 38 243
2021-02-05 22:30 1.99 157 328 (2012) 0 (2017) 34 0 0 0 0 26 38 243
2021-02-05 21:30 2.00 159 328 (2012) 0 (2017) 34 0 0 0 0 26 38 243
2021-02-05 20:30 2.02 164 328 (2012) 0 (2017) 34 0 0 0 0 26 38 243
2021-02-05 19:30 2.04 170 328 (2012) 0 (2017) 34 0 0 0 0 26 38 243
2021-02-05 18:30 2.03 167 328 (2012) 0 (2017) 34 0 0 0 0 26 38 243
2021-02-05 17:30 2.04 170 328 (2012) 0 (2017) 34 0 0 0 0 26 38 243
2021-02-05 16:30 2.06 175 328 (2012) 0 (2017) 34 0 0 0 0 26 38 243
2021-02-05 15:30 2.05 172 328 (2012) 0 (2017) 34 0 0 0 0 26 38 243
2021-02-05 14:30 2.05 172 328 (2012) 0 (2017) 34 0 0 0 0 26 38 243
2021-02-05 13:30 2.06 175 328 (2012) 0 (2017) 34 0 0 0 0 26 38 243
2021-02-05 12:30 2.06 175 328 (2012) 0 (2017) 34 0 0 0 0 26 38 243
2021-02-05 11:30 2.07 178 328 (2012) 0 (2017) 34 0 0 0 0 26 38 243
2021-02-05 10:30 2.08 180 328 (2012) 0 (2017) 34 0 0 0 0 26 38 243
2021-02-05 09:30 2.12 192 328 (2012) 0 (2017) 34 0 0 0 0 26 38 243
2021-02-05 08:30 2.13 195 328 (2012) 0 (2017) 34 0 0 0 0 26 38 243
2021-02-05 07:30 2.15 201 328 (2012) 0 (2017) 34 0 0 0 0 26 38 243
2021-02-05 06:30 2.15 201 328 (2012) 0 (2017) 34 0 0 0 0 26 38 243
2021-02-05 05:30 2.15 201 328 (2012) 0 (2017) 34 0 0 0 0 26 38 243
2021-02-05 04:30 2.16 204 328 (2012) 0 (2017) 34 0 0 0 0 26 38 243
2021-02-05 03:30 2.17 207 328 (2012) 0 (2017) 34 0 0 0 0 26 38 243
2021-02-05 02:30 2.18 210 328 (2012) 0 (2017) 34 0 0 0 0 26 38 243
2021-02-05 01:30 2.18 210 328 (2012) 0 (2017) 34 0 0 0 0 26 38 243
2021-02-05 00:30 2.18 210 328 (2012) 0 (2017) 34 0 0 0 0 26 38 243
2021-02-04 23:30 2.19 213 44 (2020) 0 (2017) 9 0 0 0 0 14 22 40
2021-02-04 22:30 2.22 222 44 (2020) 0 (2017) 9 0 0 0 0 14 22 40
2021-02-04 21:30 2.18 210 44 (2020) 0 (2017) 9 0 0 0 0 14 22 40
2021-02-04 20:30 2.22 222 44 (2020) 0 (2017) 9 0 0 0 0 14 22 40
2021-02-04 19:30 2.24 229 44 (2020) 0 (2017) 9 0 0 0 0 14 22 40
2021-02-04 18:30 2.25 232 44 (2020) 0 (2017) 9 0 0 0 0 14 22 40
2021-02-04 17:30 2.25 232 44 (2020) 0 (2017) 9 0 0 0 0 14 22 40
2021-02-04 16:30 2.23 226 44 (2020) 0 (2017) 9 0 0 0 0 14 22 40
2021-02-04 15:30 2.26 235 44 (2020) 0 (2017) 9 0 0 0 0 14 22 40
2021-02-04 14:30 2.25 232 44 (2020) 0 (2017) 9 0 0 0 0 14 22 40
2021-02-04 13:30 2.25 232 44 (2020) 0 (2017) 9 0 0 0 0 14 22 40
2021-02-04 12:30 2.25 232 44 (2020) 0 (2017) 9 0 0 0 0 14 22 40
2021-02-04 11:30 2.31 253 44 (2020) 0 (2017) 9 0 0 0 0 14 22 40
2021-02-04 09:30 2.33 260 44 (2020) 0 (2017) 9 0 0 0 0 14 22 40
2021-02-04 08:30 2.33 260 44 (2020) 0 (2017) 9 0 0 0 0 14 22 40
2021-02-04 07:30 2.35 267 44 (2020) 0 (2017) 9 0 0 0 0 14 22 40
2021-02-04 06:30 2.36 270 44 (2020) 0 (2017) 9 0 0 0 0 14 22 40
2021-02-04 05:30 2.36 270 44 (2020) 0 (2017) 9 0 0 0 0 14 22 40
2021-02-04 04:30 2.38 278 44 (2020) 0 (2017) 9 0 0 0 0 14 22 40
2021-02-04 03:30 2.38 278 44 (2020) 0 (2017) 9 0 0 0 0 14 22 40
2021-02-04 02:30 2.39 282 44 (2020) 0 (2017) 9 0 0 0 0 14 22 40
2021-02-04 01:30 2.39 282 44 (2020) 0 (2017) 9 0 0 0 0 14 22 40
2021-02-04 00:30 2.40 285 44 (2020) 0 (2017) 9 0 0 0 0 14 22 40
2021-02-03 23:30 2.42 293 60 (2020) 0 (2018) 11 0 0 0 1 25 35 54
2021-02-03 22:30 2.42 293 60 (2020) 0 (2018) 11 0 0 0 1 25 35 54
2021-02-03 21:30 2.44 301 60 (2020) 0 (2018) 11 0 0 0 1 25 35 54
2021-02-03 20:30 2.44 301 60 (2020) 0 (2018) 11 0 0 0 1 25 35 54
2021-02-03 19:30 2.48 317 60 (2020) 0 (2018) 11 0 0 0 1 25 35 54
2021-02-03 18:30 2.49 321 60 (2020) 0 (2018) 11 0 0 0 1 25 35 54
2021-02-03 17:30 2.48 317 60 (2020) 0 (2018) 11 0 0 0 1 25 35 54
2021-02-03 16:30 2.51 330 60 (2020) 0 (2018) 11 0 0 0 1 25 35 54
2021-02-03 15:30 2.52 334 60 (2020) 0 (2018) 11 0 0 0 1 25 35 54
2021-02-03 14:30 2.50 326 60 (2020) 0 (2018) 11 0 0 0 1 25 35 54
2021-02-03 13:30 2.54 343 60 (2020) 0 (2018) 11 0 0 0 1 25 35 54
2021-02-03 12:30 2.54 343 60 (2020) 0 (2018) 11 0 0 0 1 25 35 54
2021-02-03 11:30 2.56 351 60 (2020) 0 (2018) 11 0 0 0 1 25 35 54
2021-02-03 10:30 2.58 360 60 (2020) 0 (2018) 11 0 0 0 1 25 35 54
2021-02-03 09:30 2.59 365 60 (2020) 0 (2018) 11 0 0 0 1 25 35 54
2021-02-03 08:30 2.59 365 60 (2020) 0 (2018) 11 0 0 0 1 25 35 54
2021-02-03 07:30 2.60 369 60 (2020) 0 (2018) 11 0 0 0 1 25 35 54
2021-02-03 06:30 2.61 374 60 (2020) 0 (2018) 11 0 0 0 1 25 35 54
2021-02-03 05:30 2.63 383 60 (2020) 0 (2018) 11 0 0 0 1 25 35 54
2021-02-03 04:30 2.65 393 60 (2020) 0 (2018) 11 0 0 0 1 25 35 54
2021-02-03 03:30 2.64 388 60 (2020) 0 (2018) 11 0 0 0 1 25 35 54
2021-02-03 02:30 2.66 398 60 (2020) 0 (2018) 11 0 0 0 1 25 35 54
2021-02-03 01:30 2.67 402 60 (2020) 0 (2018) 11 0 0 0 1 25 35 54
2021-02-03 00:30 2.67 402 60 (2020) 0 (2018) 11 0 0 0 1 25 35 54
2021-02-02 23:30 2.69 412 77 (2020) 0 (2018) 17 0 0 0 1 40 58 73
2021-02-02 22:30 2.70 417 77 (2020) 0 (2018) 17 0 0 0 1 40 58 73
2021-02-02 21:30 2.72 427 77 (2020) 0 (2018) 17 0 0 0 1 40 58 73
2021-02-02 20:30 2.74 438 77 (2020) 0 (2018) 17 0 0 0 1 40 58 73
2021-02-02 19:30 2.76 448 77 (2020) 0 (2018) 17 0 0 0 1 40 58 73
2021-02-02 18:30 2.79 464 77 (2020) 0 (2018) 17 0 0 0 1 40 58 73
2021-02-02 17:30 2.79 464 77 (2020) 0 (2018) 17 0 0 0 1 40 58 73
2021-02-02 16:30 2.81 475 77 (2020) 0 (2018) 17 0 0 0 1 40 58 73
2021-02-02 15:30 2.83 486 77 (2020) 0 (2018) 17 0 0 0 1 40 58 73
2021-02-02 14:30 2.84 491 77 (2020) 0 (2018) 17 0 0 0 1 40 58 73
2021-02-02 13:30 2.85 497 77 (2020) 0 (2018) 17 0 0 0 1 40 58 73
2021-02-02 12:30 2.87 508 77 (2020) 0 (2018) 17 0 0 0 1 40 58 73
2021-02-02 11:30 2.89 520 77 (2020) 0 (2018) 17 0 0 0 1 40 58 73
2021-02-02 10:30 2.92 537 77 (2020) 0 (2018) 17 0 0 0 1 40 58 73
2021-02-02 09:30 2.92 537 77 (2020) 0 (2018) 17 0 0 0 1 40 58 73
2021-02-02 08:30 2.94 549 77 (2020) 0 (2018) 17 0 0 0 1 40 58 73
2021-02-02 07:30 2.96 562 77 (2020) 0 (2018) 17 0 0 0 1 40 58 73
2021-02-02 06:30 2.97 568 77 (2020) 0 (2018) 17 0 0 0 1 40 58 73
2021-02-02 05:30 2.99 580 77 (2020) 0 (2018) 17 0 0 0 1 40 58 73
2021-02-02 04:30 3.03 606 77 (2020) 0 (2018) 17 0 0 0 1 40 58 73
2021-02-02 03:30 3.07 632 77 (2020) 0 (2018) 17 0 0 0 1 40 58 73
2021-02-02 02:30 3.09 645 77 (2020) 0 (2018) 17 0 0 0 1 40 58 73
2021-02-02 01:30 3.12 666 77 (2020) 0 (2018) 17 0 0 0 1 40 58 73
2021-02-02 00:30 3.11 659 77 (2020) 0 (2018) 17 0 0 0 1 40 58 73
2021-02-01 23:30 3.17 701 192 (2013) 0 (2018) 31 0 0 0 1 55 81 162
2021-02-01 22:30 3.19 716 192 (2013) 0 (2018) 31 0 0 0 1 55 81 162
2021-02-01 21:30 3.22 738 192 (2013) 0 (2018) 31 0 0 0 1 55 81 162
2021-02-01 20:30 3.25 760 192 (2013) 0 (2018) 31 0 0 0 1 55 81 162
2021-02-01 19:30 3.27 776 192 (2013) 0 (2018) 31 0 0 0 1 55 81 162
2021-02-01 18:30 3.30 799 192 (2013) 0 (2018) 31 0 0 0 1 55 81 162
2021-02-01 17:30 3.34 831 192 (2013) 0 (2018) 31 0 0 0 1 55 81 162
2021-02-01 16:30 3.40 880 192 (2013) 0 (2018) 31 0 0 0 1 55 81 162
2021-02-01 15:30 3.41 889 192 (2013) 0 (2018) 31 0 0 0 1 55 81 162
2021-02-01 14:30 3.45 923 192 (2013) 0 (2018) 31 0 0 0 1 55 81 162
2021-02-01 13:30 3.49 958 192 (2013) 0 (2018) 31 0 0 0 1 55 81 162
2021-02-01 12:30 3.54 1000 192 (2013) 0 (2018) 31 0 0 0 1 55 81 162
2021-02-01 11:30 3.57 1030 192 (2013) 0 (2018) 31 0 0 0 1 55 81 162
2021-02-01 10:30 3.62 1080 192 (2013) 0 (2018) 31 0 0 0 1 55 81 162
2021-02-01 09:30 3.67 1130 192 (2013) 0 (2018) 31 0 0 0 1 55 81 162
2021-02-01 08:30 3.71 1170 192 (2013) 0 (2018) 31 0 0 0 1 55 81 162
2021-02-01 07:30 3.74 1200 192 (2013) 0 (2018) 31 0 0 0 1 55 81 162
2021-02-01 06:30 3.81 1270 192 (2013) 0 (2018) 31 0 0 0 1 55 81 162
2021-02-01 05:30 3.88 1350 192 (2013) 0 (2018) 31 0 0 0 1 55 81 162
2021-02-01 04:30 3.94 1410 192 (2013) 0 (2018) 31 0 0 0 1 55 81 162
2021-02-01 03:30 3.98 1450 192 (2013) 0 (2018) 31 0 0 0 1 55 81 162
2021-02-01 02:30 4.06 1540 192 (2013) 0 (2018) 31 0 0 0 1 55 81 162
2021-02-01 01:30 4.12 1600 192 (2013) 0 (2018) 31 0 0 0 1 55 81 162
2021-02-01 00:30 4.21 1690 192 (2013) 0 (2018) 31 0 0 0 1 55 81 162
2021-01-31 23:30 4.32 1800 844 (2013) 0 (2015) 88 0 0 0 1 74 99 622
2021-01-31 22:30 4.41 1900 844 (2013) 0 (2015) 88 0 0 0 1 74 99 622
2021-01-31 21:30 4.50 2000 844 (2013) 0 (2015) 88 0 0 0 1 74 99 622
2021-01-31 20:30 4.60 2110 844 (2013) 0 (2015) 88 0 0 0 1 74 99 622
2021-01-31 19:30 4.73 2260 844 (2013) 0 (2015) 88 0 0 0 1 74 99 622
2021-01-31 18:30 4.85 2410 844 (2013) 0 (2015) 88 0 0 0 1 74 99 622
2021-01-31 17:30 4.99 2590 844 (2013) 0 (2015) 88 0 0 0 1 74 99 622
2021-01-31 16:30 5.12 2760 844 (2013) 0 (2015) 88 0 0 0 1 74 99 622
2021-01-31 15:30 5.19 2840 844 (2013) 0 (2015) 88 0 0 0 1 74 99 622
2021-01-31 14:30 5.27 2940 844 (2013) 0 (2015) 88 0 0 0 1 74 99 622
2021-01-31 13:30 5.26 2930 844 (2013) 0 (2015) 88 0 0 0 1 74 99 622
2021-01-31 12:30 5.21 2870 844 (2013) 0 (2015) 88 0 0 0 1 74 99 622
2021-01-31 11:30 5.09 2720 844 (2013) 0 (2015) 88 0 0 0 1 74 99 622
2021-01-31 10:30 4.92 2500 844 (2013) 0 (2015) 88 0 0 0 1 74 99 622
2021-01-31 09:30 4.64 2160 844 (2013) 0 (2015) 88 0 0 0 1 74 99 622
2021-01-31 08:30 4.30 1780 844 (2013) 0 (2015) 88 0 0 0 1 74 99 622
2021-01-31 07:30 3.91 1380 844 (2013) 0 (2015) 88 0 0 0 1 74 99 622
2021-01-31 06:30 3.55 1010 844 (2013) 0 (2015) 88 0 0 0 1 74 99 622
2021-01-31 05:30 3.27 776 844 (2013) 0 (2015) 88 0 0 0 1 74 99 622
2021-01-31 04:30 3.03 606 844 (2013) 0 (2015) 88 0 0 0 1 74 99 622
2021-01-31 03:30 2.88 514 844 (2013) 0 (2015) 88 0 0 0 1 74 99 622
2021-01-31 02:30 2.72 427 844 (2013) 0 (2015) 88 0 0 0 1 74 99 622
2021-01-31 01:30 2.58 360 844 (2013) 0 (2015) 88 0 0 0 1 74 99 622
2021-01-31 00:30 2.52 334 844 (2013) 0 (2015) 88 0 0 0 1 74 99 622
2021-01-30 23:30 2.47 313 805 (2013) 0 (2015) 90 0 0 0 3 92 117 599
2021-01-30 22:30 2.41 289 805 (2013) 0 (2015) 90 0 0 0 3 92 117 599
2021-01-30 21:30 2.39 282 805 (2013) 0 (2015) 90 0 0 0 3 92 117 599
2021-01-30 20:30 2.36 270 805 (2013) 0 (2015) 90 0 0 0 3 92 117 599
2021-01-30 19:30 2.35 267 805 (2013) 0 (2015) 90 0 0 0 3 92 117 599
2021-01-30 18:30 2.35 267 805 (2013) 0 (2015) 90 0 0 0 3 92 117 599
2021-01-30 17:30 2.28 242 805 (2013) 0 (2015) 90 0 0 0 3 92 117 599
2021-01-30 16:30 2.27 239 805 (2013) 0 (2015) 90 0 0 0 3 92 117 599
2021-01-30 15:30 2.26 235 805 (2013) 0 (2015) 90 0 0 0 3 92 117 599
2021-01-30 14:30 2.26 235 805 (2013) 0 (2015) 90 0 0 0 3 92 117 599
2021-01-30 13:30 2.25 232 805 (2013) 0 (2015) 90 0 0 0 3 92 117 599
2021-01-30 12:30 2.26 235 805 (2013) 0 (2015) 90 0 0 0 3 92 117 599
2021-01-30 11:30 2.25 232 805 (2013) 0 (2015) 90 0 0 0 3 92 117 599
2021-01-30 10:30 2.25 232 805 (2013) 0 (2015) 90 0 0 0 3 92 117 599
2021-01-30 09:30 2.25 232 805 (2013) 0 (2015) 90 0 0 0 3 92 117 599
2021-01-30 08:30 2.27 239 805 (2013) 0 (2015) 90 0 0 0 3 92 117 599
2021-01-30 07:30 2.27 239 805 (2013) 0 (2015) 90 0 0 0 3 92 117 599
2021-01-30 06:30 2.27 239 805 (2013) 0 (2015) 90 0 0 0 3 92 117 599
2021-01-30 05:30 2.28 242 805 (2013) 0 (2015) 90 0 0 0 3 92 117 599
2021-01-30 04:30 2.28 242 805 (2013) 0 (2015) 90 0 0 0 3 92 117 599
2021-01-30 03:30 2.30 249 805 (2013) 0 (2015) 90 0 0 0 3 92 117 599
2021-01-30 02:30 2.31 253 805 (2013) 0 (2015) 90 0 0 0 3 92 117 599
2021-01-30 01:30 2.31 253 805 (2013) 0 (2015) 90 0 0 0 3 92 117 599
2021-01-30 00:30 2.32 256 805 (2013) 0 (2015) 90 0 0 0 3 92 117 599
2021-01-29 23:30 2.31 253 151 (2010) 0 (2013) 30 0 0 0 1 40 83 146
2021-01-29 22:30 2.34 263 151 (2010) 0 (2013) 30 0 0 0 1 40 83 146
2021-01-29 21:30 2.35 267 151 (2010) 0 (2013) 30 0 0 0 1 40 83 146
2021-01-29 20:30 2.35 267 151 (2010) 0 (2013) 30 0 0 0 1 40 83 146
2021-01-29 19:30 2.36 270 151 (2010) 0 (2013) 30 0 0 0 1 40 83 146
2021-01-29 18:30 2.39 282 151 (2010) 0 (2013) 30 0 0 0 1 40 83 146
2021-01-29 17:30 2.39 282 151 (2010) 0 (2013) 30 0 0 0 1 40 83 146
2021-01-29 16:30 2.40 285 151 (2010) 0 (2013) 30 0 0 0 1 40 83 146
2021-01-29 15:30 2.40 285 151 (2010) 0 (2013) 30 0 0 0 1 40 83 146
2021-01-29 14:30 2.41 289 151 (2010) 0 (2013) 30 0 0 0 1 40 83 146
2021-01-29 13:30 2.42 293 151 (2010) 0 (2013) 30 0 0 0 1 40 83 146
2021-01-29 12:30 2.44 301 151 (2010) 0 (2013) 30 0 0 0 1 40 83 146
2021-01-29 11:30 2.47 313 151 (2010) 0 (2013) 30 0 0 0 1 40 83 146
2021-01-29 10:30 2.47 313 151 (2010) 0 (2013) 30 0 0 0 1 40 83 146
2021-01-29 09:30 2.49 321 151 (2010) 0 (2013) 30 0 0 0 1 40 83 146
2021-01-29 08:30 2.50 326 151 (2010) 0 (2013) 30 0 0 0 1 40 83 146
2021-01-29 07:30 2.50 326 151 (2010) 0 (2013) 30 0 0 0 1 40 83 146
2021-01-29 06:30 2.52 334 151 (2010) 0 (2013) 30 0 0 0 1 40 83 146
2021-01-29 05:30 2.52 334 151 (2010) 0 (2013) 30 0 0 0 1 40 83 146
2021-01-29 04:30 2.54 343 151 (2010) 0 (2013) 30 0 0 0 1 40 83 146
2021-01-29 03:30 2.56 351 151 (2010) 0 (2013) 30 0 0 0 1 40 83 146
2021-01-29 02:30 2.57 356 151 (2010) 0 (2013) 30 0 0 0 1 40 83 146
2021-01-29 01:30 2.59 365 151 (2010) 0 (2013) 30 0 0 0 1 40 83 146
2021-01-29 00:30 2.60 369 151 (2010) 0 (2013) 30 0 0 0 1 40 83 146
2021-01-28 23:30 2.61 374 222 (2010) 0 (2013) 45 0 0 0 1 81 130 208
2021-01-28 22:30 2.63 383 222 (2010) 0 (2013) 45 0 0 0 1 81 130 208
2021-01-28 21:30 2.64 388 222 (2010) 0 (2013) 45 0 0 0 1 81 130 208
2021-01-28 20:30 2.66 398 222 (2010) 0 (2013) 45 0 0 0 1 81 130 208
2021-01-28 19:30 2.65 393 222 (2010) 0 (2013) 45 0 0 0 1 81 130 208
2021-01-28 18:30 2.68 407 222 (2010) 0 (2013) 45 0 0 0 1 81 130 208
2021-01-28 17:30 2.68 407 222 (2010) 0 (2013) 45 0 0 0 1 81 130 208
2021-01-28 16:30 2.71 422 222 (2010) 0 (2013) 45 0 0 0 1 81 130 208
2021-01-28 15:30 2.73 432 222 (2010) 0 (2013) 45 0 0 0 1 81 130 208
2021-01-28 14:30 2.73 432 222 (2010) 0 (2013) 45 0 0 0 1 81 130 208
2021-01-28 13:30 2.77 453 222 (2010) 0 (2013) 45 0 0 0 1 81 130 208
2021-01-28 12:30 2.78 458 222 (2010) 0 (2013) 45 0 0 0 1 81 130 208
2021-01-28 11:30 2.79 464 222 (2010) 0 (2013) 45 0 0 0 1 81 130 208
2021-01-28 10:30 2.82 480 222 (2010) 0 (2013) 45 0 0 0 1 81 130 208
2021-01-28 09:30 2.84 491 222 (2010) 0 (2013) 45 0 0 0 1 81 130 208
2021-01-28 08:30 2.85 497 222 (2010) 0 (2013) 45 0 0 0 1 81 130 208
2021-01-28 07:30 2.87 508 222 (2010) 0 (2013) 45 0 0 0 1 81 130 208
2021-01-28 06:30 2.90 526 222 (2010) 0 (2013) 45 0 0 0 1 81 130 208
2021-01-28 05:30 2.91 531 222 (2010) 0 (2013) 45 0 0 0 1 81 130 208
2021-01-28 04:30 2.96 562 222 (2010) 0 (2013) 45 0 0 0 1 81 130 208
2021-01-28 03:30 2.96 562 222 (2010) 0 (2013) 45 0 0 0 1 81 130 208
2021-01-28 02:30 2.99 580 222 (2010) 0 (2013) 45 0 0 0 1 81 130 208
2021-01-28 01:30 3.01 593 222 (2010) 0 (2013) 45 0 0 0 1 81 130 208
2021-01-28 00:30 3.01 593 222 (2010) 0 (2013) 45 0 0 0 1 81 130 208
2021-01-27 23:30 3.05 619 358 (2010) 0 (2013) 57 0 0 0 1 42 113 315
2021-01-27 22:30 3.08 639 358 (2010) 0 (2013) 57 0 0 0 1 42 113 315
2021-01-27 21:30 3.10 652 358 (2010) 0 (2013) 57 0 0 0 1 42 113 315
2021-01-27 20:30 3.12 666 358 (2010) 0 (2013) 57 0 0 0 1 42 113 315
2021-01-27 19:30 3.15 687 358 (2010) 0 (2013) 57 0 0 0 1 42 113 315
2021-01-27 18:30 3.19 716 358 (2010) 0 (2013) 57 0 0 0 1 42 113 315
2021-01-27 17:30 3.21 730 358 (2010) 0 (2013) 57 0 0 0 1 42 113 315
2021-01-27 16:30 3.24 753 358 (2010) 0 (2013) 57 0 0 0 1 42 113 315
2021-01-27 15:30 3.25 760 358 (2010) 0 (2013) 57 0 0 0 1 42 113 315
2021-01-27 14:30 3.29 791 358 (2010) 0 (2013) 57 0 0 0 1 42 113 315
2021-01-27 13:30 3.32 815 358 (2010) 0 (2013) 57 0 0 0 1 42 113 315
2021-01-27 12:30 3.35 839 358 (2010) 0 (2013) 57 0 0 0 1 42 113 315
2021-01-27 11:30 3.39 872 358 (2010) 0 (2013) 57 0 0 0 1 42 113 315
2021-01-27 10:30 3.42 897 358 (2010) 0 (2013) 57 0 0 0 1 42 113 315
2021-01-27 09:30 3.46 932 358 (2010) 0 (2013) 57 0 0 0 1 42 113 315
2021-01-27 08:30 3.49 958 358 (2010) 0 (2013) 57 0 0 0 1 42 113 315
2021-01-27 07:30 3.54 1000 358 (2010) 0 (2013) 57 0 0 0 1 42 113 315
2021-01-27 06:30 3.61 1070 358 (2010) 0 (2013) 57 0 0 0 1 42 113 315
2021-01-27 05:30 3.65 1110 358 (2010) 0 (2013) 57 0 0 0 1 42 113 315
2021-01-27 04:30 3.66 1120 358 (2010) 0 (2013) 57 0 0 0 1 42 113 315
2021-01-27 03:30 3.72 1180 358 (2010) 0 (2013) 57 0 0 0 1 42 113 315
2021-01-27 02:30 3.78 1240 358 (2010) 0 (2013) 57 0 0 0 1 42 113 315
2021-01-27 01:30 3.82 1280 358 (2010) 0 (2013) 57 0 0 0 1 42 113 315
2021-01-27 00:30 3.89 1360 358 (2010) 0 (2013) 57 0 0 0 1 42 113 315
2021-01-26 23:30 3.97 1440 672 (2010) 0 (2013) 87 0 0 0 1 70 147 545
2021-01-26 22:30 4.01 1480 672 (2010) 0 (2013) 87 0 0 0 1 70 147 545
2021-01-26 21:30 4.08 1560 672 (2010) 0 (2013) 87 0 0 0 1 70 147 545
2021-01-26 20:30 4.15 1630 672 (2010) 0 (2013) 87 0 0 0 1 70 147 545
2021-01-26 19:30 4.23 1710 672 (2010) 0 (2013) 87 0 0 0 1 70 147 545
2021-01-26 18:30 4.31 1790 672 (2010) 0 (2013) 87 0 0 0 1 70 147 545
2021-01-26 17:30 4.40 1890 672 (2010) 0 (2013) 87 0 0 0 1 70 147 545
2021-01-26 16:30 4.50 2000 672 (2010) 0 (2013) 87 0 0 0 1 70 147 545
2021-01-26 15:30 4.61 2130 672 (2010) 0 (2013) 87 0 0 0 1 70 147 545
2021-01-26 14:30 4.66 2180 672 (2010) 0 (2013) 87 0 0 0 1 70 147 545
2021-01-26 13:30 4.84 2400 672 (2010) 0 (2013) 87 0 0 0 1 70 147 545
2021-01-26 12:30 4.99 2590 672 (2010) 0 (2013) 87 0 0 0 1 70 147 545
2021-01-26 11:30 5.18 2830 672 (2010) 0 (2013) 87 0 0 0 1 70 147 545
2021-01-26 10:30 5.41 3110 672 (2010) 0 (2013) 87 0 0 0 1 70 147 545
2021-01-26 09:30 5.69 3460 672 (2010) 0 (2013) 87 0 0 0 1 70 147 545
2021-01-26 08:30 6.03 3910 672 (2010) 0 (2013) 87 0 0 0 1 70 147 545
2021-01-26 07:30 6.51 4510 672 (2010) 0 (2013) 87 0 0 0 1 70 147 545
2021-01-26 06:30 7.10 5300 672 (2010) 0 (2013) 87 0 0 0 1 70 147 545
2021-01-26 05:30 7.71 6150 672 (2010) 0 (2013) 87 0 0 0 1 70 147 545
2021-01-26 04:30 8.11 6750 672 (2010) 0 (2013) 87 0 0 0 1 70 147 545
2021-01-26 03:30 8.26 6990 672 (2010) 0 (2013) 87 0 0 0 1 70 147 545
2021-01-26 02:30 8.24 6960 672 (2010) 0 (2013) 87 0 0 0 1 70 147 545
2021-01-26 01:30 8.07 6680 672 (2010) 0 (2013) 87 0 0 0 1 70 147 545
2021-01-26 00:30 7.95 6500 672 (2010) 0 (2013) 87 0 0 0 1 70 147 545
2021-01-25 23:30 7.69 6120 1670 (2010) 0 (2013) 180 0 0 0 1 136 193 1240
2021-01-25 22:30 7.45 5780 1670 (2010) 0 (2013) 180 0 0 0 1 136 193 1240
2021-01-25 21:30 7.13 5340 1670 (2010) 0 (2013) 180 0 0 0 1 136 193 1240
2021-01-25 20:30 6.79 4880 1670 (2010) 0 (2013) 180 0 0 0 1 136 193 1240
2021-01-25 19:30 6.38 4340 1670 (2010) 0 (2013) 180 0 0 0 1 136 193 1240
2021-01-25 18:30 5.87 3700 1670 (2010) 0 (2013) 180 0 0 0 1 136 193 1240
2021-01-25 17:30 5.24 2900 1670 (2010) 0 (2013) 180 0 0 0 1 136 193 1240
2021-01-25 16:30 4.28 1760 1670 (2010) 0 (2013) 180 0 0 0 1 136 193 1240
2021-01-25 15:30 2.83 486 1670 (2010) 0 (2013) 180 0 0 0 1 136 193 1240
2021-01-25 14:30 2.74 438 1670 (2010) 0 (2013) 180 0 0 0 1 136 193 1240
2021-01-25 13:30 2.76 448 1670 (2010) 0 (2013) 180 0 0 0 1 136 193 1240
2021-01-25 12:30 2.86 502 1670 (2010) 0 (2013) 180 0 0 0 1 136 193 1240
2021-01-25 11:30 2.73 432 1670 (2010) 0 (2013) 180 0 0 0 1 136 193 1240
2021-01-25 10:30 2.45 305 1670 (2010) 0 (2013) 180 0 0 0 1 136 193 1240
2021-01-25 09:30 2.12 192 1670 (2010) 0 (2013) 180 0 0 0 1 136 193 1240
2021-01-25 08:30 1.79 112 1670 (2010) 0 (2013) 180 0 0 0 1 136 193 1240
2021-01-25 07:30 1.27 38 1670 (2010) 0 (2013) 180 0 0 0 1 136 193 1240
2021-01-25 06:30 0.82 10 1670 (2010) 0 (2013) 180 0 0 0 1 136 193 1240
2021-01-25 05:30 0.79 9 1670 (2010) 0 (2013) 180 0 0 0 1 136 193 1240
2021-01-25 04:30 0.72 7 1670 (2010) 0 (2013) 180 0 0 0 1 136 193 1240
2021-01-25 03:30 0.68 6 1670 (2010) 0 (2013) 180 0 0 0 1 136 193 1240
2021-01-25 02:30 0.65 5 1670 (2010) 0 (2013) 180 0 0 0 1 136 193 1240
2021-01-25 01:30 0.65 5 1670 (2010) 0 (2013) 180 0 0 0 1 136 193 1240
2021-01-25 00:30 0.66 5 1670 (2010) 0 (2013) 180 0 0 0 1 136 193 1240
2021-01-24 23:30 0.66 5 3020 (2010) 0 (2012) 296 0 0 0 1 169 181 2170
2021-01-24 22:30 0.66 5 3020 (2010) 0 (2012) 296 0 0 0 1 169 181 2170
2021-01-24 21:30 0.66 5 3020 (2010) 0 (2012) 296 0 0 0 1 169 181 2170
2021-01-24 20:30 0.66 5 3020 (2010) 0 (2012) 296 0 0 0 1 169 181 2170
2021-01-24 19:30 0.67 5 3020 (2010) 0 (2012) 296 0 0 0 1 169 181 2170
2021-01-24 18:30 0.66 5 3020 (2010) 0 (2012) 296 0 0 0 1 169 181 2170
2021-01-24 17:30 0.67 5 3020 (2010) 0 (2012) 296 0 0 0 1 169 181 2170
2021-01-24 16:30 0.66 5 3020 (2010) 0 (2012) 296 0 0 0 1 169 181 2170
2021-01-24 15:30 0.66 5 3020 (2010) 0 (2012) 296 0 0 0 1 169 181 2170
2021-01-24 14:30 0.66 5 3020 (2010) 0 (2012) 296 0 0 0 1 169 181 2170
2021-01-24 13:30 0.66 5 3020 (2010) 0 (2012) 296 0 0 0 1 169 181 2170
2021-01-24 12:30 0.65 5 3020 (2010) 0 (2012) 296 0 0 0 1 169 181 2170
2021-01-24 11:30 0.66 5 3020 (2010) 0 (2012) 296 0 0 0 1 169 181 2170
2021-01-24 10:30 0.66 5 3020 (2010) 0 (2012) 296 0 0 0 1 169 181 2170
2021-01-24 09:30 0.66 5 3020 (2010) 0 (2012) 296 0 0 0 1 169 181 2170
2021-01-24 08:30 0.66 5 3020 (2010) 0 (2012) 296 0 0 0 1 169 181 2170
2021-01-24 07:30 0.66 5 3020 (2010) 0 (2012) 296 0 0 0 1 169 181 2170
2021-01-24 06:30 0.66 5 3020 (2010) 0 (2012) 296 0 0 0 1 169 181 2170
2021-01-24 05:30 0.66 5 3020 (2010) 0 (2012) 296 0 0 0 1 169 181 2170
2021-01-24 04:30 0.66 5 3020 (2010) 0 (2012) 296 0 0 0 1 169 181 2170
2021-01-24 03:30 0.66 5 3020 (2010) 0 (2012) 296 0 0 0 1 169 181 2170
2021-01-24 02:30 0.65 5 3020 (2010) 0 (2012) 296 0 0 0 1 169 181 2170
2021-01-24 01:30 0.65 5 3020 (2010) 0 (2012) 296 0 0 0 1 169 181 2170
2021-01-24 00:30 0.65 5 3020 (2010) 0 (2012) 296 0 0 0 1 169 181 2170
2021-01-23 23:30 0.66 5 478 (2010) 0 (2013) 91 0 0 0 1 150 278 455
2021-01-23 22:30 0.66 5 478 (2010) 0 (2013) 91 0 0 0 1 150 278 455
2021-01-23 21:30 0.59 4 478 (2010) 0 (2013) 91 0 0 0 1 150 278 455
2021-01-23 20:30 0.61 4 478 (2010) 0 (2013) 91 0 0 0 1 150 278 455
2021-01-23 19:30 0.66 5 478 (2010) 0 (2013) 91 0 0 0 1 150 278 455
2021-01-23 18:30 0.66 5 478 (2010) 0 (2013) 91 0 0 0 1 150 278 455
2021-01-23 17:30 0.64 5 478 (2010) 0 (2013) 91 0 0 0 1 150 278 455
2021-01-23 16:30 0.59 4 478 (2010) 0 (2013) 91 0 0 0 1 150 278 455
2021-01-23 15:30 0.63 5 478 (2010) 0 (2013) 91 0 0 0 1 150 278 455
2021-01-23 14:30 0.63 5 478 (2010) 0 (2013) 91 0 0 0 1 150 278 455
2021-01-23 13:30 0.60 4 478 (2010) 0 (2013) 91 0 0 0 1 150 278 455
2021-01-23 12:30 0.61 4 478 (2010) 0 (2013) 91 0 0 0 1 150 278 455
2021-01-23 11:30 0.61 4 478 (2010) 0 (2013) 91 0 0 0 1 150 278 455
2021-01-23 10:30 0.62 4 478 (2010) 0 (2013) 91 0 0 0 1 150 278 455
2021-01-23 09:30 0.58 4 478 (2010) 0 (2013) 91 0 0 0 1 150 278 455
2021-01-23 08:30 0.65 5 478 (2010) 0 (2013) 91 0 0 0 1 150 278 455
2021-01-23 07:30 0.66 5 478 (2010) 0 (2013) 91 0 0 0 1 150 278 455
2021-01-23 06:30 0.66 5 478 (2010) 0 (2013) 91 0 0 0 1 150 278 455
2021-01-23 05:30 0.66 5 478 (2010) 0 (2013) 91 0 0 0 1 150 278 455
2021-01-23 04:30 0.66 5 478 (2010) 0 (2013) 91 0 0 0 1 150 278 455
2021-01-23 03:30 0.66 5 478 (2010) 0 (2013) 91 0 0 0 1 150 278 455
2021-01-23 02:30 0.66 5 478 (2010) 0 (2013) 91 0 0 0 1 150 278 455
2021-01-23 01:30 0.66 5 478 (2010) 0 (2013) 91 0 0 0 1 150 278 455
2021-01-23 00:30 0.66 5 478 (2010) 0 (2013) 91 0 0 0 1 150 278 455
2021-01-22 23:30 0.66 5 656 (2010) 0 (2013) 77 0 0 0 1 13 103 531
2021-01-22 22:30 0.66 5 656 (2010) 0 (2013) 77 0 0 0 1 13 103 531
2021-01-22 21:30 0.66 5 656 (2010) 0 (2013) 77 0 0 0 1 13 103 531
2021-01-22 20:30 0.66 5 656 (2010) 0 (2013) 77 0 0 0 1 13 103 531
2021-01-22 19:30 0.66 5 656 (2010) 0 (2013) 77 0 0 0 1 13 103 531
2021-01-22 18:30 0.66 5 656 (2010) 0 (2013) 77 0 0 0 1 13 103 531
2021-01-22 17:30 0.66 5 656 (2010) 0 (2013) 77 0 0 0 1 13 103 531
2021-01-22 16:30 0.66 5 656 (2010) 0 (2013) 77 0 0 0 1 13 103 531
2021-01-22 15:30 0.66 5 656 (2010) 0 (2013) 77 0 0 0 1 13 103 531
2021-01-22 14:30 0.66 5 656 (2010) 0 (2013) 77 0 0 0 1 13 103 531
2021-01-22 13:30 0.65 5 656 (2010) 0 (2013) 77 0 0 0 1 13 103 531
2021-01-22 12:30 0.61 4 656 (2010) 0 (2013) 77 0 0 0 1 13 103 531
2021-01-22 11:30 0.66 5 656 (2010) 0 (2013) 77 0 0 0 1 13 103 531
2021-01-22 10:30 0.62 4 656 (2010) 0 (2013) 77 0 0 0 1 13 103 531
2021-01-22 09:30 0.66 5 656 (2010) 0 (2013) 77 0 0 0 1 13 103 531
2021-01-22 08:30 0.66 5 656 (2010) 0 (2013) 77 0 0 0 1 13 103 531
2021-01-22 07:30 0.66 5 656 (2010) 0 (2013) 77 0 0 0 1 13 103 531
2021-01-22 06:30 0.66 5 656 (2010) 0 (2013) 77 0 0 0 1 13 103 531
2021-01-22 05:30 0.66 5 656 (2010) 0 (2013) 77 0 0 0 1 13 103 531
2021-01-22 04:30 0.66 5 656 (2010) 0 (2013) 77 0 0 0 1 13 103 531
2021-01-22 03:30 0.66 5 656 (2010) 0 (2013) 77 0 0 0 1 13 103 531
2021-01-22 02:30 0.66 5 656 (2010) 0 (2013) 77 0 0 0 1 13 103 531
2021-01-22 01:30 0.66 5 656 (2010) 0 (2013) 77 0 0 0 1 13 103 531
2021-01-22 00:30 0.66 5 656 (2010) 0 (2013) 77 0 0 0 1 13 103 531
2021-01-21 23:30 0.66 5 330 (2020) 0 (2013) 32 0 0 0 1 13 19 238
2021-01-21 22:30 0.66 5 330 (2020) 0 (2013) 32 0 0 0 1 13 19 238
2021-01-21 21:30 0.66 5 330 (2020) 0 (2013) 32 0 0 0 1 13 19 238
2021-01-21 20:30 0.66 5 330 (2020) 0 (2013) 32 0 0 0 1 13 19 238
2021-01-21 19:30 0.67 5 330 (2020) 0 (2013) 32 0 0 0 1 13 19 238
2021-01-21 18:30 0.67 5 330 (2020) 0 (2013) 32 0 0 0 1 13 19 238
2021-01-21 17:30 0.67 5 330 (2020) 0 (2013) 32 0 0 0 1 13 19 238
2021-01-21 16:30 0.67 5 330 (2020) 0 (2013) 32 0 0 0 1 13 19 238
2021-01-21 15:30 0.66 5 330 (2020) 0 (2013) 32 0 0 0 1 13 19 238
2021-01-21 14:30 0.66 5 330 (2020) 0 (2013) 32 0 0 0 1 13 19 238
2021-01-21 13:30 0.66 5 330 (2020) 0 (2013) 32 0 0 0 1 13 19 238
2021-01-21 12:30 0.66 5 330 (2020) 0 (2013) 32 0 0 0 1 13 19 238
2021-01-21 11:30 0.66 5 330 (2020) 0 (2013) 32 0 0 0 1 13 19 238
2021-01-21 10:30 0.66 5 330 (2020) 0 (2013) 32 0 0 0 1 13 19 238
2021-01-21 09:30 0.66 5 330 (2020) 0 (2013) 32 0 0 0 1 13 19 238
2021-01-21 08:30 0.66 5 330 (2020) 0 (2013) 32 0 0 0 1 13 19 238
2021-01-21 07:30 0.67 5 330 (2020) 0 (2013) 32 0 0 0 1 13 19 238
2021-01-21 06:30 0.66 5 330 (2020) 0 (2013) 32 0 0 0 1 13 19 238
2021-01-21 05:30 0.67 5 330 (2020) 0 (2013) 32 0 0 0 1 13 19 238
2021-01-21 04:30 0.67 5 330 (2020) 0 (2013) 32 0 0 0 1 13 19 238
2021-01-21 03:30 0.67 5 330 (2020) 0 (2013) 32 0 0 0 1 13 19 238
2021-01-21 02:30 0.66 5 330 (2020) 0 (2013) 32 0 0 0 1 13 19 238
2021-01-21 01:30 0.66 5 330 (2020) 0 (2013) 32 0 0 0 1 13 19 238
2021-01-21 00:30 0.67 5 330 (2020) 0 (2013) 32 0 0 0 1 13 19 238
2021-01-20 23:30 0.63 5 598 (2020) 0 (2013) 55 0 0 0 1 13 23 430
2021-01-20 22:30 0.67 5 598 (2020) 0 (2013) 55 0 0 0 1 13 23 430
2021-01-20 21:30 0.67 5 598 (2020) 0 (2013) 55 0 0 0 1 13 23 430
2021-01-20 20:30 0.67 5 598 (2020) 0 (2013) 55 0 0 0 1 13 23 430
2021-01-20 19:30 0.67 5 598 (2020) 0 (2013) 55 0 0 0 1 13 23 430
2021-01-20 18:30 0.67 5 598 (2020) 0 (2013) 55 0 0 0 1 13 23 430
2021-01-20 17:30 0.67 5 598 (2020) 0 (2013) 55 0 0 0 1 13 23 430
2021-01-20 16:30 0.67 5 598 (2020) 0 (2013) 55 0 0 0 1 13 23 430
2021-01-20 15:30 0.67 5 598 (2020) 0 (2013) 55 0 0 0 1 13 23 430
2021-01-20 14:30 0.60 4 598 (2020) 0 (2013) 55 0 0 0 1 13 23 430
2021-01-20 13:30 0.59 4 598 (2020) 0 (2013) 55 0 0 0 1 13 23 430
2021-01-20 12:30 0.67 5 598 (2020) 0 (2013) 55 0 0 0 1 13 23 430
2021-01-20 11:30 0.67 5 598 (2020) 0 (2013) 55 0 0 0 1 13 23 430
2021-01-20 10:30 0.67 5 598 (2020) 0 (2013) 55 0 0 0 1 13 23 430
2021-01-20 09:30 0.67 5 598 (2020) 0 (2013) 55 0 0 0 1 13 23 430
2021-01-20 08:30 0.67 5 598 (2020) 0 (2013) 55 0 0 0 1 13 23 430
2021-01-20 07:30 0.67 5 598 (2020) 0 (2013) 55 0 0 0 1 13 23 430
2021-01-20 06:30 0.67 5 598 (2020) 0 (2013) 55 0 0 0 1 13 23 430
2021-01-20 05:30 0.67 5 598 (2020) 0 (2013) 55 0 0 0 1 13 23 430
2021-01-20 04:30 0.68 6 598 (2020) 0 (2013) 55 0 0 0 1 13 23 430
2021-01-20 03:30 0.67 5 598 (2020) 0 (2013) 55 0 0 0 1 13 23 430
2021-01-20 02:30 0.67 5 598 (2020) 0 (2013) 55 0 0 0 1 13 23 430
2021-01-20 01:30 0.68 6 598 (2020) 0 (2013) 55 0 0 0 1 13 23 430
2021-01-20 00:30 0.68 6 598 (2020) 0 (2013) 55 0 0 0 1 13 23 430
2021-01-19 23:30 0.68 6 1580 (2020) 0 (2013) 141 0 0 0 2 21 38 1120
2021-01-19 22:30 0.68 6 1580 (2020) 0 (2013) 141 0 0 0 2 21 38 1120
2021-01-19 21:30 0.68 6 1580 (2020) 0 (2013) 141 0 0 0 2 21 38 1120
2021-01-19 20:30 0.68 6 1580 (2020) 0 (2013) 141 0 0 0 2 21 38 1120
2021-01-19 19:30 0.68 6 1580 (2020) 0 (2013) 141 0 0 0 2 21 38 1120
2021-01-19 18:30 0.68 6 1580 (2020) 0 (2013) 141 0 0 0 2 21 38 1120
2021-01-19 17:30 0.68 6 1580 (2020) 0 (2013) 141 0 0 0 2 21 38 1120
2021-01-19 16:30 0.68 6 1580 (2020) 0 (2013) 141 0 0 0 2 21 38 1120
2021-01-19 15:30 0.61 4 1580 (2020) 0 (2013) 141 0 0 0 2 21 38 1120
2021-01-19 14:30 0.60 4 1580 (2020) 0 (2013) 141 0 0 0 2 21 38 1120
2021-01-19 13:30 0.68 6 1580 (2020) 0 (2013) 141 0 0 0 2 21 38 1120
2021-01-19 12:30 0.61 4 1580 (2020) 0 (2013) 141 0 0 0 2 21 38 1120
2021-01-19 11:30 0.68 6 1580 (2020) 0 (2013) 141 0 0 0 2 21 38 1120
2021-01-19 10:30 0.66 5 1580 (2020) 0 (2013) 141 0 0 0 2 21 38 1120
2021-01-19 09:30 0.68 6 1580 (2020) 0 (2013) 141 0 0 0 2 21 38 1120
2021-01-19 08:30 0.68 6 1580 (2020) 0 (2013) 141 0 0 0 2 21 38 1120
2021-01-19 07:30 0.68 6 1580 (2020) 0 (2013) 141 0 0 0 2 21 38 1120
2021-01-19 06:30 0.68 6 1580 (2020) 0 (2013) 141 0 0 0 2 21 38 1120
2021-01-19 05:30 0.68 6 1580 (2020) 0 (2013) 141 0 0 0 2 21 38 1120
2021-01-19 04:30 0.68 6 1580 (2020) 0 (2013) 141 0 0 0 2 21 38 1120
2021-01-19 03:30 0.69 6 1580 (2020) 0 (2013) 141 0 0 0 2 21 38 1120
2021-01-19 02:30 0.68 6 1580 (2020) 0 (2013) 141 0 0 0 2 21 38 1120
2021-01-19 01:30 0.69 6 1580 (2020) 0 (2013) 141 0 0 0 2 21 38 1120
2021-01-19 00:30 0.69 6 1580 (2020) 0 (2013) 141 0 0 0 2 21 38 1120
2021-01-18 23:30 0.69 6 2460 (2020) 0 (2013) 224 0 0 0 2 64 93 1760
2021-01-18 22:30 0.69 6 2460 (2020) 0 (2013) 224 0 0 0 2 64 93 1760
2021-01-18 21:30 0.69 6 2460 (2020) 0 (2013) 224 0 0 0 2 64 93 1760
2021-01-18 20:30 0.69 6 2460 (2020) 0 (2013) 224 0 0 0 2 64 93 1760
2021-01-18 19:30 0.69 6 2460 (2020) 0 (2013) 224 0 0 0 2 64 93 1760
2021-01-18 18:30 0.69 6 2460 (2020) 0 (2013) 224 0 0 0 2 64 93 1760
2021-01-18 17:30 0.69 6 2460 (2020) 0 (2013) 224 0 0 0 2 64 93 1760
2021-01-18 16:30 0.69 6 2460 (2020) 0 (2013) 224 0 0 0 2 64 93 1760
2021-01-18 15:30 0.69 6 2460 (2020) 0 (2013) 224 0 0 0 2 64 93 1760
2021-01-18 14:30 0.65 5 2460 (2020) 0 (2013) 224 0 0 0 2 64 93 1760
2021-01-18 13:30 0.69 6 2460 (2020) 0 (2013) 224 0 0 0 2 64 93 1760
2021-01-18 12:30 0.69 6 2460 (2020) 0 (2013) 224 0 0 0 2 64 93 1760
2021-01-18 11:30 0.69 6 2460 (2020) 0 (2013) 224 0 0 0 2 64 93 1760
2021-01-18 10:30 0.69 6 2460 (2020) 0 (2013) 224 0 0 0 2 64 93 1760
2021-01-18 09:30 0.69 6 2460 (2020) 0 (2013) 224 0 0 0 2 64 93 1760
2021-01-18 08:30 0.69 6 2460 (2020) 0 (2013) 224 0 0 0 2 64 93 1760
2021-01-18 07:30 0.69 6 2460 (2020) 0 (2013) 224 0 0 0 2 64 93 1760
2021-01-18 06:30 0.69 6 2460 (2020) 0 (2013) 224 0 0 0 2 64 93 1760
2021-01-18 05:30 0.69 6 2460 (2020) 0 (2013) 224 0 0 0 2 64 93 1760
2021-01-18 04:30 0.69 6 2460 (2020) 0 (2013) 224 0 0 0 2 64 93 1760
2021-01-18 03:30 0.70 6 2460 (2020) 0 (2013) 224 0 0 0 2 64 93 1760
2021-01-18 02:30 0.70 6 2460 (2020) 0 (2013) 224 0 0 0 2 64 93 1760
2021-01-18 01:30 0.70 6 2460 (2020) 0 (2013) 224 0 0 0 2 64 93 1760
2021-01-18 00:30 0.69 6 2460 (2020) 0 (2013) 224 0 0 0 2 64 93 1760
2021-01-17 23:30 0.69 6 257 (2017) 0 (2013) 60 0 0 0 2 146 202 250
2021-01-17 22:30 0.69 6 257 (2017) 0 (2013) 60 0 0 0 2 146 202 250
2021-01-17 21:30 0.69 6 257 (2017) 0 (2013) 60 0 0 0 2 146 202 250
2021-01-17 20:30 0.70 6 257 (2017) 0 (2013) 60 0 0 0 2 146 202 250
2021-01-17 19:30 0.69 6 257 (2017) 0 (2013) 60 0 0 0 2 146 202 250
2021-01-17 18:30 0.70 6 257 (2017) 0 (2013) 60 0 0 0 2 146 202 250
2021-01-17 17:30 0.70 6 257 (2017) 0 (2013) 60 0 0 0 2 146 202 250
2021-01-17 16:30 0.70 6 257 (2017) 0 (2013) 60 0 0 0 2 146 202 250
2021-01-17 15:30 0.63 5 257 (2017) 0 (2013) 60 0 0 0 2 146 202 250
2021-01-17 14:30 0.70 6 257 (2017) 0 (2013) 60 0 0 0 2 146 202 250
2021-01-17 13:30 0.70 6 257 (2017) 0 (2013) 60 0 0 0 2 146 202 250
2021-01-17 12:30 0.69 6 257 (2017) 0 (2013) 60 0 0 0 2 146 202 250
2021-01-17 11:30 0.64 5 257 (2017) 0 (2013) 60 0 0 0 2 146 202 250
2021-01-17 10:30 0.69 6 257 (2017) 0 (2013) 60 0 0 0 2 146 202 250
2021-01-17 09:30 0.70 6 257 (2017) 0 (2013) 60 0 0 0 2 146 202 250
2021-01-17 08:30 0.70 6 257 (2017) 0 (2013) 60 0 0 0 2 146 202 250
2021-01-17 07:30 0.70 6 257 (2017) 0 (2013) 60 0 0 0 2 146 202 250
2021-01-17 06:30 0.70 6 257 (2017) 0 (2013) 60 0 0 0 2 146 202 250
2021-01-17 05:30 0.65 5 257 (2017) 0 (2013) 60 0 0 0 2 146 202 250
2021-01-17 04:30 0.65 5 257 (2017) 0 (2013) 60 0 0 0 2 146 202 250
2021-01-17 03:30 0.70 6 257 (2017) 0 (2013) 60 0 0 0 2 146 202 250
2021-01-17 02:30 0.70 6 257 (2017) 0 (2013) 60 0 0 0 2 146 202 250
2021-01-17 01:30 0.70 6 257 (2017) 0 (2013) 60 0 0 0 2 146 202 250
2021-01-16 22:30 0.70 6 332 (2020) 0 (2013) 85 0 0 0 2 238 299 325
2021-01-16 21:30 0.70 6 332 (2020) 0 (2013) 85 0 0 0 2 238 299 325
2021-01-16 20:30 0.70 6 332 (2020) 0 (2013) 85 0 0 0 2 238 299 325
2021-01-16 19:30 0.70 6 332 (2020) 0 (2013) 85 0 0 0 2 238 299 325
2021-01-16 18:30 0.70 6 332 (2020) 0 (2013) 85 0 0 0 2 238 299 325
2021-01-16 17:30 0.71 6 332 (2020) 0 (2013) 85 0 0 0 2 238 299 325
2021-01-16 16:30 0.71 6 332 (2020) 0 (2013) 85 0 0 0 2 238 299 325
2021-01-16 15:30 0.70 6 332 (2020) 0 (2013) 85 0 0 0 2 238 299 325
2021-01-16 14:30 0.70 6 332 (2020) 0 (2013) 85 0 0 0 2 238 299 325
2021-01-16 13:30 0.67 5 332 (2020) 0 (2013) 85 0 0 0 2 238 299 325
2021-01-16 12:30 0.71 6 332 (2020) 0 (2013) 85 0 0 0 2 238 299 325
2021-01-16 11:30 0.65 5 332 (2020) 0 (2013) 85 0 0 0 2 238 299 325
2021-01-16 10:30 0.71 6 332 (2020) 0 (2013) 85 0 0 0 2 238 299 325
2021-01-16 09:30 0.70 6 332 (2020) 0 (2013) 85 0 0 0 2 238 299 325
2021-01-16 08:30 0.71 6 332 (2020) 0 (2013) 85 0 0 0 2 238 299 325
2021-01-16 07:30 0.71 6 332 (2020) 0 (2013) 85 0 0 0 2 238 299 325
2021-01-16 06:30 0.64 5 332 (2020) 0 (2013) 85 0 0 0 2 238 299 325
2021-01-16 05:30 0.69 6 332 (2020) 0 (2013) 85 0 0 0 2 238 299 325
2021-01-16 04:30 0.71 6 332 (2020) 0 (2013) 85 0 0 0 2 238 299 325
2021-01-16 03:30 0.67 5 332 (2020) 0 (2013) 85 0 0 0 2 238 299 325
2021-01-16 02:30 0.67 5 332 (2020) 0 (2013) 85 0 0 0 2 238 299 325
2021-01-16 01:30 0.67 5 332 (2020) 0 (2013) 85 0 0 0 2 238 299 325
2021-01-16 00:30 0.72 7 332 (2020) 0 (2013) 85 0 0 0 2 238 299 325
2021-01-15 23:30 0.65 5 483 (2020) 0 (2013) 92 0 0 0 1 100 270 481
2021-01-15 22:30 0.68 6 483 (2020) 0 (2013) 92 0 0 0 1 100 270 481
2021-01-15 21:30 0.65 5 483 (2020) 0 (2013) 92 0 0 0 1 100 270 481
2021-01-15 20:30 0.68 6 483 (2020) 0 (2013) 92 0 0 0 1 100 270 481
2021-01-15 19:30 0.65 5 483 (2020) 0 (2013) 92 0 0 0 1 100 270 481
2021-01-15 18:30 0.67 5 483 (2020) 0 (2013) 92 0 0 0 1 100 270 481
2021-01-15 17:30 0.64 5 483 (2020) 0 (2013) 92 0 0 0 1 100 270 481
2021-01-15 16:30 0.66 5 483 (2020) 0 (2013) 92 0 0 0 1 100 270 481
2021-01-15 15:30 0.65 5 483 (2020) 0 (2013) 92 0 0 0 1 100 270 481
2021-01-15 14:30 0.66 5 483 (2020) 0 (2013) 92 0 0 0 1 100 270 481
2021-01-15 13:30 0.66 5 483 (2020) 0 (2013) 92 0 0 0 1 100 270 481
2021-01-15 12:30 0.68 6 483 (2020) 0 (2013) 92 0 0 0 1 100 270 481
2021-01-15 11:30 0.70 6 483 (2020) 0 (2013) 92 0 0 0 1 100 270 481
2021-01-15 10:30 0.66 5 483 (2020) 0 (2013) 92 0 0 0 1 100 270 481
2021-01-15 09:30 0.69 6 483 (2020) 0 (2013) 92 0 0 0 1 100 270 481
2021-01-15 08:30 0.71 6 483 (2020) 0 (2013) 92 0 0 0 1 100 270 481
2021-01-15 07:30 0.71 6 483 (2020) 0 (2013) 92 0 0 0 1 100 270 481
2021-01-15 06:30 0.64 5 483 (2020) 0 (2013) 92 0 0 0 1 100 270 481
2021-01-15 05:30 0.71 6 483 (2020) 0 (2013) 92 0 0 0 1 100 270 481
2021-01-15 04:30 0.72 7 483 (2020) 0 (2013) 92 0 0 0 1 100 270 481
2021-01-15 03:30 0.71 6 483 (2020) 0 (2013) 92 0 0 0 1 100 270 481
2021-01-15 02:30 0.64 5 483 (2020) 0 (2013) 92 0 0 0 1 100 270 481
2021-01-15 01:30 0.71 6 483 (2020) 0 (2013) 92 0 0 0 1 100 270 481
2021-01-15 00:30 0.71 6 483 (2020) 0 (2013) 92 0 0 0 1 100 270 481
2021-01-14 23:30 0.72 7 679 (2014) 0 (2013) 131 0 0 0 1 190 406 667
2021-01-14 22:30 0.72 7 679 (2014) 0 (2013) 131 0 0 0 1 190 406 667
2021-01-14 21:30 0.72 7 679 (2014) 0 (2013) 131 0 0 0 1 190 406 667
2021-01-14 20:30 0.71 6 679 (2014) 0 (2013) 131 0 0 0 1 190 406 667
2021-01-14 19:30 0.66 5 679 (2014) 0 (2013) 131 0 0 0 1 190 406 667
2021-01-14 18:30 0.72 7 679 (2014) 0 (2013) 131 0 0 0 1 190 406 667
2021-01-14 17:30 0.72 7 679 (2014) 0 (2013) 131 0 0 0 1 190 406 667
2021-01-14 16:30 0.70 6 679 (2014) 0 (2013) 131 0 0 0 1 190 406 667
2021-01-14 15:30 0.62 4 679 (2014) 0 (2013) 131 0 0 0 1 190 406 667
2021-01-14 14:30 0.72 7 679 (2014) 0 (2013) 131 0 0 0 1 190 406 667
2021-01-14 13:30 0.67 5 679 (2014) 0 (2013) 131 0 0 0 1 190 406 667
2021-01-14 12:30 0.69 6 679 (2014) 0 (2013) 131 0 0 0 1 190 406 667
2021-01-14 11:30 0.64 5 679 (2014) 0 (2013) 131 0 0 0 1 190 406 667
2021-01-14 10:30 0.62 4 679 (2014) 0 (2013) 131 0 0 0 1 190 406 667
2021-01-14 09:30 0.65 5 679 (2014) 0 (2013) 131 0 0 0 1 190 406 667
2021-01-14 08:30 0.71 6 679 (2014) 0 (2013) 131 0 0 0 1 190 406 667
2021-01-14 07:30 0.71 6 679 (2014) 0 (2013) 131 0 0 0 1 190 406 667
2021-01-14 06:30 0.71 6 679 (2014) 0 (2013) 131 0 0 0 1 190 406 667
2021-01-14 05:30 0.71 6 679 (2014) 0 (2013) 131 0 0 0 1 190 406 667
2021-01-14 04:30 0.71 6 679 (2014) 0 (2013) 131 0 0 0 1 190 406 667
2021-01-14 03:30 0.71 6 679 (2014) 0 (2013) 131 0 0 0 1 190 406 667
2021-01-14 02:30 0.71 6 679 (2014) 0 (2013) 131 0 0 0 1 190 406 667
2021-01-14 01:30 0.72 7 679 (2014) 0 (2013) 131 0 0 0 1 190 406 667
2021-01-14 00:30 0.71 6 679 (2014) 0 (2013) 131 0 0 0 1 190 406 667
2021-01-13 23:30 0.72 7 1090 (2020) 0 (2013) 172 0 0 0 1 42 398 1040
2021-01-13 22:30 0.71 6 1090 (2020) 0 (2013) 172 0 0 0 1 42 398 1040
2021-01-13 21:30 0.72 7 1090 (2020) 0 (2013) 172 0 0 0 1 42 398 1040
2021-01-13 20:30 0.72 7 1090 (2020) 0 (2013) 172 0 0 0 1 42 398 1040
2021-01-13 19:30 0.72 7 1090 (2020) 0 (2013) 172 0 0 0 1 42 398 1040
2021-01-13 18:30 0.72 7 1090 (2020) 0 (2013) 172 0 0 0 1 42 398 1040
2021-01-13 17:30 0.72 7 1090 (2020) 0 (2013) 172 0 0 0 1 42 398 1040
2021-01-13 16:30 0.72 7 1090 (2020) 0 (2013) 172 0 0 0 1 42 398 1040
2021-01-13 15:30 0.72 7 1090 (2020) 0 (2013) 172 0 0 0 1 42 398 1040
2021-01-13 14:30 0.72 7 1090 (2020) 0 (2013) 172 0 0 0 1 42 398 1040
2021-01-13 13:30 0.69 6 1090 (2020) 0 (2013) 172 0 0 0 1 42 398 1040
2021-01-13 12:30 0.71 6 1090 (2020) 0 (2013) 172 0 0 0 1 42 398 1040
2021-01-13 11:30 0.71 6 1090 (2020) 0 (2013) 172 0 0 0 1 42 398 1040
2021-01-13 10:30 0.72 7 1090 (2020) 0 (2013) 172 0 0 0 1 42 398 1040
2021-01-13 09:30 0.73 7 1090 (2020) 0 (2013) 172 0 0 0 1 42 398 1040
2021-01-13 08:30 0.73 7 1090 (2020) 0 (2013) 172 0 0 0 1 42 398 1040
2021-01-13 07:30 0.73 7 1090 (2020) 0 (2013) 172 0 0 0 1 42 398 1040
2021-01-13 06:30 0.73 7 1090 (2020) 0 (2013) 172 0 0 0 1 42 398 1040
2021-01-13 05:30 0.73 7 1090 (2020) 0 (2013) 172 0 0 0 1 42 398 1040
2021-01-13 04:30 0.73 7 1090 (2020) 0 (2013) 172 0 0 0 1 42 398 1040
2021-01-13 03:30 0.73 7 1090 (2020) 0 (2013) 172 0 0 0 1 42 398 1040
2021-01-13 02:30 0.73 7 1090 (2020) 0 (2013) 172 0 0 0 1 42 398 1040
2021-01-13 01:30 0.74 7 1090 (2020) 0 (2013) 172 0 0 0 1 42 398 1040
2021-01-13 00:30 0.73 7 1090 (2020) 0 (2013) 172 0 0 0 1 42 398 1040
2021-01-12 23:30 0.74 7 3730 (2020) 0 (2013) 427 0 0 0 2 8 554 3020
2021-01-12 22:30 0.74 7 3730 (2020) 0 (2013) 427 0 0 0 2 8 554 3020
2021-01-12 21:30 0.74 7 3730 (2020) 0 (2013) 427 0 0 0 2 8 554 3020
2021-01-12 20:30 0.74 7 3730 (2020) 0 (2013) 427 0 0 0 2 8 554 3020
2021-01-12 19:30 0.74 7 3730 (2020) 0 (2013) 427 0 0 0 2 8 554 3020
2021-01-12 18:30 0.74 7 3730 (2020) 0 (2013) 427 0 0 0 2 8 554 3020
2021-01-12 17:30 0.74 7 3730 (2020) 0 (2013) 427 0 0 0 2 8 554 3020
2021-01-12 16:30 0.74 7 3730 (2020) 0 (2013) 427 0 0 0 2 8 554 3020
2021-01-12 15:30 0.73 7 3730 (2020) 0 (2013) 427 0 0 0 2 8 554 3020
2021-01-12 14:30 0.69 6 3730 (2020) 0 (2013) 427 0 0 0 2 8 554 3020
2021-01-12 13:30 0.74 7 3730 (2020) 0 (2013) 427 0 0 0 2 8 554 3020
2021-01-12 12:30 0.74 7 3730 (2020) 0 (2013) 427 0 0 0 2 8 554 3020
2021-01-12 11:30 0.69 6 3730 (2020) 0 (2013) 427 0 0 0 2 8 554 3020
2021-01-12 10:30 0.74 7 3730 (2020) 0 (2013) 427 0 0 0 2 8 554 3020
2021-01-12 09:30 0.74 7 3730 (2020) 0 (2013) 427 0 0 0 2 8 554 3020
2021-01-12 08:30 0.74 7 3730 (2020) 0 (2013) 427 0 0 0 2 8 554 3020
2021-01-12 07:30 0.75 8 3730 (2020) 0 (2013) 427 0 0 0 2 8 554 3020
2021-01-12 06:30 0.75 8 3730 (2020) 0 (2013) 427 0 0 0 2 8 554 3020
2021-01-12 05:30 0.75 8 3730 (2020) 0 (2013) 427 0 0 0 2 8 554 3020
2021-01-12 04:30 0.75 8 3730 (2020) 0 (2013) 427 0 0 0 2 8 554 3020
2021-01-12 03:30 0.75 8 3730 (2020) 0 (2013) 427 0 0 0 2 8 554 3020
2021-01-12 02:30 0.75 8 3730 (2020) 0 (2013) 427 0 0 0 2 8 554 3020
2021-01-12 01:30 0.75 8 3730 (2020) 0 (2013) 427 0 0 0 2 8 554 3020
2021-01-12 00:30 0.75 8 3730 (2020) 0 (2013) 427 0 0 0 2 8 554 3020
2021-01-11 23:30 0.75 8 8880 (2020) 0 (2013) 828 0 0 0 2 17 425 6520
2021-01-11 22:30 0.75 8 8880 (2020) 0 (2013) 828 0 0 0 2 17 425 6520
2021-01-11 21:30 0.75 8 8880 (2020) 0 (2013) 828 0 0 0 2 17 425 6520
2021-01-11 20:30 0.75 8 8880 (2020) 0 (2013) 828 0 0 0 2 17 425 6520
2021-01-11 19:30 0.75 8 8880 (2020) 0 (2013) 828 0 0 0 2 17 425 6520
2021-01-11 18:30 0.76 8 8880 (2020) 0 (2013) 828 0 0 0 2 17 425 6520
2021-01-11 17:30 0.76 8 8880 (2020) 0 (2013) 828 0 0 0 2 17 425 6520
2021-01-11 16:30 0.76 8 8880 (2020) 0 (2013) 828 0 0 0 2 17 425 6520
2021-01-11 15:30 0.76 8 8880 (2020) 0 (2013) 828 0 0 0 2 17 425 6520
2021-01-11 14:30 0.76 8 8880 (2020) 0 (2013) 828 0 0 0 2 17 425 6520
2021-01-11 13:30 0.76 8 8880 (2020) 0 (2013) 828 0 0 0 2 17 425 6520
2021-01-11 12:30 0.76 8 8880 (2020) 0 (2013) 828 0 0 0 2 17 425 6520
2021-01-11 11:30 0.76 8 8880 (2020) 0 (2013) 828 0 0 0 2 17 425 6520
2021-01-11 10:30 0.76 8 8880 (2020) 0 (2013) 828 0 0 0 2 17 425 6520
2021-01-11 09:30 0.77 8 8880 (2020) 0 (2013) 828 0 0 0 2 17 425 6520
2021-01-11 08:30 0.77 8 8880 (2020) 0 (2013) 828 0 0 0 2 17 425 6520
2021-01-11 07:30 0.77 8 8880 (2020) 0 (2013) 828 0 0 0 2 17 425 6520
2021-01-11 06:30 0.74 7 8880 (2020) 0 (2013) 828 0 0 0 2 17 425 6520
2021-01-11 05:30 0.77 8 8880 (2020) 0 (2013) 828 0 0 0 2 17 425 6520
2021-01-11 04:30 0.77 8 8880 (2020) 0 (2013) 828 0 0 0 2 17 425 6520
2021-01-11 03:30 0.77 8 8880 (2020) 0 (2013) 828 0 0 0 2 17 425 6520
2021-01-11 02:30 0.78 9 8880 (2020) 0 (2013) 828 0 0 0 2 17 425 6520
2021-01-11 01:30 0.78 9 8880 (2020) 0 (2013) 828 0 0 0 2 17 425 6520
2021-01-11 00:30 0.77 8 8880 (2020) 0 (2013) 828 0 0 0 2 17 425 6520
2021-01-10 23:30 0.78 9 63 (2016) 0 (2013) 9 0 0 0 2 6 16 53
2021-01-10 22:30 0.78 9 63 (2016) 0 (2013) 9 0 0 0 2 6 16 53
2021-01-10 21:30 0.78 9 63 (2016) 0 (2013) 9 0 0 0 2 6 16 53
2021-01-10 20:30 0.78 9 63 (2016) 0 (2013) 9 0 0 0 2 6 16 53
2021-01-10 19:30 0.78 9 63 (2016) 0 (2013) 9 0 0 0 2 6 16 53
2021-01-10 18:30 0.78 9 63 (2016) 0 (2013) 9 0 0 0 2 6 16 53
2021-01-10 17:30 0.79 9 63 (2016) 0 (2013) 9 0 0 0 2 6 16 53
2021-01-10 16:30 0.79 9 63 (2016) 0 (2013) 9 0 0 0 2 6 16 53
2021-01-10 15:30 0.78 9 63 (2016) 0 (2013) 9 0 0 0 2 6 16 53
2021-01-10 14:30 0.72 7 63 (2016) 0 (2013) 9 0 0 0 2 6 16 53
2021-01-10 13:30 0.78 9 63 (2016) 0 (2013) 9 0 0 0 2 6 16 53
2021-01-10 12:30 0.79 9 63 (2016) 0 (2013) 9 0 0 0 2 6 16 53
2021-01-10 11:30 0.78 9 63 (2016) 0 (2013) 9 0 0 0 2 6 16 53
2021-01-10 10:30 0.76 8 63 (2016) 0 (2013) 9 0 0 0 2 6 16 53
2021-01-10 09:30 0.79 9 63 (2016) 0 (2013) 9 0 0 0 2 6 16 53
2021-01-10 08:30 0.80 9 63 (2016) 0 (2013) 9 0 0 0 2 6 16 53
2021-01-10 07:30 0.80 9 63 (2016) 0 (2013) 9 0 0 0 2 6 16 53
2021-01-10 06:30 0.79 9 63 (2016) 0 (2013) 9 0 0 0 2 6 16 53
2021-01-10 05:30 0.80 9 63 (2016) 0 (2013) 9 0 0 0 2 6 16 53
2021-01-10 04:30 0.80 9 63 (2016) 0 (2013) 9 0 0 0 2 6 16 53
2021-01-10 03:30 0.80 9 63 (2016) 0 (2013) 9 0 0 0 2 6 16 53
2021-01-10 02:30 0.81 10 63 (2016) 0 (2013) 9 0 0 0 2 6 16 53
2021-01-10 01:30 0.81 10 63 (2016) 0 (2013) 9 0 0 0 2 6 16 53
2021-01-09 23:30 0.82 10 31 (2016) 0 (2013) 5 0 0 0 2 4 9 26
2021-01-09 22:30 0.82 10 31 (2016) 0 (2013) 5 0 0 0 2 4 9 26
2021-01-09 20:30 0.82 10 31 (2016) 0 (2013) 5 0 0 0 2 4 9 26
2021-01-09 19:30 0.82 10 31 (2016) 0 (2013) 5 0 0 0 2 4 9 26
2021-01-09 18:30 0.83 10 31 (2016) 0 (2013) 5 0 0 0 2 4 9 26
2021-01-09 17:30 0.83 10 31 (2016) 0 (2013) 5 0 0 0 2 4 9 26
2021-01-09 16:30 0.83 10 31 (2016) 0 (2013) 5 0 0 0 2 4 9 26
2021-01-09 15:30 0.84 11 31 (2016) 0 (2013) 5 0 0 0 2 4 9 26
2021-01-09 14:30 0.84 11 31 (2016) 0 (2013) 5 0 0 0 2 4 9 26
2021-01-09 13:30 0.84 11 31 (2016) 0 (2013) 5 0 0 0 2 4 9 26
2021-01-09 12:30 0.84 11 31 (2016) 0 (2013) 5 0 0 0 2 4 9 26
2021-01-09 11:30 0.85 11 31 (2016) 0 (2013) 5 0 0 0 2 4 9 26
2021-01-09 10:30 0.86 12 31 (2016) 0 (2013) 5 0 0 0 2 4 9 26
2021-01-09 09:30 0.86 12 31 (2016) 0 (2013) 5 0 0 0 2 4 9 26
2021-01-09 08:30 0.85 11 31 (2016) 0 (2013) 5 0 0 0 2 4 9 26
2021-01-09 07:30 0.88 12 31 (2016) 0 (2013) 5 0 0 0 2 4 9 26
2021-01-09 06:30 0.88 12 31 (2016) 0 (2013) 5 0 0 0 2 4 9 26
2021-01-09 05:30 0.89 13 31 (2016) 0 (2013) 5 0 0 0 2 4 9 26
2021-01-09 04:30 0.90 13 31 (2016) 0 (2013) 5 0 0 0 2 4 9 26
2021-01-09 03:30 0.91 14 31 (2016) 0 (2013) 5 0 0 0 2 4 9 26
2021-01-09 02:30 0.91 14 31 (2016) 0 (2013) 5 0 0 0 2 4 9 26
2021-01-09 01:30 0.92 14 31 (2016) 0 (2013) 5 0 0 0 2 4 9 26
2021-01-09 00:30 0.93 15 31 (2016) 0 (2013) 5 0 0 0 2 4 9 26
2021-01-08 23:30 0.94 15 26 (2016) 0 (2013) 5 0 0 0 2 7 11 23
2021-01-08 22:30 0.95 16 26 (2016) 0 (2013) 5 0 0 0 2 7 11 23
2021-01-08 21:30 0.90 13 26 (2016) 0 (2013) 5 0 0 0 2 7 11 23
2021-01-08 20:30 0.97 17 26 (2016) 0 (2013) 5 0 0 0 2 7 11 23
2021-01-08 19:30 0.97 17 26 (2016) 0 (2013) 5 0 0 0 2 7 11 23
2021-01-08 18:30 0.96 16 26 (2016) 0 (2013) 5 0 0 0 2 7 11 23
2021-01-08 17:30 0.95 16 26 (2016) 0 (2013) 5 0 0 0 2 7 11 23
2021-01-08 16:30 0.96 16 26 (2016) 0 (2013) 5 0 0 0 2 7 11 23
2021-01-08 15:30 0.97 17 26 (2016) 0 (2013) 5 0 0 0 2 7 11 23
2021-01-08 14:30 0.98 17 26 (2016) 0 (2013) 5 0 0 0 2 7 11 23
2021-01-08 13:30 1.05 21 26 (2016) 0 (2013) 5 0 0 0 2 7 11 23
2021-01-08 12:30 1.00 18 26 (2016) 0 (2013) 5 0 0 0 2 7 11 23
2021-01-08 11:30 1.01 19 26 (2016) 0 (2013) 5 0 0 0 2 7 11 23
2021-01-08 10:30 1.03 20 26 (2016) 0 (2013) 5 0 0 0 2 7 11 23
2021-01-08 09:30 1.02 19 26 (2016) 0 (2013) 5 0 0 0 2 7 11 23
2021-01-08 08:30 1.09 24 26 (2016) 0 (2013) 5 0 0 0 2 7 11 23
2021-01-08 07:30 1.06 22 26 (2016) 0 (2013) 5 0 0 0 2 7 11 23
2021-01-08 06:30 1.07 22 26 (2016) 0 (2013) 5 0 0 0 2 7 11 23
2021-01-08 05:30 1.10 24 26 (2016) 0 (2013) 5 0 0 0 2 7 11 23
2021-01-08 04:30 1.14 27 26 (2016) 0 (2013) 5 0 0 0 2 7 11 23
2021-01-08 03:30 1.16 29 26 (2016) 0 (2013) 5 0 0 0 2 7 11 23
2021-01-08 02:30 1.17 29 26 (2016) 0 (2013) 5 0 0 0 2 7 11 23
2021-01-08 01:30 1.13 26 26 (2016) 0 (2013) 5 0 0 0 2 7 11 23
2021-01-08 00:30 1.20 32 26 (2016) 0 (2013) 5 0 0 0 2 7 11 23
2021-01-07 23:30 1.21 33 37 (2016) 0 (2013) 7 0 0 0 2 12 15 31
2021-01-07 22:30 1.20 32 37 (2016) 0 (2013) 7 0 0 0 2 12 15 31
2021-01-07 21:30 1.24 35 37 (2016) 0 (2013) 7 0 0 0 2 12 15 31
2021-01-07 20:30 1.23 34 37 (2016) 0 (2013) 7 0 0 0 2 12 15 31
2021-01-07 19:30 1.23 34 37 (2016) 0 (2013) 7 0 0 0 2 12 15 31
2021-01-07 18:30 1.27 38 37 (2016) 0 (2013) 7 0 0 0 2 12 15 31
2021-01-07 17:30 1.28 39 37 (2016) 0 (2013) 7 0 0 0 2 12 15 31
2021-01-07 16:30 1.29 40 37 (2016) 0 (2013) 7 0 0 0 2 12 15 31
2021-01-07 15:30 1.30 41 37 (2016) 0 (2013) 7 0 0 0 2 12 15 31
2021-01-07 14:30 1.30 41 37 (2016) 0 (2013) 7 0 0 0 2 12 15 31
2021-01-07 13:30 1.31 42 37 (2016) 0 (2013) 7 0 0 0 2 12 15 31
2021-01-07 12:30 1.33 44 37 (2016) 0 (2013) 7 0 0 0 2 12 15 31
2021-01-07 11:30 1.35 46 37 (2016) 0 (2013) 7 0 0 0 2 12 15 31
2021-01-07 10:30 1.36 47 37 (2016) 0 (2013) 7 0 0 0 2 12 15 31
2021-01-07 09:30 1.38 49 37 (2016) 0 (2013) 7 0 0 0 2 12 15 31
2021-01-07 08:30 1.39 50 37 (2016) 0 (2013) 7 0 0 0 2 12 15 31
2021-01-07 07:30 1.42 54 37 (2016) 0 (2013) 7 0 0 0 2 12 15 31
2021-01-07 06:30 1.43 55 37 (2016) 0 (2013) 7 0 0 0 2 12 15 31
2021-01-07 05:30 1.44 56 37 (2016) 0 (2013) 7 0 0 0 2 12 15 31
2021-01-07 04:30 1.46 59 37 (2016) 0 (2013) 7 0 0 0 2 12 15 31
2021-01-07 03:30 1.47 60 37 (2016) 0 (2013) 7 0 0 0 2 12 15 31
2021-01-07 02:30 1.48 61 37 (2016) 0 (2013) 7 0 0 0 2 12 15 31
2021-01-07 01:30 1.50 64 37 (2016) 0 (2013) 7 0 0 0 2 12 15 31
2021-01-07 00:30 1.52 67 37 (2016) 0 (2013) 7 0 0 0 2 12 15 31
2021-01-06 23:30 1.53 68 55 (2016) 0 (2013) 10 0 0 0 2 16 24 48
2021-01-06 22:30 1.54 70 55 (2016) 0 (2013) 10 0 0 0 2 16 24 48
2021-01-06 21:30 1.56 72 55 (2016) 0 (2013) 10 0 0 0 2 16 24 48
2021-01-06 20:30 1.57 74 55 (2016) 0 (2013) 10 0 0 0 2 16 24 48
2021-01-06 19:30 1.58 75 55 (2016) 0 (2013) 10 0 0 0 2 16 24 48
2021-01-06 18:30 1.61 80 55 (2016) 0 (2013) 10 0 0 0 2 16 24 48
2021-01-06 17:30 1.61 80 55 (2016) 0 (2013) 10 0 0 0 2 16 24 48
2021-01-06 16:30 1.62 82 55 (2016) 0 (2013) 10 0 0 0 2 16 24 48
2021-01-06 15:30 1.63 83 55 (2016) 0 (2013) 10 0 0 0 2 16 24 48
2021-01-06 14:30 1.66 88 55 (2016) 0 (2013) 10 0 0 0 2 16 24 48
2021-01-06 13:30 1.68 92 55 (2016) 0 (2013) 10 0 0 0 2 16 24 48
2021-01-06 12:30 1.69 93 55 (2016) 0 (2013) 10 0 0 0 2 16 24 48
2021-01-06 11:30 1.69 93 55 (2016) 0 (2013) 10 0 0 0 2 16 24 48
2021-01-06 10:30 1.72 99 55 (2016) 0 (2013) 10 0 0 0 2 16 24 48
2021-01-06 09:30 1.72 99 55 (2016) 0 (2013) 10 0 0 0 2 16 24 48
2021-01-06 08:30 1.73 100 55 (2016) 0 (2013) 10 0 0 0 2 16 24 48
2021-01-06 07:30 1.76 106 55 (2016) 0 (2013) 10 0 0 0 2 16 24 48
2021-01-06 06:30 1.76 106 55 (2016) 0 (2013) 10 0 0 0 2 16 24 48
2021-01-06 05:30 1.78 110 55 (2016) 0 (2013) 10 0 0 0 2 16 24 48
2021-01-06 04:30 1.79 112 55 (2016) 0 (2013) 10 0 0 0 2 16 24 48
2021-01-06 03:30 1.82 118 55 (2016) 0 (2013) 10 0 0 0 2 16 24 48
2021-01-06 02:30 1.81 116 55 (2016) 0 (2013) 10 0 0 0 2 16 24 48
2021-01-06 01:30 1.83 120 55 (2016) 0 (2013) 10 0 0 0 2 16 24 48
2021-01-06 00:30 1.84 122 55 (2016) 0 (2013) 10 0 0 0 2 16 24 48
2021-01-05 23:30 1.86 126 80 (2016) 0 (2013) 15 0 0 0 3 18 36 73
2021-01-05 22:30 1.88 131 80 (2016) 0 (2013) 15 0 0 0 3 18 36 73
2021-01-05 21:30 1.87 129 80 (2016) 0 (2013) 15 0 0 0 3 18 36 73
2021-01-05 20:30 1.89 133 80 (2016) 0 (2013) 15 0 0 0 3 18 36 73
2021-01-05 19:30 1.92 140 80 (2016) 0 (2013) 15 0 0 0 3 18 36 73
2021-01-05 18:30 1.91 137 80 (2016) 0 (2013) 15 0 0 0 3 18 36 73
2021-01-05 17:30 1.93 142 80 (2016) 0 (2013) 15 0 0 0 3 18 36 73
2021-01-05 16:30 1.95 147 80 (2016) 0 (2013) 15 0 0 0 3 18 36 73
2021-01-05 15:30 1.97 152 80 (2016) 0 (2013) 15 0 0 0 3 18 36 73
2021-01-05 14:30 1.96 149 80 (2016) 0 (2013) 15 0 0 0 3 18 36 73
2021-01-05 13:30 1.98 154 80 (2016) 0 (2013) 15 0 0 0 3 18 36 73
2021-01-05 12:30 1.98 154 80 (2016) 0 (2013) 15 0 0 0 3 18 36 73
2021-01-05 11:30 2.02 164 80 (2016) 0 (2013) 15 0 0 0 3 18 36 73
2021-01-05 10:30 2.02 164 80 (2016) 0 (2013) 15 0 0 0 3 18 36 73
2021-01-05 09:30 2.02 164 80 (2016) 0 (2013) 15 0 0 0 3 18 36 73
2021-01-05 08:30 2.02 164 80 (2016) 0 (2013) 15 0 0 0 3 18 36 73
2021-01-05 07:30 2.03 167 80 (2016) 0 (2013) 15 0 0 0 3 18 36 73
2021-01-05 06:30 2.05 172 80 (2016) 0 (2013) 15 0 0 0 3 18 36 73
2021-01-05 05:30 2.07 178 80 (2016) 0 (2013) 15 0 0 0 3 18 36 73
2021-01-05 04:30 2.05 172 80 (2016) 0 (2013) 15 0 0 0 3 18 36 73
2021-01-05 03:30 2.04 170 80 (2016) 0 (2013) 15 0 0 0 3 18 36 73
2021-01-05 02:30 2.05 172 80 (2016) 0 (2013) 15 0 0 0 3 18 36 73
2021-01-05 01:30 2.03 167 80 (2016) 0 (2013) 15 0 0 0 3 18 36 73
2021-01-05 00:30 2.02 164 80 (2016) 0 (2013) 15 0 0 0 3 18 36 73
2021-01-04 23:30 2.02 164 118 (2016) 0 (2013) 22 0 0 0 4 18 51 112
2021-01-04 22:30 2.00 159 118 (2016) 0 (2013) 22 0 0 0 4 18 51 112
2021-01-04 21:30 1.97 152 118 (2016) 0 (2013) 22 0 0 0 4 18 51 112
2021-01-04 20:30 1.98 154 118 (2016) 0 (2013) 22 0 0 0 4 18 51 112
2021-01-04 19:30 1.97 152 118 (2016) 0 (2013) 22 0 0 0 4 18 51 112
2021-01-04 18:30 1.94 144 118 (2016) 0 (2013) 22 0 0 0 4 18 51 112
2021-01-04 17:30 1.91 137 118 (2016) 0 (2013) 22 0 0 0 4 18 51 112
2021-01-04 16:30 1.91 137 118 (2016) 0 (2013) 22 0 0 0 4 18 51 112
2021-01-04 15:30 1.89 133 118 (2016) 0 (2013) 22 0 0 0 4 18 51 112
2021-01-04 14:30 1.90 135 118 (2016) 0 (2013) 22 0 0 0 4 18 51 112
2021-01-04 13:30 1.87 129 118 (2016) 0 (2013) 22 0 0 0 4 18 51 112
2021-01-04 12:30 1.88 131 118 (2016) 0 (2013) 22 0 0 0 4 18 51 112
2021-01-04 11:30 1.86 126 118 (2016) 0 (2013) 22 0 0 0 4 18 51 112
2021-01-04 10:30 1.88 131 118 (2016) 0 (2013) 22 0 0 0 4 18 51 112
2021-01-04 09:30 1.87 129 118 (2016) 0 (2013) 22 0 0 0 4 18 51 112
2021-01-04 08:30 1.90 135 118 (2016) 0 (2013) 22 0 0 0 4 18 51 112
2021-01-04 07:30 1.88 131 118 (2016) 0 (2013) 22 0 0 0 4 18 51 112
2021-01-04 06:30 1.89 133 118 (2016) 0 (2013) 22 0 0 0 4 18 51 112
2021-01-04 05:30 1.91 137 118 (2016) 0 (2013) 22 0 0 0 4 18 51 112
2021-01-04 04:30 1.92 140 118 (2016) 0 (2013) 22 0 0 0 4 18 51 112
2021-01-04 03:30 1.94 144 118 (2016) 0 (2013) 22 0 0 0 4 18 51 112
2021-01-04 02:30 1.95 147 118 (2016) 0 (2013) 22 0 0 0 4 18 51 112
2021-01-04 01:30 1.96 149 118 (2016) 0 (2013) 22 0 0 0 4 18 51 112
2021-01-04 00:30 1.97 152 118 (2016) 0 (2013) 22 0 0 0 4 18 51 112
2021-01-03 23:30 1.99 157 195 (2016) 0 (2013) 38 0 0 0 4 34 94 190
2021-01-03 22:30 2.00 159 195 (2016) 0 (2013) 38 0 0 0 4 34 94 190
2021-01-03 21:30 1.99 157 195 (2016) 0 (2013) 38 0 0 0 4 34 94 190
2021-01-03 20:30 1.99 157 195 (2016) 0 (2013) 38 0 0 0 4 34 94 190
2021-01-03 19:30 1.99 157 195 (2016) 0 (2013) 38 0 0 0 4 34 94 190
2021-01-03 18:30 2.03 167 195 (2016) 0 (2013) 38 0 0 0 4 34 94 190
2021-01-03 17:30 2.03 167 195 (2016) 0 (2013) 38 0 0 0 4 34 94 190
2021-01-03 16:30 2.02 164 195 (2016) 0 (2013) 38 0 0 0 4 34 94 190
2021-01-03 15:30 2.03 167 195 (2016) 0 (2013) 38 0 0 0 4 34 94 190
2021-01-03 14:30 2.04 170 195 (2016) 0 (2013) 38 0 0 0 4 34 94 190
2021-01-03 13:30 1.94 144 195 (2016) 0 (2013) 38 0 0 0 4 34 94 190
2021-01-03 12:30 1.40 52 195 (2016) 0 (2013) 38 0 0 0 4 34 94 190
2021-01-03 11:30 0.75 8 195 (2016) 0 (2013) 38 0 0 0 4 34 94 190
2021-01-03 10:30 0.75 8 195 (2016) 0 (2013) 38 0 0 0 4 34 94 190
2021-01-03 09:30 0.75 8 195 (2016) 0 (2013) 38 0 0 0 4 34 94 190
2021-01-03 08:30 0.75 8 195 (2016) 0 (2013) 38 0 0 0 4 34 94 190
2021-01-03 07:30 0.75 8 195 (2016) 0 (2013) 38 0 0 0 4 34 94 190
2021-01-03 06:30 0.75 8 195 (2016) 0 (2013) 38 0 0 0 4 34 94 190
2021-01-03 05:30 0.75 8 195 (2016) 0 (2013) 38 0 0 0 4 34 94 190
2021-01-03 04:30 0.75 8 195 (2016) 0 (2013) 38 0 0 0 4 34 94 190
2021-01-03 03:30 0.75 8 195 (2016) 0 (2013) 38 0 0 0 4 34 94 190
2021-01-03 02:30 0.75 8 195 (2016) 0 (2013) 38 0 0 0 4 34 94 190
2021-01-03 01:30 0.75 8 195 (2016) 0 (2013) 38 0 0 0 4 34 94 190
2021-01-03 00:30 0.75 8 195 (2016) 0 (2013) 38 0 0 0 4 34 94 190
2021-01-02 23:30 0.75 8 346 (2019) 0 (2013) 71 0 0 0 5 79 185 341
2021-01-02 22:30 0.75 8 346 (2019) 0 (2013) 71 0 0 0 5 79 185 341
2021-01-02 21:30 0.75 8 346 (2019) 0 (2013) 71 0 0 0 5 79 185 341
2021-01-02 20:30 0.75 8 346 (2019) 0 (2013) 71 0 0 0 5 79 185 341
2021-01-02 19:30 0.75 8 346 (2019) 0 (2013) 71 0 0 0 5 79 185 341
2021-01-02 18:30 0.74 7 346 (2019) 0 (2013) 71 0 0 0 5 79 185 341
2021-01-02 17:30 0.74 7 346 (2019) 0 (2013) 71 0 0 0 5 79 185 341
2021-01-02 16:30 0.74 7 346 (2019) 0 (2013) 71 0 0 0 5 79 185 341
2021-01-02 15:30 0.74 7 346 (2019) 0 (2013) 71 0 0 0 5 79 185 341
2021-01-02 14:30 0.74 7 346 (2019) 0 (2013) 71 0 0 0 5 79 185 341
2021-01-02 13:30 0.75 8 346 (2019) 0 (2013) 71 0 0 0 5 79 185 341
2021-01-02 12:30 0.74 7 346 (2019) 0 (2013) 71 0 0 0 5 79 185 341
2021-01-02 11:30 0.74 7 346 (2019) 0 (2013) 71 0 0 0 5 79 185 341
2021-01-02 10:30 0.74 7 346 (2019) 0 (2013) 71 0 0 0 5 79 185 341
2021-01-02 09:30 0.74 7 346 (2019) 0 (2013) 71 0 0 0 5 79 185 341
2021-01-02 08:30 0.74 7 346 (2019) 0 (2013) 71 0 0 0 5 79 185 341
2021-01-02 07:30 0.74 7 346 (2019) 0 (2013) 71 0 0 0 5 79 185 341
2021-01-02 06:30 0.74 7 346 (2019) 0 (2013) 71 0 0 0 5 79 185 341
2021-01-02 05:30 0.73 7 346 (2019) 0 (2013) 71 0 0 0 5 79 185 341
2021-01-02 04:30 0.74 7 346 (2019) 0 (2013) 71 0 0 0 5 79 185 341
2021-01-02 03:30 0.73 7 346 (2019) 0 (2013) 71 0 0 0 5 79 185 341
2021-01-02 02:30 0.73 7 346 (2019) 0 (2013) 71 0 0 0 5 79 185 341
2021-01-02 01:30 0.73 7 346 (2019) 0 (2013) 71 0 0 0 5 79 185 341
2021-01-02 00:30 0.70 6 346 (2019) 0 (2013) 71 0 0 0 5 79 185 341
2021-01-01 23:30 0.70 6 604 (2016) 0 (2013) 127 0 0 0 6 159 349 603
2021-01-01 22:30 0.72 7 604 (2016) 0 (2013) 127 0 0 0 6 159 349 603
2021-01-01 21:30 0.72 7 604 (2016) 0 (2013) 127 0 0 0 6 159 349 603
2021-01-01 20:30 0.66 5 604 (2016) 0 (2013) 127 0 0 0 6 159 349 603
2021-01-01 19:30 0.71 6 604 (2016) 0 (2013) 127 0 0 0 6 159 349 603
2021-01-01 18:30 0.71 6 604 (2016) 0 (2013) 127 0 0 0 6 159 349 603
2021-01-01 17:30 0.71 6 604 (2016) 0 (2013) 127 0 0 0 6 159 349 603
2021-01-01 16:30 0.71 6 604 (2016) 0 (2013) 127 0 0 0 6 159 349 603
2021-01-01 15:30 0.70 6 604 (2016) 0 (2013) 127 0 0 0 6 159 349 603
2021-01-01 14:30 0.70 6 604 (2016) 0 (2013) 127 0 0 0 6 159 349 603
2021-01-01 13:30 0.70 6 604 (2016) 0 (2013) 127 0 0 0 6 159 349 603
2021-01-01 12:30 0.71 6 604 (2016) 0 (2013) 127 0 0 0 6 159 349 603
2021-01-01 11:30 0.70 6 604 (2016) 0 (2013) 127 0 0 0 6 159 349 603
2021-01-01 10:30 0.70 6 604 (2016) 0 (2013) 127 0 0 0 6 159 349 603
2021-01-01 09:30 0.70 6 604 (2016) 0 (2013) 127 0 0 0 6 159 349 603
2021-01-01 08:30 0.70 6 604 (2016) 0 (2013) 127 0 0 0 6 159 349 603
2021-01-01 07:30 0.70 6 604 (2016) 0 (2013) 127 0 0 0 6 159 349 603
2021-01-01 06:30 0.69 6 604 (2016) 0 (2013) 127 0 0 0 6 159 349 603
2021-01-01 05:30 0.68 6 604 (2016) 0 (2013) 127 0 0 0 6 159 349 603
2021-01-01 04:30 0.71 6 604 (2016) 0 (2013) 127 0 0 0 6 159 349 603
2021-01-01 03:30 0.68 6 604 (2016) 0 (2013) 127 0 0 0 6 159 349 603
2021-01-01 02:30 0.66 5 604 (2016) 0 (2013) 127 0 0 0 6 159 349 603
2021-01-01 01:30 0.67 5 604 (2016) 0 (2013) 127 0 0 0 6 159 349 603
2020-12-31 23:30 0.66 5 1040 (2016) 0 (2013) 147 0 0 0 11 172 252 833
2020-12-31 22:30 0.65 5 1040 (2016) 0 (2013) 147 0 0 0 11 172 252 833
2020-12-31 21:30 0.66 5 1040 (2016) 0 (2013) 147 0 0 0 11 172 252 833
2020-12-31 20:30 0.67 5 1040 (2016) 0 (2013) 147 0 0 0 11 172 252 833
2020-12-31 19:30 0.66 5 1040 (2016) 0 (2013) 147 0 0 0 11 172 252 833
2020-12-31 18:30 0.66 5 1040 (2016) 0 (2013) 147 0 0 0 11 172 252 833
2020-12-31 17:30 0.66 5 1040 (2016) 0 (2013) 147 0 0 0 11 172 252 833
2020-12-31 16:30 0.66 5 1040 (2016) 0 (2013) 147 0 0 0 11 172 252 833
2020-12-31 15:30 0.67 5 1040 (2016) 0 (2013) 147 0 0 0 11 172 252 833
2020-12-31 14:30 0.66 5 1040 (2016) 0 (2013) 147 0 0 0 11 172 252 833
2020-12-31 13:30 0.63 5 1040 (2016) 0 (2013) 147 0 0 0 11 172 252 833
2020-12-31 12:30 0.67 5 1040 (2016) 0 (2013) 147 0 0 0 11 172 252 833
2020-12-31 11:30 0.67 5 1040 (2016) 0 (2013) 147 0 0 0 11 172 252 833
2020-12-31 10:30 0.67 5 1040 (2016) 0 (2013) 147 0 0 0 11 172 252 833
2020-12-31 09:30 0.66 5 1040 (2016) 0 (2013) 147 0 0 0 11 172 252 833
2020-12-31 08:30 0.66 5 1040 (2016) 0 (2013) 147 0 0 0 11 172 252 833
2020-12-31 07:30 0.66 5 1040 (2016) 0 (2013) 147 0 0 0 11 172 252 833
2020-12-31 06:30 0.66 5 1040 (2016) 0 (2013) 147 0 0 0 11 172 252 833
2020-12-31 05:30 0.67 5 1040 (2016) 0 (2013) 147 0 0 0 11 172 252 833
2020-12-31 04:30 0.66 5 1040 (2016) 0 (2013) 147 0 0 0 11 172 252 833
2020-12-31 03:30 0.67 5 1040 (2016) 0 (2013) 147 0 0 0 11 172 252 833
2020-12-31 02:30 0.67 5 1040 (2016) 0 (2013) 147 0 0 0 11 172 252 833
2020-12-31 01:30 0.67 5 1040 (2016) 0 (2013) 147 0 0 0 11 172 252 833
2020-12-31 00:30 0.67 5 1040 (2016) 0 (2013) 147 0 0 0 11 172 252 833
2020-12-30 23:30 0.67 5 2170 (2016) 0 (2013) 297 0 0 0 20 300 541 1770
2020-12-30 22:30 0.67 5 2170 (2016) 0 (2013) 297 0 0 0 20 300 541 1770
2020-12-30 21:30 0.62 4 2170 (2016) 0 (2013) 297 0 0 0 20 300 541 1770
2020-12-30 20:30 0.66 5 2170 (2016) 0 (2013) 297 0 0 0 20 300 541 1770
2020-12-30 19:30 0.67 5 2170 (2016) 0 (2013) 297 0 0 0 20 300 541 1770
2020-12-30 18:30 0.66 5 2170 (2016) 0 (2013) 297 0 0 0 20 300 541 1770
2020-12-30 17:30 0.67 5 2170 (2016) 0 (2013) 297 0 0 0 20 300 541 1770
2020-12-30 16:30 0.66 5 2170 (2016) 0 (2013) 297 0 0 0 20 300 541 1770
2020-12-30 15:30 0.66 5 2170 (2016) 0 (2013) 297 0 0 0 20 300 541 1770
2020-12-30 14:30 0.66 5 2170 (2016) 0 (2013) 297 0 0 0 20 300 541 1770
2020-12-30 13:30 0.66 5 2170 (2016) 0 (2013) 297 0 0 0 20 300 541 1770
2020-12-30 12:30 0.66 5 2170 (2016) 0 (2013) 297 0 0 0 20 300 541 1770
2020-12-30 11:30 0.62 4 2170 (2016) 0 (2013) 297 0 0 0 20 300 541 1770
2020-12-30 10:30 0.61 4 2170 (2016) 0 (2013) 297 0 0 0 20 300 541 1770
2020-12-30 09:30 0.61 4 2170 (2016) 0 (2013) 297 0 0 0 20 300 541 1770
2020-12-30 08:30 0.66 5 2170 (2016) 0 (2013) 297 0 0 0 20 300 541 1770
2020-12-30 07:30 0.62 4 2170 (2016) 0 (2013) 297 0 0 0 20 300 541 1770
2020-12-30 06:30 0.66 5 2170 (2016) 0 (2013) 297 0 0 0 20 300 541 1770
2020-12-30 05:30 0.64 5 2170 (2016) 0 (2013) 297 0 0 0 20 300 541 1770
2020-12-30 04:30 0.65 5 2170 (2016) 0 (2013) 297 0 0 0 20 300 541 1770
2020-12-30 03:30 0.65 5 2170 (2016) 0 (2013) 297 0 0 0 20 300 541 1770
2020-12-30 02:30 0.65 5 2170 (2016) 0 (2013) 297 0 0 0 20 300 541 1770
2020-12-30 01:30 0.64 5 2170 (2016) 0 (2013) 297 0 0 0 20 300 541 1770
2020-12-30 00:30 0.59 4 2170 (2016) 0 (2013) 297 0 0 0 20 300 541 1770
2020-12-29 23:30 0.64 5 5120 (2016) 0 (2013) 533 0 0 0 24 278 488 3800
2020-12-29 22:30 0.65 5 5120 (2016) 0 (2013) 533 0 0 0 24 278 488 3800
2020-12-29 21:30 0.64 5 5120 (2016) 0 (2013) 533 0 0 0 24 278 488 3800
2020-12-29 20:30 0.65 5 5120 (2016) 0 (2013) 533 0 0 0 24 278 488 3800
2020-12-29 19:30 0.63 5 5120 (2016) 0 (2013) 533 0 0 0 24 278 488 3800
2020-12-29 18:30 0.64 5 5120 (2016) 0 (2013) 533 0 0 0 24 278 488 3800
2020-12-29 17:30 0.57 3 5120 (2016) 0 (2013) 533 0 0 0 24 278 488 3800
2020-12-29 16:30 0.61 4 5120 (2016) 0 (2013) 533 0 0 0 24 278 488 3800
2020-12-29 15:30 0.59 4 5120 (2016) 0 (2013) 533 0 0 0 24 278 488 3800
2020-12-29 14:30 0.60 4 5120 (2016) 0 (2013) 533 0 0 0 24 278 488 3800
2020-12-29 13:30 0.57 3 5120 (2016) 0 (2013) 533 0 0 0 24 278 488 3800
2020-12-29 12:30 0.58 4 5120 (2016) 0 (2013) 533 0 0 0 24 278 488 3800
2020-12-29 11:30 0.59 4 5120 (2016) 0 (2013) 533 0 0 0 24 278 488 3800
2020-12-29 10:30 0.61 4 5120 (2016) 0 (2013) 533 0 0 0 24 278 488 3800
2020-12-29 09:30 0.58 4 5120 (2016) 0 (2013) 533 0 0 0 24 278 488 3800
2020-12-29 08:30 0.58 4 5120 (2016) 0 (2013) 533 0 0 0 24 278 488 3800
2020-12-29 07:30 0.59 4 5120 (2016) 0 (2013) 533 0 0 0 24 278 488 3800
2020-12-29 06:30 0.65 5 5120 (2016) 0 (2013) 533 0 0 0 24 278 488 3800
2020-12-29 05:30 0.58 4 5120 (2016) 0 (2013) 533 0 0 0 24 278 488 3800
2020-12-29 05:15 0.65 5 5120 (2016) 0 (2013) 533 0 0 0 24 278 488 3800
2020-12-29 04:30 0.65 5 5120 (2016) 0 (2013) 533 0 0 0 24 278 488 3800
2020-12-29 03:30 0.65 5 5120 (2016) 0 (2013) 533 0 0 0 24 278 488 3800
2020-12-29 02:30 0.65 5 5120 (2016) 0 (2013) 533 0 0 0 24 278 488 3800
2020-12-29 01:30 0.65 5 5120 (2016) 0 (2013) 533 0 0 0 24 278 488 3800
2020-12-29 00:30 0.65 5 5120 (2016) 0 (2013) 533 0 0 0 24 278 488 3800
2020-12-28 23:30 0.65 5 16900 (2016) 0 (2013) 1600 0 0 0 2 496 991 12300
2020-12-28 22:30 0.65 5 16900 (2016) 0 (2013) 1600 0 0 0 2 496 991 12300
2020-12-28 21:30 0.66 5 16900 (2016) 0 (2013) 1600 0 0 0 2 496 991 12300
2020-12-28 20:30 0.65 5 16900 (2016) 0 (2013) 1600 0 0 0 2 496 991 12300
2020-12-28 19:30 0.66 5 16900 (2016) 0 (2013) 1600 0 0 0 2 496 991 12300
2020-12-28 18:30 0.65 5 16900 (2016) 0 (2013) 1600 0 0 0 2 496 991 12300
2020-12-28 17:30 0.66 5 16900 (2016) 0 (2013) 1600 0 0 0 2 496 991 12300
2020-12-28 16:30 0.66 5 16900 (2016) 0 (2013) 1600 0 0 0 2 496 991 12300
2020-12-28 15:30 0.66 5 16900 (2016) 0 (2013) 1600 0 0 0 2 496 991 12300
2020-12-28 14:30 0.66 5 16900 (2016) 0 (2013) 1600 0 0 0 2 496 991 12300
2020-12-28 13:30 0.65 5 16900 (2016) 0 (2013) 1600 0 0 0 2 496 991 12300
2020-12-28 12:30 0.66 5 16900 (2016) 0 (2013) 1600 0 0 0 2 496 991 12300
2020-12-28 11:30 0.66 5 16900 (2016) 0 (2013) 1600 0 0 0 2 496 991 12300
2020-12-28 10:30 0.64 5 16900 (2016) 0 (2013) 1600 0 0 0 2 496 991 12300
2020-12-28 09:30 0.66 5 16900 (2016) 0 (2013) 1600 0 0 0 2 496 991 12300
2020-12-28 08:30 0.66 5 16900 (2016) 0 (2013) 1600 0 0 0 2 496 991 12300
2020-12-28 07:30 0.66 5 16900 (2016) 0 (2013) 1600 0 0 0 2 496 991 12300
2020-12-28 06:30 0.66 5 16900 (2016) 0 (2013) 1600 0 0 0 2 496 991 12300
2020-12-28 05:30 0.66 5 16900 (2016) 0 (2013) 1600 0 0 0 2 496 991 12300
2020-12-28 04:30 0.66 5 16900 (2016) 0 (2013) 1600 0 0 0 2 496 991 12300
2020-12-28 03:30 0.66 5 16900 (2016) 0 (2013) 1600 0 0 0 2 496 991 12300
2020-12-28 02:30 0.61 4 16900 (2016) 0 (2013) 1600 0 0 0 2 496 991 12300
2020-12-28 01:30 0.66 5 16900 (2016) 0 (2013) 1600 0 0 0 2 496 991 12300
2020-12-28 00:30 0.66 5 16900 (2016) 0 (2013) 1600 0 0 0 2 496 991 12300
2020-12-27 23:30 0.66 5 11700 (2016) 0 (2013) 1020 0 0 0 1 129 178 8260
2020-12-27 22:30 0.61 4 11700 (2016) 0 (2013) 1020 0 0 0 1 129 178 8260
2020-12-27 21:30 0.58 4 11700 (2016) 0 (2013) 1020 0 0 0 1 129 178 8260
2020-12-27 20:30 0.59 4 11700 (2016) 0 (2013) 1020 0 0 0 1 129 178 8260
2020-12-27 19:30 0.65 5 11700 (2016) 0 (2013) 1020 0 0 0 1 129 178 8260
2020-12-27 18:30 0.66 5 11700 (2016) 0 (2013) 1020 0 0 0 1 129 178 8260
2020-12-27 17:30 0.66 5 11700 (2016) 0 (2013) 1020 0 0 0 1 129 178 8260
2020-12-27 16:30 0.65 5 11700 (2016) 0 (2013) 1020 0 0 0 1 129 178 8260
2020-12-27 15:30 0.65 5 11700 (2016) 0 (2013) 1020 0 0 0 1 129 178 8260
2020-12-27 14:30 0.65 5 11700 (2016) 0 (2013) 1020 0 0 0 1 129 178 8260
2020-12-27 13:30 0.66 5 11700 (2016) 0 (2013) 1020 0 0 0 1 129 178 8260
2020-12-27 12:30 0.65 5 11700 (2016) 0 (2013) 1020 0 0 0 1 129 178 8260
2020-12-27 11:30 0.56 3 11700 (2016) 0 (2013) 1020 0 0 0 1 129 178 8260
2020-12-27 10:30 0.61 4 11700 (2016) 0 (2013) 1020 0 0 0 1 129 178 8260
2020-12-27 09:30 0.60 4 11700 (2016) 0 (2013) 1020 0 0 0 1 129 178 8260
2020-12-27 08:30 0.64 5 11700 (2016) 0 (2013) 1020 0 0 0 1 129 178 8260
2020-12-27 07:30 0.63 5 11700 (2016) 0 (2013) 1020 0 0 0 1 129 178 8260
2020-12-27 06:30 0.65 5 11700 (2016) 0 (2013) 1020 0 0 0 1 129 178 8260
2020-12-27 05:30 0.65 5 11700 (2016) 0 (2013) 1020 0 0 0 1 129 178 8260
2020-12-27 04:30 0.66 5 11700 (2016) 0 (2013) 1020 0 0 0 1 129 178 8260
2020-12-27 03:30 0.66 5 11700 (2016) 0 (2013) 1020 0 0 0 1 129 178 8260
2020-12-27 02:30 0.66 5 11700 (2016) 0 (2013) 1020 0 0 0 1 129 178 8260
2020-12-27 01:30 0.66 5 11700 (2016) 0 (2013) 1020 0 0 0 1 129 178 8260
2020-12-27 00:30 0.66 5 11700 (2016) 0 (2013) 1020 0 0 0 1 129 178 8260
2020-12-26 23:30 0.66 5 1520 (2016) 0 (2013) 163 0 0 0 2 34 179 1180
2020-12-26 22:30 0.66 5 1520 (2016) 0 (2013) 163 0 0 0 2 34 179 1180
2020-12-26 21:30 0.66 5 1520 (2016) 0 (2013) 163 0 0 0 2 34 179 1180
2020-12-26 20:30 0.66 5 1520 (2016) 0 (2013) 163 0 0 0 2 34 179 1180
2020-12-26 19:30 0.66 5 1520 (2016) 0 (2013) 163 0 0 0 2 34 179 1180
2020-12-26 18:30 0.66 5 1520 (2016) 0 (2013) 163 0 0 0 2 34 179 1180
2020-12-26 17:30 0.66 5 1520 (2016) 0 (2013) 163 0 0 0 2 34 179 1180
2020-12-26 16:30 0.66 5 1520 (2016) 0 (2013) 163 0 0 0 2 34 179 1180
2020-12-26 15:30 0.66 5 1520 (2016) 0 (2013) 163 0 0 0 2 34 179 1180
2020-12-26 14:30 0.66 5 1520 (2016) 0 (2013) 163 0 0 0 2 34 179 1180
2020-12-26 13:30 0.66 5 1520 (2016) 0 (2013) 163 0 0 0 2 34 179 1180
2020-12-26 12:30 0.66 5 1520 (2016) 0 (2013) 163 0 0 0 2 34 179 1180
2020-12-26 11:30 0.63 5 1520 (2016) 0 (2013) 163 0 0 0 2 34 179 1180
2020-12-26 10:30 0.66 5 1520 (2016) 0 (2013) 163 0 0 0 2 34 179 1180
2020-12-26 09:30 0.66 5 1520 (2016) 0 (2013) 163 0 0 0 2 34 179 1180
2020-12-26 08:30 0.66 5 1520 (2016) 0 (2013) 163 0 0 0 2 34 179 1180
2020-12-26 07:30 0.67 5 1520 (2016) 0 (2013) 163 0 0 0 2 34 179 1180
2020-12-26 06:30 0.67 5 1520 (2016) 0 (2013) 163 0 0 0 2 34 179 1180
2020-12-26 05:30 0.67 5 1520 (2016) 0 (2013) 163 0 0 0 2 34 179 1180
2020-12-26 04:30 0.67 5 1520 (2016) 0 (2013) 163 0 0 0 2 34 179 1180
2020-12-26 03:30 0.67 5 1520 (2016) 0 (2013) 163 0 0 0 2 34 179 1180
2020-12-26 02:30 0.67 5 1520 (2016) 0 (2013) 163 0 0 0 2 34 179 1180
2020-12-26 01:30 0.67 5 1520 (2016) 0 (2013) 163 0 0 0 2 34 179 1180
2020-12-26 00:30 0.67 5 1520 (2016) 0 (2013) 163 0 0 0 2 34 179 1180
2020-12-25 23:30 0.67 5 556 (2014) 0 (2013) 63 0 0 0 2 11 76 440
2020-12-25 22:30 0.67 5 556 (2014) 0 (2013) 63 0 0 0 2 11 76 440
2020-12-25 21:30 0.67 5 556 (2014) 0 (2013) 63 0 0 0 2 11 76 440
2020-12-25 20:30 0.67 5 556 (2014) 0 (2013) 63 0 0 0 2 11 76 440
2020-12-25 19:30 0.67 5 556 (2014) 0 (2013) 63 0 0 0 2 11 76 440
2020-12-25 18:30 0.67 5 556 (2014) 0 (2013) 63 0 0 0 2 11 76 440
2020-12-25 17:30 0.67 5 556 (2014) 0 (2013) 63 0 0 0 2 11 76 440
2020-12-25 16:30 0.67 5 556 (2014) 0 (2013) 63 0 0 0 2 11 76 440
2020-12-25 15:30 0.67 5 556 (2014) 0 (2013) 63 0 0 0 2 11 76 440
2020-12-25 14:30 0.67 5 556 (2014) 0 (2013) 63 0 0 0 2 11 76 440
2020-12-25 13:30 0.67 5 556 (2014) 0 (2013) 63 0 0 0 2 11 76 440
2020-12-25 12:30 0.66 5 556 (2014) 0 (2013) 63 0 0 0 2 11 76 440
2020-12-25 11:30 0.67 5 556 (2014) 0 (2013) 63 0 0 0 2 11 76 440
2020-12-25 10:30 0.67 5 556 (2014) 0 (2013) 63 0 0 0 2 11 76 440
2020-12-25 09:30 0.66 5 556 (2014) 0 (2013) 63 0 0 0 2 11 76 440
2020-12-25 08:30 0.67 5 556 (2014) 0 (2013) 63 0 0 0 2 11 76 440
2020-12-25 07:30 0.68 6 556 (2014) 0 (2013) 63 0 0 0 2 11 76 440
2020-12-25 06:30 0.67 5 556 (2014) 0 (2013) 63 0 0 0 2 11 76 440
2020-12-25 05:30 0.67 5 556 (2014) 0 (2013) 63 0 0 0 2 11 76 440
2020-12-25 04:30 0.67 5 556 (2014) 0 (2013) 63 0 0 0 2 11 76 440
2020-12-25 03:30 0.65 5 556 (2014) 0 (2013) 63 0 0 0 2 11 76 440
2020-12-25 02:30 0.67 5 556 (2014) 0 (2013) 63 0 0 0 2 11 76 440
2020-12-25 01:30 0.62 4 556 (2014) 0 (2013) 63 0 0 0 2 11 76 440
2020-12-25 00:30 0.61 4 556 (2014) 0 (2013) 63 0 0 0 2 11 76 440
2020-12-24 23:30 0.61 4 753 (2014) 0 (2013) 71 0 0 0 1 22 42 546
2020-12-24 22:30 0.60 4 753 (2014) 0 (2013) 71 0 0 0 1 22 42 546
2020-12-24 21:30 0.61 4 753 (2014) 0 (2013) 71 0 0 0 1 22 42 546
2020-12-24 20:30 0.68 6 753 (2014) 0 (2013) 71 0 0 0 1 22 42 546
2020-12-24 19:30 0.68 6 753 (2014) 0 (2013) 71 0 0 0 1 22 42 546
2020-12-24 18:30 0.68 6 753 (2014) 0 (2013) 71 0 0 0 1 22 42 546
2020-12-24 17:30 0.64 5 753 (2014) 0 (2013) 71 0 0 0 1 22 42 546
2020-12-24 16:30 0.60 4 753 (2014) 0 (2013) 71 0 0 0 1 22 42 546
2020-12-24 15:30 0.61 4 753 (2014) 0 (2013) 71 0 0 0 1 22 42 546
2020-12-24 14:30 0.64 5 753 (2014) 0 (2013) 71 0 0 0 1 22 42 546
2020-12-24 13:30 0.62 4 753 (2014) 0 (2013) 71 0 0 0 1 22 42 546
2020-12-24 12:30 0.60 4 753 (2014) 0 (2013) 71 0 0 0 1 22 42 546
2020-12-24 11:30 0.62 4 753 (2014) 0 (2013) 71 0 0 0 1 22 42 546
2020-12-24 10:30 0.61 4 753 (2014) 0 (2013) 71 0 0 0 1 22 42 546
2020-12-24 09:30 0.61 4 753 (2014) 0 (2013) 71 0 0 0 1 22 42 546
2020-12-24 08:30 0.60 4 753 (2014) 0 (2013) 71 0 0 0 1 22 42 546
2020-12-24 07:30 0.62 4 753 (2014) 0 (2013) 71 0 0 0 1 22 42 546
2020-12-24 06:30 0.63 5 753 (2014) 0 (2013) 71 0 0 0 1 22 42 546
2020-12-24 05:30 0.68 6 753 (2014) 0 (2013) 71 0 0 0 1 22 42 546
2020-12-24 04:30 0.60 4 753 (2014) 0 (2013) 71 0 0 0 1 22 42 546
2020-12-24 03:30 0.68 6 753 (2014) 0 (2013) 71 0 0 0 1 22 42 546
2020-12-24 02:30 0.64 5 753 (2014) 0 (2013) 71 0 0 0 1 22 42 546
2020-12-24 01:30 0.61 4 753 (2014) 0 (2013) 71 0 0 0 1 22 42 546
2020-12-24 00:30 0.61 4 753 (2014) 0 (2013) 71 0 0 0 1 22 42 546
2020-12-23 23:30 0.62 4 1070 (2014) 0 (2013) 96 0 0 0 1 8 29 767
2020-12-23 22:30 0.62 4 1070 (2014) 0 (2013) 96 0 0 0 1 8 29 767
2020-12-23 21:30 0.61 4 1070 (2014) 0 (2013) 96 0 0 0 1 8 29 767
2020-12-23 20:30 0.60 4 1070 (2014) 0 (2013) 96 0 0 0 1 8 29 767
2020-12-23 19:30 0.59 4 1070 (2014) 0 (2013) 96 0 0 0 1 8 29 767
2020-12-23 18:30 0.62 4 1070 (2014) 0 (2013) 96 0 0 0 1 8 29 767
2020-12-23 17:30 0.61 4 1070 (2014) 0 (2013) 96 0 0 0 1 8 29 767
2020-12-23 16:30 0.64 5 1070 (2014) 0 (2013) 96 0 0 0 1 8 29 767
2020-12-23 15:30 0.60 4 1070 (2014) 0 (2013) 96 0 0 0 1 8 29 767
2020-12-23 14:30 0.67 5 1070 (2014) 0 (2013) 96 0 0 0 1 8 29 767
2020-12-23 13:30 0.68 6 1070 (2014) 0 (2013) 96 0 0 0 1 8 29 767
2020-12-23 12:30 0.61 4 1070 (2014) 0 (2013) 96 0 0 0 1 8 29 767
2020-12-23 11:30 0.66 5 1070 (2014) 0 (2013) 96 0 0 0 1 8 29 767
2020-12-23 10:30 0.58 4 1070 (2014) 0 (2013) 96 0 0 0 1 8 29 767
2020-12-23 09:30 0.59 4 1070 (2014) 0 (2013) 96 0 0 0 1 8 29 767
2020-12-23 08:30 0.61 4 1070 (2014) 0 (2013) 96 0 0 0 1 8 29 767
2020-12-23 07:30 0.58 4 1070 (2014) 0 (2013) 96 0 0 0 1 8 29 767
2020-12-23 06:30 0.62 4 1070 (2014) 0 (2013) 96 0 0 0 1 8 29 767
2020-12-23 05:30 0.60 4 1070 (2014) 0 (2013) 96 0 0 0 1 8 29 767
2020-12-23 04:30 0.63 5 1070 (2014) 0 (2013) 96 0 0 0 1 8 29 767
2020-12-23 03:30 0.63 5 1070 (2014) 0 (2013) 96 0 0 0 1 8 29 767
2020-12-23 02:30 0.67 5 1070 (2014) 0 (2013) 96 0 0 0 1 8 29 767
2020-12-23 01:30 0.66 5 1070 (2014) 0 (2013) 96 0 0 0 1 8 29 767
2020-12-23 00:30 0.60 4 1070 (2014) 0 (2013) 96 0 0 0 1 8 29 767
2020-12-22 23:30 0.67 5 1220 (2014) 0 (2013) 126 0 0 0 1 16 85 1000
2020-12-22 22:30 0.67 5 1220 (2014) 0 (2013) 126 0 0 0 1 16 85 1000
2020-12-22 21:30 0.66 5 1220 (2014) 0 (2013) 126 0 0 0 1 16 85 1000
2020-12-22 20:30 0.60 4 1220 (2014) 0 (2013) 126 0 0 0 1 16 85 1000
2020-12-22 19:30 0.64 5 1220 (2014) 0 (2013) 126 0 0 0 1 16 85 1000
2020-12-22 18:30 0.59 4 1220 (2014) 0 (2013) 126 0 0 0 1 16 85 1000
2020-12-22 17:30 0.67 5 1220 (2014) 0 (2013) 126 0 0 0 1 16 85 1000
2020-12-22 16:30 0.63 5 1220 (2014) 0 (2013) 126 0 0 0 1 16 85 1000
2020-12-22 15:30 0.59 4 1220 (2014) 0 (2013) 126 0 0 0 1 16 85 1000
2020-12-22 14:30 0.60 4 1220 (2014) 0 (2013) 126 0 0 0 1 16 85 1000
2020-12-22 13:30 0.60 4 1220 (2014) 0 (2013) 126 0 0 0 1 16 85 1000
2020-12-22 12:30 0.60 4 1220 (2014) 0 (2013) 126 0 0 0 1 16 85 1000
2020-12-22 11:30 0.62 4 1220 (2014) 0 (2013) 126 0 0 0 1 16 85 1000
2020-12-22 10:30 0.66 5 1220 (2014) 0 (2013) 126 0 0 0 1 16 85 1000
2020-12-22 09:30 0.67 5 1220 (2014) 0 (2013) 126 0 0 0 1 16 85 1000
2020-12-22 08:30 0.67 5 1220 (2014) 0 (2013) 126 0 0 0 1 16 85 1000
2020-12-22 07:30 0.67 5 1220 (2014) 0 (2013) 126 0 0 0 1 16 85 1000
2020-12-22 06:30 0.67 5 1220 (2014) 0 (2013) 126 0 0 0 1 16 85 1000
2020-12-22 05:30 0.67 5 1220 (2014) 0 (2013) 126 0 0 0 1 16 85 1000
2020-12-22 04:30 0.67 5 1220 (2014) 0 (2013) 126 0 0 0 1 16 85 1000
2020-12-22 03:30 0.67 5 1220 (2014) 0 (2013) 126 0 0 0 1 16 85 1000
2020-12-22 02:30 0.67 5 1220 (2014) 0 (2013) 126 0 0 0 1 16 85 1000
2020-12-22 01:30 0.67 5 1220 (2014) 0 (2013) 126 0 0 0 1 16 85 1000
2020-12-22 00:30 0.67 5 1220 (2014) 0 (2013) 126 0 0 0 1 16 85 1000
2020-12-21 23:30 0.67 5 140 (2012) 0 (2013) 19 0 0 0 1 27 31 119
2020-12-21 22:30 0.67 5 140 (2012) 0 (2013) 19 0 0 0 1 27 31 119
2020-12-21 21:30 0.67 5 140 (2012) 0 (2013) 19 0 0 0 1 27 31 119
2020-12-21 20:30 0.67 5 140 (2012) 0 (2013) 19 0 0 0 1 27 31 119
2020-12-21 19:30 0.67 5 140 (2012) 0 (2013) 19 0 0 0 1 27 31 119
2020-12-21 18:30 0.67 5 140 (2012) 0 (2013) 19 0 0 0 1 27 31 119
2020-12-21 17:30 0.67 5 140 (2012) 0 (2013) 19 0 0 0 1 27 31 119
2020-12-21 16:30 0.66 5 140 (2012) 0 (2013) 19 0 0 0 1 27 31 119
2020-12-21 15:30 0.61 4 140 (2012) 0 (2013) 19 0 0 0 1 27 31 119
2020-12-21 14:30 0.60 4 140 (2012) 0 (2013) 19 0 0 0 1 27 31 119
2020-12-21 13:30 0.61 4 140 (2012) 0 (2013) 19 0 0 0 1 27 31 119
2020-12-21 12:30 0.59 4 140 (2012) 0 (2013) 19 0 0 0 1 27 31 119
2020-12-21 11:30 0.67 5 140 (2012) 0 (2013) 19 0 0 0 1 27 31 119
2020-12-21 10:30 0.59 4 140 (2012) 0 (2013) 19 0 0 0 1 27 31 119
2020-12-21 09:30 0.63 5 140 (2012) 0 (2013) 19 0 0 0 1 27 31 119
2020-12-21 08:30 0.64 5 140 (2012) 0 (2013) 19 0 0 0 1 27 31 119
2020-12-21 07:30 0.67 5 140 (2012) 0 (2013) 19 0 0 0 1 27 31 119
2020-12-21 06:30 0.67 5 140 (2012) 0 (2013) 19 0 0 0 1 27 31 119
2020-12-21 05:30 0.67 5 140 (2012) 0 (2013) 19 0 0 0 1 27 31 119
2020-12-21 04:30 0.67 5 140 (2012) 0 (2013) 19 0 0 0 1 27 31 119
2020-12-21 03:30 0.67 5 140 (2012) 0 (2013) 19 0 0 0 1 27 31 119
2020-12-21 02:30 0.67 5 140 (2012) 0 (2013) 19 0 0 0 1 27 31 119
2020-12-21 01:30 0.67 5 140 (2012) 0 (2013) 19 0 0 0 1 27 31 119
2020-12-21 00:30 0.67 5 140 (2012) 0 (2013) 19 0 0 0 1 27 31 119
2020-12-20 23:30 0.68 6 60 (2016) 0 (2013) 12 0 0 0 1 10 36 59
2020-12-20 22:30 0.67 5 60 (2016) 0 (2013) 12 0 0 0 1 10 36 59
2020-12-20 21:30 0.67 5 60 (2016) 0 (2013) 12 0 0 0 1 10 36 59
2020-12-20 20:30 0.67 5 60 (2016) 0 (2013) 12 0 0 0 1 10 36 59
2020-12-20 19:30 0.68 6 60 (2016) 0 (2013) 12 0 0 0 1 10 36 59
2020-12-20 18:30 0.67 5 60 (2016) 0 (2013) 12 0 0 0 1 10 36 59
2020-12-20 17:30 0.67 5 60 (2016) 0 (2013) 12 0 0 0 1 10 36 59
2020-12-20 16:30 0.67 5 60 (2016) 0 (2013) 12 0 0 0 1 10 36 59
2020-12-20 15:30 0.65 5 60 (2016) 0 (2013) 12 0 0 0 1 10 36 59
2020-12-20 14:30 0.67 5 60 (2016) 0 (2013) 12 0 0 0 1 10 36 59
2020-12-20 13:30 0.68 6 60 (2016) 0 (2013) 12 0 0 0 1 10 36 59
2020-12-20 12:30 0.68 6 60 (2016) 0 (2013) 12 0 0 0 1 10 36 59
2020-12-20 11:30 0.67 5 60 (2016) 0 (2013) 12 0 0 0 1 10 36 59
2020-12-20 10:30 0.68 6 60 (2016) 0 (2013) 12 0 0 0 1 10 36 59
2020-12-20 09:30 0.68 6 60 (2016) 0 (2013) 12 0 0 0 1 10 36 59
2020-12-20 08:30 0.68 6 60 (2016) 0 (2013) 12 0 0 0 1 10 36 59
2020-12-20 07:30 0.68 6 60 (2016) 0 (2013) 12 0 0 0 1 10 36 59
2020-12-20 06:30 0.68 6 60 (2016) 0 (2013) 12 0 0 0 1 10 36 59
2020-12-20 05:30 0.68 6 60 (2016) 0 (2013) 12 0 0 0 1 10 36 59
2020-12-20 04:30 0.68 6 60 (2016) 0 (2013) 12 0 0 0 1 10 36 59
2020-12-20 03:30 0.68 6 60 (2016) 0 (2013) 12 0 0 0 1 10 36 59
2020-12-20 02:30 0.68 6 60 (2016) 0 (2013) 12 0 0 0 1 10 36 59
2020-12-20 01:30 0.68 6 60 (2016) 0 (2013) 12 0 0 0 1 10 36 59
2020-12-20 00:30 0.68 6 60 (2016) 0 (2013) 12 0 0 0 1 10 36 59
2020-12-19 23:30 0.68 6 110 (2016) 0 (2013) 21 0 0 0 1 19 69 108
2020-12-19 22:30 0.68 6 110 (2016) 0 (2013) 21 0 0 0 1 19 69 108
2020-12-19 21:30 0.68 6 110 (2016) 0 (2013) 21 0 0 0 1 19 69 108
2020-12-19 20:30 0.68 6 110 (2016) 0 (2013) 21 0 0 0 1 19 69 108
2020-12-19 19:30 0.68 6 110 (2016) 0 (2013) 21 0 0 0 1 19 69 108
2020-12-19 18:30 0.68 6 110 (2016) 0 (2013) 21 0 0 0 1 19 69 108
2020-12-19 17:30 0.68 6 110 (2016) 0 (2013) 21 0 0 0 1 19 69 108
2020-12-19 16:30 0.68 6 110 (2016) 0 (2013) 21 0 0 0 1 19 69 108
2020-12-19 15:30 0.67 5 110 (2016) 0 (2013) 21 0 0 0 1 19 69 108
2020-12-19 14:30 0.68 6 110 (2016) 0 (2013) 21 0 0 0 1 19 69 108
2020-12-19 13:30 0.68 6 110 (2016) 0 (2013) 21 0 0 0 1 19 69 108
2020-12-19 12:30 0.68 6 110 (2016) 0 (2013) 21 0 0 0 1 19 69 108
2020-12-19 11:30 0.63 5 110 (2016) 0 (2013) 21 0 0 0 1 19 69 108
2020-12-19 10:30 0.63 5 110 (2016) 0 (2013) 21 0 0 0 1 19 69 108
2020-12-19 09:30 0.68 6 110 (2016) 0 (2013) 21 0 0 0 1 19 69 108
2020-12-19 08:30 0.68 6 110 (2016) 0 (2013) 21 0 0 0 1 19 69 108
2020-12-19 07:30 0.68 6 110 (2016) 0 (2013) 21 0 0 0 1 19 69 108
2020-12-19 06:30 0.66 5 110 (2016) 0 (2013) 21 0 0 0 1 19 69 108
2020-12-19 05:30 0.68 6 110 (2016) 0 (2013) 21 0 0 0 1 19 69 108
2020-12-19 04:30 0.69 6 110 (2016) 0 (2013) 21 0 0 0 1 19 69 108
2020-12-19 03:30 0.68 6 110 (2016) 0 (2013) 21 0 0 0 1 19 69 108
2020-12-19 02:30 0.68 6 110 (2016) 0 (2013) 21 0 0 0 1 19 69 108
2020-12-19 01:30 0.64 5 110 (2016) 0 (2013) 21 0 0 0 1 19 69 108
2020-12-19 00:30 0.68 6 110 (2016) 0 (2013) 21 0 0 0 1 19 69 108
2020-12-18 23:30 0.64 5 222 (2019) 0 (2013) 43 0 0 0 1 41 138 218
2020-12-18 22:30 0.62 4 222 (2019) 0 (2013) 43 0 0 0 1 41 138 218
2020-12-18 21:30 0.65 5 222 (2019) 0 (2013) 43 0 0 0 1 41 138 218
2020-12-18 20:30 0.66 5 222 (2019) 0 (2013) 43 0 0 0 1 41 138 218
2020-12-18 19:30 0.62 4 222 (2019) 0 (2013) 43 0 0 0 1 41 138 218
2020-12-18 18:30 0.66 5 222 (2019) 0 (2013) 43 0 0 0 1 41 138 218
2020-12-18 17:30 0.69 6 222 (2019) 0 (2013) 43 0 0 0 1 41 138 218
2020-12-18 16:30 0.61 4 222 (2019) 0 (2013) 43 0 0 0 1 41 138 218
2020-12-18 15:30 0.64 5 222 (2019) 0 (2013) 43 0 0 0 1 41 138 218
2020-12-18 14:30 0.66 5 222 (2019) 0 (2013) 43 0 0 0 1 41 138 218
2020-12-18 13:30 0.69 6 222 (2019) 0 (2013) 43 0 0 0 1 41 138 218
2020-12-18 12:30 0.64 5 222 (2019) 0 (2013) 43 0 0 0 1 41 138 218
2020-12-18 11:30 0.69 6 222 (2019) 0 (2013) 43 0 0 0 1 41 138 218
2020-12-18 10:30 0.69 6 222 (2019) 0 (2013) 43 0 0 0 1 41 138 218
2020-12-18 09:30 0.69 6 222 (2019) 0 (2013) 43 0 0 0 1 41 138 218
2020-12-18 08:30 0.69 6 222 (2019) 0 (2013) 43 0 0 0 1 41 138 218
2020-12-18 07:30 0.69 6 222 (2019) 0 (2013) 43 0 0 0 1 41 138 218
2020-12-18 06:30 0.69 6 222 (2019) 0 (2013) 43 0 0 0 1 41 138 218
2020-12-18 05:30 0.69 6 222 (2019) 0 (2013) 43 0 0 0 1 41 138 218
2020-12-18 04:30 0.69 6 222 (2019) 0 (2013) 43 0 0 0 1 41 138 218
2020-12-18 03:30 0.69 6 222 (2019) 0 (2013) 43 0 0 0 1 41 138 218
2020-12-18 02:30 0.69 6 222 (2019) 0 (2013) 43 0 0 0 1 41 138 218
2020-12-18 01:30 0.69 6 222 (2019) 0 (2013) 43 0 0 0 1 41 138 218
2020-12-18 00:30 0.69 6 222 (2019) 0 (2013) 43 0 0 0 1 41 138 218
2020-12-17 23:30 0.69 6 514 (2019) 0 (2013) 91 0 0 0 1 92 268 488
2020-12-17 22:30 0.70 6 514 (2019) 0 (2013) 91 0 0 0 1 92 268 488
2020-12-17 21:30 0.70 6 514 (2019) 0 (2013) 91 0 0 0 1 92 268 488
2020-12-17 20:30 0.69 6 514 (2019) 0 (2013) 91 0 0 0 1 92 268 488
2020-12-17 19:30 0.70 6 514 (2019) 0 (2013) 91 0 0 0 1 92 268 488
2020-12-17 18:30 0.69 6 514 (2019) 0 (2013) 91 0 0 0 1 92 268 488
2020-12-17 17:30 0.69 6 514 (2019) 0 (2013) 91 0 0 0 1 92 268 488
2020-12-17 16:30 0.69 6 514 (2019) 0 (2013) 91 0 0 0 1 92 268 488
2020-12-17 15:30 0.70 6 514 (2019) 0 (2013) 91 0 0 0 1 92 268 488
2020-12-17 14:30 0.70 6 514 (2019) 0 (2013) 91 0 0 0 1 92 268 488
2020-12-17 13:30 0.69 6 514 (2019) 0 (2013) 91 0 0 0 1 92 268 488
2020-12-17 12:30 0.66 5 514 (2019) 0 (2013) 91 0 0 0 1 92 268 488
2020-12-17 11:30 0.65 5 514 (2019) 0 (2013) 91 0 0 0 1 92 268 488
2020-12-17 10:30 0.69 6 514 (2019) 0 (2013) 91 0 0 0 1 92 268 488
2020-12-17 09:30 0.70 6 514 (2019) 0 (2013) 91 0 0 0 1 92 268 488
2020-12-17 08:30 0.70 6 514 (2019) 0 (2013) 91 0 0 0 1 92 268 488
2020-12-17 07:30 0.70 6 514 (2019) 0 (2013) 91 0 0 0 1 92 268 488
2020-12-17 06:30 0.70 6 514 (2019) 0 (2013) 91 0 0 0 1 92 268 488
2020-12-17 05:30 0.70 6 514 (2019) 0 (2013) 91 0 0 0 1 92 268 488
2020-12-17 04:30 0.70 6 514 (2019) 0 (2013) 91 0 0 0 1 92 268 488
2020-12-17 03:30 0.70 6 514 (2019) 0 (2013) 91 0 0 0 1 92 268 488
2020-12-17 02:30 0.70 6 514 (2019) 0 (2013) 91 0 0 0 1 92 268 488
2020-12-17 01:30 0.70 6 514 (2019) 0 (2013) 91 0 0 0 1 92 268 488
2020-12-17 00:30 0.70 6 514 (2019) 0 (2013) 91 0 0 0 1 92 268 488
2020-12-16 23:30 0.70 6 1480 (2019) 0 (2013) 219 0 0 0 1 146 526 1340
2020-12-16 22:30 0.70 6 1480 (2019) 0 (2013) 219 0 0 0 1 146 526 1340
2020-12-16 21:30 0.70 6 1480 (2019) 0 (2013) 219 0 0 0 1 146 526 1340
2020-12-16 20:30 0.70 6 1480 (2019) 0 (2013) 219 0 0 0 1 146 526 1340
2020-12-16 19:30 0.70 6 1480 (2019) 0 (2013) 219 0 0 0 1 146 526 1340
2020-12-16 18:30 0.70 6 1480 (2019) 0 (2013) 219 0 0 0 1 146 526 1340
2020-12-16 17:30 0.70 6 1480 (2019) 0 (2013) 219 0 0 0 1 146 526 1340
2020-12-16 16:30 0.70 6 1480 (2019) 0 (2013) 219 0 0 0 1 146 526 1340
2020-12-16 15:30 0.64 5 1480 (2019) 0 (2013) 219 0 0 0 1 146 526 1340
2020-12-16 14:30 0.69 6 1480 (2019) 0 (2013) 219 0 0 0 1 146 526 1340
2020-12-16 13:30 0.64 5 1480 (2019) 0 (2013) 219 0 0 0 1 146 526 1340
2020-12-16 12:30 0.69 6 1480 (2019) 0 (2013) 219 0 0 0 1 146 526 1340
2020-12-16 11:30 0.70 6 1480 (2019) 0 (2013) 219 0 0 0 1 146 526 1340
2020-12-16 10:30 0.64 5 1480 (2019) 0 (2013) 219 0 0 0 1 146 526 1340
2020-12-16 09:30 0.69 6 1480 (2019) 0 (2013) 219 0 0 0 1 146 526 1340
2020-12-16 08:30 0.70 6 1480 (2019) 0 (2013) 219 0 0 0 1 146 526 1340
2020-12-16 07:30 0.66 5 1480 (2019) 0 (2013) 219 0 0 0 1 146 526 1340
2020-12-16 06:30 0.70 6 1480 (2019) 0 (2013) 219 0 0 0 1 146 526 1340
2020-12-16 05:30 0.70 6 1480 (2019) 0 (2013) 219 0 0 0 1 146 526 1340
2020-12-16 04:30 0.70 6 1480 (2019) 0 (2013) 219 0 0 0 1 146 526 1340
2020-12-16 03:30 0.70 6 1480 (2019) 0 (2013) 219 0 0 0 1 146 526 1340
2020-12-16 02:30 0.70 6 1480 (2019) 0 (2013) 219 0 0 0 1 146 526 1340
2020-12-16 01:30 0.70 6 1480 (2019) 0 (2013) 219 0 0 0 1 146 526 1340
2020-12-16 00:30 0.70 6 1480 (2019) 0 (2013) 219 0 0 0 1 146 526 1340
2020-12-15 23:30 0.70 6 1830 (2016) 0 (2013) 211 0 0 0 1 3 290 1560
2020-12-15 22:30 0.70 6 1830 (2016) 0 (2013) 211 0 0 0 1 3 290 1560
2020-12-15 21:30 0.70 6 1830 (2016) 0 (2013) 211 0 0 0 1 3 290 1560
2020-12-15 20:30 0.70 6 1830 (2016) 0 (2013) 211 0 0 0 1 3 290 1560
2020-12-15 19:30 0.70 6 1830 (2016) 0 (2013) 211 0 0 0 1 3 290 1560
2020-12-15 18:30 0.71 6 1830 (2016) 0 (2013) 211 0 0 0 1 3 290 1560
2020-12-15 17:30 0.70 6 1830 (2016) 0 (2013) 211 0 0 0 1 3 290 1560
2020-12-15 16:30 0.71 6 1830 (2016) 0 (2013) 211 0 0 0 1 3 290 1560
2020-12-15 15:30 0.71 6 1830 (2016) 0 (2013) 211 0 0 0 1 3 290 1560
2020-12-15 14:30 0.71 6 1830 (2016) 0 (2013) 211 0 0 0 1 3 290 1560
2020-12-15 13:30 0.70 6 1830 (2016) 0 (2013) 211 0 0 0 1 3 290 1560
2020-12-15 12:30 0.71 6 1830 (2016) 0 (2013) 211 0 0 0 1 3 290 1560
2020-12-15 11:30 0.70 6 1830 (2016) 0 (2013) 211 0 0 0 1 3 290 1560
2020-12-15 10:30 0.70 6 1830 (2016) 0 (2013) 211 0 0 0 1 3 290 1560
2020-12-15 09:30 0.71 6 1830 (2016) 0 (2013) 211 0 0 0 1 3 290 1560
2020-12-15 08:30 0.70 6 1830 (2016) 0 (2013) 211 0 0 0 1 3 290 1560
2020-12-15 07:30 0.70 6 1830 (2016) 0 (2013) 211 0 0 0 1 3 290 1560
2020-12-15 06:30 0.70 6 1830 (2016) 0 (2013) 211 0 0 0 1 3 290 1560
2020-12-15 05:30 0.71 6 1830 (2016) 0 (2013) 211 0 0 0 1 3 290 1560
2020-12-15 04:30 0.71 6 1830 (2016) 0 (2013) 211 0 0 0 1 3 290 1560
2020-12-15 03:30 0.70 6 1830 (2016) 0 (2013) 211 0 0 0 1 3 290 1560
2020-12-15 02:30 0.71 6 1830 (2016) 0 (2013) 211 0 0 0 1 3 290 1560
2020-12-15 01:30 0.71 6 1830 (2016) 0 (2013) 211 0 0 0 1 3 290 1560
2020-12-15 00:30 0.71 6 1830 (2016) 0 (2013) 211 0 0 0 1 3 290 1560
2020-12-14 23:30 0.71 6 1470 (2016) 0 (2013) 135 0 0 0 1 3 6 1180
2020-12-14 22:30 0.71 6 1470 (2016) 0 (2013) 135 0 0 0 1 3 6 1180
2020-12-14 21:30 0.71 6 1470 (2016) 0 (2013) 135 0 0 0 1 3 6 1180
2020-12-14 20:30 0.71 6 1470 (2016) 0 (2013) 135 0 0 0 1 3 6 1180
2020-12-14 19:30 0.71 6 1470 (2016) 0 (2013) 135 0 0 0 1 3 6 1180
2020-12-14 18:30 0.71 6 1470 (2016) 0 (2013) 135 0 0 0 1 3 6 1180
2020-12-14 17:30 0.71 6 1470 (2016) 0 (2013) 135 0 0 0 1 3 6 1180
2020-12-14 16:30 0.71 6 1470 (2016) 0 (2013) 135 0 0 0 1 3 6 1180
2020-12-14 15:30 0.71 6 1470 (2016) 0 (2013) 135 0 0 0 1 3 6 1180
2020-12-14 14:30 0.65 5 1470 (2016) 0 (2013) 135 0 0 0 1 3 6 1180
2020-12-14 13:30 0.68 6 1470 (2016) 0 (2013) 135 0 0 0 1 3 6 1180
2020-12-14 12:30 0.65 5 1470 (2016) 0 (2013) 135 0 0 0 1 3 6 1180
2020-12-14 11:30 0.71 6 1470 (2016) 0 (2013) 135 0 0 0 1 3 6 1180
2020-12-14 10:30 0.68 6 1470 (2016) 0 (2013) 135 0 0 0 1 3 6 1180
2020-12-14 09:30 0.67 5 1470 (2016) 0 (2013) 135 0 0 0 1 3 6 1180
2020-12-14 08:30 0.71 6 1470 (2016) 0 (2013) 135 0 0 0 1 3 6 1180
2020-12-14 07:30 0.71 6 1470 (2016) 0 (2013) 135 0 0 0 1 3 6 1180
2020-12-14 06:30 0.71 6 1470 (2016) 0 (2013) 135 0 0 0 1 3 6 1180
2020-12-14 05:30 0.72 7 1470 (2016) 0 (2013) 135 0 0 0 1 3 6 1180
2020-12-14 04:30 0.65 5 1470 (2016) 0 (2013) 135 0 0 0 1 3 6 1180
2020-12-14 03:30 0.65 5 1470 (2016) 0 (2013) 135 0 0 0 1 3 6 1180
2020-12-14 02:30 0.64 5 1470 (2016) 0 (2013) 135 0 0 0 1 3 6 1180
2020-12-14 01:30 0.63 5 1470 (2016) 0 (2013) 135 0 0 0 1 3 6 1180
2020-12-14 00:30 0.65 5 1470 (2016) 0 (2013) 135 0 0 0 1 3 6 1180
2020-12-13 23:30 0.66 5 7 (2019) 0 (2013) 2 0 0 0 0 4 4 7
2020-12-13 22:30 0.66 5 7 (2019) 0 (2013) 2 0 0 0 0 4 4 7
2020-12-13 21:30 0.66 5 7 (2019) 0 (2013) 2 0 0 0 0 4 4 7
2020-12-13 20:30 0.65 5 7 (2019) 0 (2013) 2 0 0 0 0 4 4 7
2020-12-13 19:30 0.67 5 7 (2019) 0 (2013) 2 0 0 0 0 4 4 7
2020-12-13 18:30 0.72 7 7 (2019) 0 (2013) 2 0 0 0 0 4 4 7
2020-12-13 17:30 0.71 6 7 (2019) 0 (2013) 2 0 0 0 0 4 4 7
2020-12-13 16:30 0.72 7 7 (2019) 0 (2013) 2 0 0 0 0 4 4 7
2020-12-13 15:30 0.72 7 7 (2019) 0 (2013) 2 0 0 0 0 4 4 7
2020-12-13 14:30 0.72 7 7 (2019) 0 (2013) 2 0 0 0 0 4 4 7
2020-12-13 13:30 0.72 7 7 (2019) 0 (2013) 2 0 0 0 0 4 4 7
2020-12-13 12:30 0.72 7 7 (2019) 0 (2013) 2 0 0 0 0 4 4 7
2020-12-13 11:30 0.72 7 7 (2019) 0 (2013) 2 0 0 0 0 4 4 7
2020-12-13 10:30 0.72 7 7 (2019) 0 (2013) 2 0 0 0 0 4 4 7
2020-12-13 09:30 0.72 7 7 (2019) 0 (2013) 2 0 0 0 0 4 4 7
2020-12-13 08:30 0.72 7 7 (2019) 0 (2013) 2 0 0 0 0 4 4 7
2020-12-13 07:30 0.72 7 7 (2019) 0 (2013) 2 0 0 0 0 4 4 7
2020-12-13 06:30 0.72 7 7 (2019) 0 (2013) 2 0 0 0 0 4 4 7
2020-12-13 05:30 0.73 7 7 (2019) 0 (2013) 2 0 0 0 0 4 4 7
2020-12-13 04:30 0.73 7 7 (2019) 0 (2013) 2 0 0 0 0 4 4 7
2020-12-13 03:30 0.73 7 7 (2019) 0 (2013) 2 0 0 0 0 4 4 7
2020-12-13 02:30 0.73 7 7 (2019) 0 (2013) 2 0 0 0 0 4 4 7
2020-12-13 01:30 0.73 7 7 (2019) 0 (2013) 2 0 0 0 0 4 4 7
2020-12-13 00:30 0.73 7 7 (2019) 0 (2013) 2 0 0 0 0 4 4 7
2020-12-12 23:30 0.73 7 7 (2019) 0 (2013) 2 0 0 0 0 3 3 6
2020-12-12 22:30 0.73 7 7 (2019) 0 (2013) 2 0 0 0 0 3 3 6
2020-12-12 21:30 0.73 7 7 (2019) 0 (2013) 2 0 0 0 0 3 3 6
2020-12-12 20:30 0.72 7 7 (2019) 0 (2013) 2 0 0 0 0 3 3 6
2020-12-12 19:30 0.73 7 7 (2019) 0 (2013) 2 0 0 0 0 3 3 6
2020-12-12 18:30 0.73 7 7 (2019) 0 (2013) 2 0 0 0 0 3 3 6
2020-12-12 17:30 0.72 7 7 (2019) 0 (2013) 2 0 0 0 0 3 3 6
2020-12-12 16:30 0.73 7 7 (2019) 0 (2013) 2 0 0 0 0 3 3 6
2020-12-12 15:30 0.67 5 7 (2019) 0 (2013) 2 0 0 0 0 3 3 6
2020-12-12 14:30 0.72 7 7 (2019) 0 (2013) 2 0 0 0 0 3 3 6
2020-12-12 13:30 0.73 7 7 (2019) 0 (2013) 2 0 0 0 0 3 3 6
2020-12-12 12:30 0.73 7 7 (2019) 0 (2013) 2 0 0 0 0 3 3 6
2020-12-12 11:30 0.73 7 7 (2019) 0 (2013) 2 0 0 0 0 3 3 6
2020-12-12 10:30 0.73 7 7 (2019) 0 (2013) 2 0 0 0 0 3 3 6
2020-12-12 09:30 0.73 7 7 (2019) 0 (2013) 2 0 0 0 0 3 3 6
2020-12-12 08:30 0.73 7 7 (2019) 0 (2013) 2 0 0 0 0 3 3 6
2020-12-12 07:30 0.73 7 7 (2019) 0 (2013) 2 0 0 0 0 3 3 6
2020-12-12 06:30 0.73 7 7 (2019) 0 (2013) 2 0 0 0 0 3 3 6
2020-12-12 05:30 0.73 7 7 (2019) 0 (2013) 2 0 0 0 0 3 3 6
2020-12-12 04:30 0.68 6 7 (2019) 0 (2013) 2 0 0 0 0 3 3 6
2020-12-12 03:30 0.74 7 7 (2019) 0 (2013) 2 0 0 0 0 3 3 6
2020-12-12 02:30 0.73 7 7 (2019) 0 (2013) 2 0 0 0 0 3 3 6
2020-12-12 01:30 0.74 7 7 (2019) 0 (2013) 2 0 0 0 0 3 3 6
2020-12-12 00:30 0.74 7 7 (2019) 0 (2013) 2 0 0 0 0 3 3 6
2020-12-11 23:30 0.69 6 8 (2019) 0 (2013) 2 0 0 0 0 3 3 7
2020-12-11 22:30 0.75 8 8 (2019) 0 (2013) 2 0 0 0 0 3 3 7
2020-12-11 21:30 0.75 8 8 (2019) 0 (2013) 2 0 0 0 0 3 3 7
2020-12-11 20:30 0.67 5 8 (2019) 0 (2013) 2 0 0 0 0 3 3 7
2020-12-11 19:30 0.72 7 8 (2019) 0 (2013) 2 0 0 0 0 3 3 7
2020-12-11 18:30 0.73 7 8 (2019) 0 (2013) 2 0 0 0 0 3 3 7
2020-12-11 17:30 0.73 7 8 (2019) 0 (2013) 2 0 0 0 0 3 3 7
2020-12-11 16:30 0.73 7 8 (2019) 0 (2013) 2 0 0 0 0 3 3 7
2020-12-11 15:30 0.70 6 8 (2019) 0 (2013) 2 0 0 0 0 3 3 7
2020-12-11 14:30 0.71 6 8 (2019) 0 (2013) 2 0 0 0 0 3 3 7
2020-12-11 13:30 0.72 7 8 (2019) 0 (2013) 2 0 0 0 0 3 3 7
2020-12-11 12:30 0.68 6 8 (2019) 0 (2013) 2 0 0 0 0 3 3 7
2020-12-11 11:30 0.70 6 8 (2019) 0 (2013) 2 0 0 0 0 3 3 7
2020-12-11 10:30 0.71 6 8 (2019) 0 (2013) 2 0 0 0 0 3 3 7
2020-12-11 09:30 0.71 6 8 (2019) 0 (2013) 2 0 0 0 0 3 3 7
2020-12-11 08:30 0.71 6 8 (2019) 0 (2013) 2 0 0 0 0 3 3 7
2020-12-11 07:30 0.71 6 8 (2019) 0 (2013) 2 0 0 0 0 3 3 7
2020-12-11 06:30 0.71 6 8 (2019) 0 (2013) 2 0 0 0 0 3 3 7
2020-12-11 05:30 0.71 6 8 (2019) 0 (2013) 2 0 0 0 0 3 3 7
2020-12-11 04:30 0.71 6 8 (2019) 0 (2013) 2 0 0 0 0 3 3 7
2020-12-11 03:30 0.71 6 8 (2019) 0 (2013) 2 0 0 0 0 3 3 7
2020-12-11 02:30 0.71 6 8 (2019) 0 (2013) 2 0 0 0 0 3 3 7
2020-12-11 01:30 0.71 6 8 (2019) 0 (2013) 2 0 0 0 0 3 3 7
2020-12-11 00:30 0.71 6 8 (2019) 0 (2013) 2 0 0 0 0 3 3 7
2020-12-10 23:30 0.71 6 8 (2019) 0 (2013) 2 0 0 0 0 3 3 7
2020-12-10 22:30 0.71 6 8 (2019) 0 (2013) 2 0 0 0 0 3 3 7
2020-12-10 21:30 0.72 7 8 (2019) 0 (2013) 2 0 0 0 0 3 3 7
2020-12-10 20:30 0.72 7 8 (2019) 0 (2013) 2 0 0 0 0 3 3 7
2020-12-10 19:30 0.72 7 8 (2019) 0 (2013) 2 0 0 0 0 3 3 7
2020-12-10 18:30 0.72 7 8 (2019) 0 (2013) 2 0 0 0 0 3 3 7
2020-12-10 17:30 0.72 7 8 (2019) 0 (2013) 2 0 0 0 0 3 3 7
2020-12-10 16:30 0.72 7 8 (2019) 0 (2013) 2 0 0 0 0 3 3 7
2020-12-10 15:30 0.72 7 8 (2019) 0 (2013) 2 0 0 0 0 3 3 7
2020-12-10 14:30 0.72 7 8 (2019) 0 (2013) 2 0 0 0 0 3 3 7
2020-12-10 13:30 0.72 7 8 (2019) 0 (2013) 2 0 0 0 0 3 3 7
2020-12-10 12:30 0.72 7 8 (2019) 0 (2013) 2 0 0 0 0 3 3 7
2020-12-10 11:30 0.72 7 8 (2019) 0 (2013) 2 0 0 0 0 3 3 7
2020-12-10 10:30 0.72 7 8 (2019) 0 (2013) 2 0 0 0 0 3 3 7
2020-12-10 09:30 0.72 7 8 (2019) 0 (2013) 2 0 0 0 0 3 3 7
2020-12-10 08:30 0.72 7 8 (2019) 0 (2013) 2 0 0 0 0 3 3 7
2020-12-10 07:30 0.72 7 8 (2019) 0 (2013) 2 0 0 0 0 3 3 7
2020-12-10 06:30 0.72 7 8 (2019) 0 (2013) 2 0 0 0 0 3 3 7
2020-12-10 05:30 0.72 7 8 (2019) 0 (2013) 2 0 0 0 0 3 3 7
2020-12-10 04:30 0.72 7 8 (2019) 0 (2013) 2 0 0 0 0 3 3 7
2020-12-10 03:30 0.72 7 8 (2019) 0 (2013) 2 0 0 0 0 3 3 7
2020-12-10 02:30 0.72 7 8 (2019) 0 (2013) 2 0 0 0 0 3 3 7
2020-12-10 01:30 0.72 7 8 (2019) 0 (2013) 2 0 0 0 0 3 3 7
2020-12-10 00:30 0.73 7 8 (2019) 0 (2013) 2 0 0 0 0 3 3 7
2020-12-09 23:30 0.73 7 9 (2019) 0 (2013) 2 0 0 0 0 3 4 8
2020-12-09 22:30 0.73 7 9 (2019) 0 (2013) 2 0 0 0 0 3 4 8
2020-12-09 21:30 0.73 7 9 (2019) 0 (2013) 2 0 0 0 0 3 4 8
2020-12-09 20:30 0.73 7 9 (2019) 0 (2013) 2 0 0 0 0 3 4 8
2020-12-09 19:30 0.73 7 9 (2019) 0 (2013) 2 0 0 0 0 3 4 8
2020-12-09 18:30 0.73 7 9 (2019) 0 (2013) 2 0 0 0 0 3 4 8
2020-12-09 17:30 0.73 7 9 (2019) 0 (2013) 2 0 0 0 0 3 4 8
2020-12-09 16:30 0.73 7 9 (2019) 0 (2013) 2 0 0 0 0 3 4 8
2020-12-09 15:30 0.73 7 9 (2019) 0 (2013) 2 0 0 0 0 3 4 8
2020-12-09 14:30 0.73 7 9 (2019) 0 (2013) 2 0 0 0 0 3 4 8
2020-12-09 13:30 0.73 7 9 (2019) 0 (2013) 2 0 0 0 0 3 4 8
2020-12-09 12:30 0.73 7 9 (2019) 0 (2013) 2 0 0 0 0 3 4 8
2020-12-09 11:30 0.71 6 9 (2019) 0 (2013) 2 0 0 0 0 3 4 8
2020-12-09 10:30 0.73 7 9 (2019) 0 (2013) 2 0 0 0 0 3 4 8
2020-12-09 09:30 0.73 7 9 (2019) 0 (2013) 2 0 0 0 0 3 4 8
2020-12-09 08:30 0.73 7 9 (2019) 0 (2013) 2 0 0 0 0 3 4 8
2020-12-09 07:30 0.73 7 9 (2019) 0 (2013) 2 0 0 0 0 3 4 8
2020-12-09 06:30 0.73 7 9 (2019) 0 (2013) 2 0 0 0 0 3 4 8
2020-12-09 05:30 0.73 7 9 (2019) 0 (2013) 2 0 0 0 0 3 4 8
2020-12-09 04:30 0.73 7 9 (2019) 0 (2013) 2 0 0 0 0 3 4 8
2020-12-09 03:30 0.73 7 9 (2019) 0 (2013) 2 0 0 0 0 3 4 8
2020-12-09 02:30 0.73 7 9 (2019) 0 (2013) 2 0 0 0 0 3 4 8
2020-12-09 01:30 0.73 7 9 (2019) 0 (2013) 2 0 0 0 0 3 4 8
2020-12-09 00:30 0.73 7 9 (2019) 0 (2013) 2 0 0 0 0 3 4 8
2020-12-08 23:30 0.73 7 11 (2019) 0 (2013) 2 0 0 0 0 3 4 10
2020-12-08 22:30 0.73 7 11 (2019) 0 (2013) 2 0 0 0 0 3 4 10
2020-12-08 21:30 0.73 7 11 (2019) 0 (2013) 2 0 0 0 0 3 4 10
2020-12-08 20:30 0.74 7 11 (2019) 0 (2013) 2 0 0 0 0 3 4 10
2020-12-08 19:30 0.74 7 11 (2019) 0 (2013) 2 0 0 0 0 3 4 10
2020-12-08 18:30 0.74 7 11 (2019) 0 (2013) 2 0 0 0 0 3 4 10
2020-12-08 17:30 0.74 7 11 (2019) 0 (2013) 2 0 0 0 0 3 4 10
2020-12-08 16:30 0.74 7 11 (2019) 0 (2013) 2 0 0 0 0 3 4 10
2020-12-08 15:30 0.74 7 11 (2019) 0 (2013) 2 0 0 0 0 3 4 10
2020-12-08 14:30 0.68 6 11 (2019) 0 (2013) 2 0 0 0 0 3 4 10
2020-12-08 13:30 0.74 7 11 (2019) 0 (2013) 2 0 0 0 0 3 4 10
2020-12-08 12:30 0.74 7 11 (2019) 0 (2013) 2 0 0 0 0 3 4 10
2020-12-08 11:30 0.74 7 11 (2019) 0 (2013) 2 0 0 0 0 3 4 10
2020-12-08 10:30 0.74 7 11 (2019) 0 (2013) 2 0 0 0 0 3 4 10
2020-12-08 09:30 0.74 7 11 (2019) 0 (2013) 2 0 0 0 0 3 4 10
2020-12-08 08:30 0.74 7 11 (2019) 0 (2013) 2 0 0 0 0 3 4 10
2020-12-08 07:30 0.74 7 11 (2019) 0 (2013) 2 0 0 0 0 3 4 10
2020-12-08 06:30 0.74 7 11 (2019) 0 (2013) 2 0 0 0 0 3 4 10
2020-12-08 05:30 0.75 8 11 (2019) 0 (2013) 2 0 0 0 0 3 4 10
2020-12-08 04:30 0.75 8 11 (2019) 0 (2013) 2 0 0 0 0 3 4 10
2020-12-08 03:30 0.75 8 11 (2019) 0 (2013) 2 0 0 0 0 3 4 10
2020-12-08 02:30 0.75 8 11 (2019) 0 (2013) 2 0 0 0 0 3 4 10
2020-12-08 01:30 0.75 8 11 (2019) 0 (2013) 2 0 0 0 0 3 4 10
2020-12-08 00:30 0.75 8 11 (2019) 0 (2013) 2 0 0 0 0 3 4 10
2020-12-07 23:30 0.75 8 20 (2019) 0 (2013) 3 0 0 0 0 4 6 17
2020-12-07 22:30 0.75 8 20 (2019) 0 (2013) 3 0 0 0 0 4 6 17
2020-12-07 21:30 0.75 8 20 (2019) 0 (2013) 3 0 0 0 0 4 6 17
2020-12-07 20:30 0.75 8 20 (2019) 0 (2013) 3 0 0 0 0 4 6 17
2020-12-07 19:30 0.75 8 20 (2019) 0 (2013) 3 0 0 0 0 4 6 17
2020-12-07 18:30 0.75 8 20 (2019) 0 (2013) 3 0 0 0 0 4 6 17
2020-12-07 17:30 0.75 8 20 (2019) 0 (2013) 3 0 0 0 0 4 6 17
2020-12-07 16:30 0.75 8 20 (2019) 0 (2013) 3 0 0 0 0 4 6 17
2020-12-07 15:30 0.75 8 20 (2019) 0 (2013) 3 0 0 0 0 4 6 17
2020-12-07 14:30 0.75 8 20 (2019) 0 (2013) 3 0 0 0 0 4 6 17
2020-12-07 13:30 0.75 8 20 (2019) 0 (2013) 3 0 0 0 0 4 6 17
2020-12-07 12:30 0.75 8 20 (2019) 0 (2013) 3 0 0 0 0 4 6 17
2020-12-07 11:30 0.75 8 20 (2019) 0 (2013) 3 0 0 0 0 4 6 17
2020-12-07 10:30 0.75 8 20 (2019) 0 (2013) 3 0 0 0 0 4 6 17
2020-12-07 09:30 0.75 8 20 (2019) 0 (2013) 3 0 0 0 0 4 6 17
2020-12-07 08:30 0.75 8 20 (2019) 0 (2013) 3 0 0 0 0 4 6 17
2020-12-07 07:30 0.75 8 20 (2019) 0 (2013) 3 0 0 0 0 4 6 17
2020-12-07 06:30 0.75 8 20 (2019) 0 (2013) 3 0 0 0 0 4 6 17
2020-12-07 05:30 0.75 8 20 (2019) 0 (2013) 3 0 0 0 0 4 6 17
2020-12-07 04:30 0.75 8 20 (2019) 0 (2013) 3 0 0 0 0 4 6 17
2020-12-07 03:30 0.75 8 20 (2019) 0 (2013) 3 0 0 0 0 4 6 17
2020-12-07 02:30 0.75 8 20 (2019) 0 (2013) 3 0 0 0 0 4 6 17
2020-12-07 01:30 0.76 8 20 (2019) 0 (2013) 3 0 0 0 0 4 6 17
2020-12-07 00:30 0.76 8 20 (2019) 0 (2013) 3 0 0 0 0 4 6 17
2020-12-06 23:30 0.76 8 39 (2019) 0 (2013) 8 0 0 0 1 15 18 35
2020-12-06 22:30 0.76 8 39 (2019) 0 (2013) 8 0 0 0 1 15 18 35
2020-12-06 21:30 0.76 8 39 (2019) 0 (2013) 8 0 0 0 1 15 18 35
2020-12-06 20:30 0.76 8 39 (2019) 0 (2013) 8 0 0 0 1 15 18 35
2020-12-06 19:30 0.76 8 39 (2019) 0 (2013) 8 0 0 0 1 15 18 35
2020-12-06 18:30 0.76 8 39 (2019) 0 (2013) 8 0 0 0 1 15 18 35
2020-12-06 17:30 0.77 8 39 (2019) 0 (2013) 8 0 0 0 1 15 18 35
2020-12-06 16:30 0.75 8 39 (2019) 0 (2013) 8 0 0 0 1 15 18 35
2020-12-06 15:30 0.76 8 39 (2019) 0 (2013) 8 0 0 0 1 15 18 35
2020-12-06 14:30 0.70 6 39 (2019) 0 (2013) 8 0 0 0 1 15 18 35
2020-12-06 13:30 0.76 8 39 (2019) 0 (2013) 8 0 0 0 1 15 18 35
2020-12-06 12:30 0.71 6 39 (2019) 0 (2013) 8 0 0 0 1 15 18 35
2020-12-06 11:30 0.74 7 39 (2019) 0 (2013) 8 0 0 0 1 15 18 35
2020-12-06 10:30 0.77 8 39 (2019) 0 (2013) 8 0 0 0 1 15 18 35
2020-12-06 09:30 0.73 7 39 (2019) 0 (2013) 8 0 0 0 1 15 18 35
2020-12-06 08:30 0.73 7 39 (2019) 0 (2013) 8 0 0 0 1 15 18 35
2020-12-06 07:30 0.73 7 39 (2019) 0 (2013) 8 0 0 0 1 15 18 35
2020-12-06 06:30 0.73 7 39 (2019) 0 (2013) 8 0 0 0 1 15 18 35
2020-12-06 05:30 0.73 7 39 (2019) 0 (2013) 8 0 0 0 1 15 18 35
2020-12-06 04:30 0.74 7 39 (2019) 0 (2013) 8 0 0 0 1 15 18 35
2020-12-06 03:30 0.74 7 39 (2019) 0 (2013) 8 0 0 0 1 15 18 35
2020-12-06 02:30 0.74 7 39 (2019) 0 (2013) 8 0 0 0 1 15 18 35
2020-12-06 01:30 0.74 7 39 (2019) 0 (2013) 8 0 0 0 1 15 18 35
2020-12-06 00:30 0.74 7 39 (2019) 0 (2013) 8 0 0 0 1 15 18 35
2020-12-05 23:30 0.74 7 83 (2019) 0 (2013) 17 0 0 0 1 45 47 77
2020-12-05 22:30 0.74 7 83 (2019) 0 (2013) 17 0 0 0 1 45 47 77
2020-12-05 21:30 0.74 7 83 (2019) 0 (2013) 17 0 0 0 1 45 47 77
2020-12-05 20:30 0.74 7 83 (2019) 0 (2013) 17 0 0 0 1 45 47 77
2020-12-05 19:30 0.74 7 83 (2019) 0 (2013) 17 0 0 0 1 45 47 77
2020-12-05 18:30 0.74 7 83 (2019) 0 (2013) 17 0 0 0 1 45 47 77
2020-12-05 17:30 0.74 7 83 (2019) 0 (2013) 17 0 0 0 1 45 47 77
2020-12-05 16:30 0.74 7 83 (2019) 0 (2013) 17 0 0 0 1 45 47 77
2020-12-05 15:30 0.74 7 83 (2019) 0 (2013) 17 0 0 0 1 45 47 77
2020-12-05 14:30 0.74 7 83 (2019) 0 (2013) 17 0 0 0 1 45 47 77
2020-12-05 13:30 0.74 7 83 (2019) 0 (2013) 17 0 0 0 1 45 47 77
2020-12-05 12:30 0.74 7 83 (2019) 0 (2013) 17 0 0 0 1 45 47 77
2020-12-05 11:30 0.74 7 83 (2019) 0 (2013) 17 0 0 0 1 45 47 77
2020-12-05 10:30 0.74 7 83 (2019) 0 (2013) 17 0 0 0 1 45 47 77
2020-12-05 09:30 0.74 7 83 (2019) 0 (2013) 17 0 0 0 1 45 47 77
2020-12-05 08:30 0.74 7 83 (2019) 0 (2013) 17 0 0 0 1 45 47 77
2020-12-05 07:30 0.74 7 83 (2019) 0 (2013) 17 0 0 0 1 45 47 77
2020-12-05 06:30 0.75 8 83 (2019) 0 (2013) 17 0 0 0 1 45 47 77
2020-12-05 05:30 0.75 8 83 (2019) 0 (2013) 17 0 0 0 1 45 47 77
2020-12-05 04:30 0.75 8 83 (2019) 0 (2013) 17 0 0 0 1 45 47 77
2020-12-05 03:30 0.75 8 83 (2019) 0 (2013) 17 0 0 0 1 45 47 77
2020-12-05 02:30 0.75 8 83 (2019) 0 (2013) 17 0 0 0 1 45 47 77
2020-12-05 01:30 0.75 8 83 (2019) 0 (2013) 17 0 0 0 1 45 47 77
2020-12-05 00:30 0.75 8 83 (2019) 0 (2013) 17 0 0 0 1 45 47 77
2020-12-04 23:30 0.75 8 186 (2019) 0 (2013) 36 0 0 0 1 92 105 172
2020-12-04 22:30 0.75 8 186 (2019) 0 (2013) 36 0 0 0 1 92 105 172
2020-12-04 21:30 0.75 8 186 (2019) 0 (2013) 36 0 0 0 1 92 105 172
2020-12-04 20:30 0.76 8 186 (2019) 0 (2013) 36 0 0 0 1 92 105 172
2020-12-04 19:30 0.76 8 186 (2019) 0 (2013) 36 0 0 0 1 92 105 172
2020-12-04 18:30 0.76 8 186 (2019) 0 (2013) 36 0 0 0 1 92 105 172
2020-12-04 17:30 0.76 8 186 (2019) 0 (2013) 36 0 0 0 1 92 105 172
2020-12-04 16:30 0.76 8 186 (2019) 0 (2013) 36 0 0 0 1 92 105 172
2020-12-04 15:30 0.73 7 186 (2019) 0 (2013) 36 0 0 0 1 92 105 172
2020-12-04 14:30 0.76 8 186 (2019) 0 (2013) 36 0 0 0 1 92 105 172
2020-12-04 13:30 0.69 6 186 (2019) 0 (2013) 36 0 0 0 1 92 105 172
2020-12-04 12:30 0.72 7 186 (2019) 0 (2013) 36 0 0 0 1 92 105 172
2020-12-04 11:30 0.76 8 186 (2019) 0 (2013) 36 0 0 0 1 92 105 172
2020-12-04 10:30 0.73 7 186 (2019) 0 (2013) 36 0 0 0 1 92 105 172
2020-12-04 09:30 0.76 8 186 (2019) 0 (2013) 36 0 0 0 1 92 105 172
2020-12-04 08:30 0.77 8 186 (2019) 0 (2013) 36 0 0 0 1 92 105 172
2020-12-04 07:30 0.77 8 186 (2019) 0 (2013) 36 0 0 0 1 92 105 172
2020-12-04 06:30 0.77 8 186 (2019) 0 (2013) 36 0 0 0 1 92 105 172
2020-12-04 05:30 0.77 8 186 (2019) 0 (2013) 36 0 0 0 1 92 105 172
2020-12-04 04:30 0.77 8 186 (2019) 0 (2013) 36 0 0 0 1 92 105 172
2020-12-04 03:30 0.77 8 186 (2019) 0 (2013) 36 0 0 0 1 92 105 172
2020-12-04 02:30 0.77 8 186 (2019) 0 (2013) 36 0 0 0 1 92 105 172
2020-12-04 01:30 0.77 8 186 (2019) 0 (2013) 36 0 0 0 1 92 105 172
2020-12-04 00:30 0.77 8 186 (2019) 0 (2013) 36 0 0 0 1 92 105 172
2020-12-03 23:30 0.78 9 427 (2019) 0 (2013) 78 0 0 0 1 180 215 389
2020-12-03 22:30 0.78 9 427 (2019) 0 (2013) 78 0 0 0 1 180 215 389
2020-12-03 21:30 0.78 9 427 (2019) 0 (2013) 78 0 0 0 1 180 215 389
2020-12-03 20:30 0.78 9 427 (2019) 0 (2013) 78 0 0 0 1 180 215 389
2020-12-03 19:30 0.78 9 427 (2019) 0 (2013) 78 0 0 0 1 180 215 389
2020-12-03 18:30 0.78 9 427 (2019) 0 (2013) 78 0 0 0 1 180 215 389
2020-12-03 17:30 0.78 9 427 (2019) 0 (2013) 78 0 0 0 1 180 215 389
2020-12-03 16:30 0.78 9 427 (2019) 0 (2013) 78 0 0 0 1 180 215 389
2020-12-03 15:30 0.79 9 427 (2019) 0 (2013) 78 0 0 0 1 180 215 389
2020-12-03 14:30 0.78 9 427 (2019) 0 (2013) 78 0 0 0 1 180 215 389
2020-12-03 13:30 0.78 3 427 (2019) 0 (2013) 78 0 0 0 1 180 215 389
2020-12-03 12:30 0.78 3 427 (2019) 0 (2013) 78 0 0 0 1 180 215 389
2020-12-03 11:30 0.78 3 427 (2019) 0 (2013) 78 0 0 0 1 180 215 389
2020-12-03 10:30 0.78 3 427 (2019) 0 (2013) 78 0 0 0 1 180 215 389
2020-12-03 09:30 0.78 3 427 (2019) 0 (2013) 78 0 0 0 1 180 215 389
2020-12-03 08:30 0.79 3 427 (2019) 0 (2013) 78 0 0 0 1 180 215 389
2020-12-03 07:30 0.79 3 427 (2019) 0 (2013) 78 0 0 0 1 180 215 389
2020-12-03 06:30 0.77 3 427 (2019) 0 (2013) 78 0 0 0 1 180 215 389
2020-12-03 05:30 0.77 3 427 (2019) 0 (2013) 78 0 0 0 1 180 215 389
2020-12-03 04:30 0.78 3 427 (2019) 0 (2013) 78 0 0 0 1 180 215 389
2020-12-03 03:30 0.78 3 427 (2019) 0 (2013) 78 0 0 0 1 180 215 389
2020-12-03 02:30 0.78 3 427 (2019) 0 (2013) 78 0 0 0 1 180 215 389
2020-12-03 01:30 0.78 3 427 (2019) 0 (2013) 78 0 0 0 1 180 215 389
2020-12-03 00:30 0.78 3 427 (2019) 0 (2013) 78 0 0 0 1 180 215 389
2020-12-02 23:30 0.78 3 1290 (2019) 0 (2013) 194 0 0 0 1 337 430 1130
2020-12-02 22:30 0.75 3 1290 (2019) 0 (2013) 194 0 0 0 1 337 430 1130
2020-12-02 21:30 0.78 3 1290 (2019) 0 (2013) 194 0 0 0 1 337 430 1130
2020-12-02 20:30 0.78 3 1290 (2019) 0 (2013) 194 0 0 0 1 337 430 1130
2020-12-02 19:30 0.79 3 1290 (2019) 0 (2013) 194 0 0 0 1 337 430 1130
2020-12-02 18:30 0.79 3 1290 (2019) 0 (2013) 194 0 0 0 1 337 430 1130
2020-12-02 17:30 0.79 3 1290 (2019) 0 (2013) 194 0 0 0 1 337 430 1130
2020-12-02 16:30 0.79 3 1290 (2019) 0 (2013) 194 0 0 0 1 337 430 1130
2020-12-02 15:30 0.74 3 1290 (2019) 0 (2013) 194 0 0 0 1 337 430 1130
2020-12-02 14:30 0.79 3 1290 (2019) 0 (2013) 194 0 0 0 1 337 430 1130
2020-12-02 13:30 0.75 3 1290 (2019) 0 (2013) 194 0 0 0 1 337 430 1130
2020-12-02 12:30 0.75 3 1290 (2019) 0 (2013) 194 0 0 0 1 337 430 1130
2020-12-02 11:30 0.79 3 1290 (2019) 0 (2013) 194 0 0 0 1 337 430 1130
2020-12-02 10:30 0.79 3 1290 (2019) 0 (2013) 194 0 0 0 1 337 430 1130
2020-12-02 09:30 0.79 3 1290 (2019) 0 (2013) 194 0 0 0 1 337 430 1130
2020-12-02 08:30 0.80 3 1290 (2019) 0 (2013) 194 0 0 0 1 337 430 1130
2020-12-02 07:30 0.80 3 1290 (2019) 0 (2013) 194 0 0 0 1 337 430 1130
2020-12-02 06:30 0.81 4 1290 (2019) 0 (2013) 194 0 0 0 1 337 430 1130
2020-12-02 05:30 0.81 4 1290 (2019) 0 (2013) 194 0 0 0 1 337 430 1130
2020-12-02 04:30 0.82 4 1290 (2019) 0 (2013) 194 0 0 0 1 337 430 1130
2020-12-02 03:30 0.82 4 1290 (2019) 0 (2013) 194 0 0 0 1 337 430 1130
2020-12-02 02:30 0.82 4 1290 (2019) 0 (2013) 194 0 0 0 1 337 430 1130
2020-12-02 01:30 0.83 4 1290 (2019) 0 (2013) 194 0 0 0 1 337 430 1130
2020-12-02 00:30 0.83 4 1290 (2019) 0 (2013) 194 0 0 0 1 337 430 1130
2020-12-01 23:30 0.84 4 1310 (2020) 0 (2013) 192 0 0 0 1 192 436 1170
2020-12-01 22:30 0.84 4 1310 (2020) 0 (2013) 192 0 0 0 1 192 436 1170
2020-12-01 21:30 0.84 4 1310 (2020) 0 (2013) 192 0 0 0 1 192 436 1170
2020-12-01 20:30 0.84 4 1310 (2020) 0 (2013) 192 0 0 0 1 192 436 1170
2020-12-01 19:30 0.85 4 1310 (2020) 0 (2013) 192 0 0 0 1 192 436 1170
2020-12-01 18:30 0.85 4 1310 (2020) 0 (2013) 192 0 0 0 1 192 436 1170
2020-12-01 17:30 0.86 5 1310 (2020) 0 (2013) 192 0 0 0 1 192 436 1170
2020-12-01 16:30 0.86 5 1310 (2020) 0 (2013) 192 0 0 0 1 192 436 1170
2020-12-01 15:30 0.86 5 1310 (2020) 0 (2013) 192 0 0 0 1 192 436 1170
2020-12-01 14:30 0.86 5 1310 (2020) 0 (2013) 192 0 0 0 1 192 436 1170
2020-12-01 13:30 0.87 5 1310 (2020) 0 (2013) 192 0 0 0 1 192 436 1170
2020-12-01 12:30 0.88 5 1310 (2020) 0 (2013) 192 0 0 0 1 192 436 1170
2020-12-01 11:30 0.88 5 1310 (2020) 0 (2013) 192 0 0 0 1 192 436 1170
2020-12-01 10:30 0.89 5 1310 (2020) 0 (2013) 192 0 0 0 1 192 436 1170
2020-12-01 09:30 0.89 5 1310 (2020) 0 (2013) 192 0 0 0 1 192 436 1170
2020-12-01 08:30 0.89 5 1310 (2020) 0 (2013) 192 0 0 0 1 192 436 1170
2020-12-01 07:30 0.91 6 1310 (2020) 0 (2013) 192 0 0 0 1 192 436 1170
2020-12-01 06:30 0.92 6 1310 (2020) 0 (2013) 192 0 0 0 1 192 436 1170
2020-12-01 05:30 0.93 6 1310 (2020) 0 (2013) 192 0 0 0 1 192 436 1170
2020-12-01 04:30 0.93 6 1310 (2020) 0 (2013) 192 0 0 0 1 192 436 1170
2020-12-01 03:30 0.94 7 1310 (2020) 0 (2013) 192 0 0 0 1 192 436 1170
2020-12-01 02:30 0.95 7 1310 (2020) 0 (2013) 192 0 0 0 1 192 436 1170
2020-12-01 01:30 0.96 7 1310 (2020) 0 (2013) 192 0 0 0 1 192 436 1170
2020-12-01 00:30 0.97 7 1310 (2020) 0 (2013) 192 0 0 0 1 192 436 1170
2020-11-30 23:30 0.98 8 981 (2016) 0 (2013) 123 0 0 0 1 18 218 855
2020-11-30 22:30 0.99 8 981 (2016) 0 (2013) 123 0 0 0 1 18 218 855
2020-11-30 21:30 1.00 8 981 (2016) 0 (2013) 123 0 0 0 1 18 218 855
2020-11-30 20:30 1.01 9 981 (2016) 0 (2013) 123 0 0 0 1 18 218 855
2020-11-30 19:30 1.03 9 981 (2016) 0 (2013) 123 0 0 0 1 18 218 855
2020-11-30 18:30 1.03 9 981 (2016) 0 (2013) 123 0 0 0 1 18 218 855
2020-11-30 17:30 1.05 10 981 (2016) 0 (2013) 123 0 0 0 1 18 218 855
2020-11-30 16:30 1.02 9 981 (2016) 0 (2013) 123 0 0 0 1 18 218 855
2020-11-30 15:30 1.01 9 981 (2016) 0 (2013) 123 0 0 0 1 18 218 855
2020-11-30 14:30 1.02 9 981 (2016) 0 (2013) 123 0 0 0 1 18 218 855
2020-11-30 13:30 1.02 9 981 (2016) 0 (2013) 123 0 0 0 1 18 218 855
2020-11-30 12:30 1.04 10 981 (2016) 0 (2013) 123 0 0 0 1 18 218 855
2020-11-30 11:30 1.05 10 981 (2016) 0 (2013) 123 0 0 0 1 18 218 855
2020-11-30 10:30 1.05 10 981 (2016) 0 (2013) 123 0 0 0 1 18 218 855
2020-11-30 09:30 1.05 10 981 (2016) 0 (2013) 123 0 0 0 1 18 218 855
2020-11-30 08:30 1.09 12 981 (2016) 0 (2013) 123 0 0 0 1 18 218 855
2020-11-30 07:30 1.11 13 981 (2016) 0 (2013) 123 0 0 0 1 18 218 855
2020-11-30 06:30 1.11 13 981 (2016) 0 (2013) 123 0 0 0 1 18 218 855
2020-11-30 05:30 1.10 12 981 (2016) 0 (2013) 123 0 0 0 1 18 218 855
2020-11-30 04:30 1.13 13 981 (2016) 0 (2013) 123 0 0 0 1 18 218 855
2020-11-30 03:30 1.15 14 981 (2016) 0 (2013) 123 0 0 0 1 18 218 855
2020-11-30 02:30 1.18 16 981 (2016) 0 (2013) 123 0 0 0 1 18 218 855
2020-11-30 01:30 1.16 15 981 (2016) 0 (2013) 123 0 0 0 1 18 218 855
2020-11-30 00:30 1.19 16 981 (2016) 0 (2013) 123 0 0 0 1 18 218 855
2020-11-29 23:30 1.19 16 1630 (2016) 0 (2013) 153 0 0 0 0 7 26 1310
2020-11-29 22:30 1.20 17 1630 (2016) 0 (2013) 153 0 0 0 0 7 26 1310
2020-11-29 21:30 1.23 18 1630 (2016) 0 (2013) 153 0 0 0 0 7 26 1310
2020-11-29 20:30 1.25 20 1630 (2016) 0 (2013) 153 0 0 0 0 7 26 1310
2020-11-29 19:30 1.26 20 1630 (2016) 0 (2013) 153 0 0 0 0 7 26 1310
2020-11-29 18:30 1.29 22 1630 (2016) 0 (2013) 153 0 0 0 0 7 26 1310
2020-11-29 17:30 1.31 23 1630 (2016) 0 (2013) 153 0 0 0 0 7 26 1310
2020-11-29 16:30 1.31 23 1630 (2016) 0 (2013) 153 0 0 0 0 7 26 1310
2020-11-29 15:30 1.37 28 1630 (2016) 0 (2013) 153 0 0 0 0 7 26 1310
2020-11-29 14:30 1.38 28 1630 (2016) 0 (2013) 153 0 0 0 0 7 26 1310
2020-11-29 13:30 1.41 31 1630 (2016) 0 (2013) 153 0 0 0 0 7 26 1310
2020-11-29 12:30 1.43 32 1630 (2016) 0 (2013) 153 0 0 0 0 7 26 1310
2020-11-29 11:30 1.43 32 1630 (2016) 0 (2013) 153 0 0 0 0 7 26 1310
2020-11-29 10:30 1.45 34 1630 (2016) 0 (2013) 153 0 0 0 0 7 26 1310
2020-11-29 09:30 1.47 36 1630 (2016) 0 (2013) 153 0 0 0 0 7 26 1310
2020-11-29 08:30 1.48 37 1630 (2016) 0 (2013) 153 0 0 0 0 7 26 1310
2020-11-29 07:30 1.51 39 1630 (2016) 0 (2013) 153 0 0 0 0 7 26 1310
2020-11-29 06:30 1.52 40 1630 (2016) 0 (2013) 153 0 0 0 0 7 26 1310
2020-11-29 05:30 1.52 40 1630 (2016) 0 (2013) 153 0 0 0 0 7 26 1310
2020-11-29 04:30 1.53 41 1630 (2016) 0 (2013) 153 0 0 0 0 7 26 1310
2020-11-29 03:30 1.56 44 1630 (2016) 0 (2013) 153 0 0 0 0 7 26 1310
2020-11-29 02:30 1.57 45 1630 (2016) 0 (2013) 153 0 0 0 0 7 26 1310
2020-11-29 01:30 1.58 47 1630 (2016) 0 (2013) 153 0 0 0 0 7 26 1310
2020-11-29 00:30 1.62 51 1630 (2016) 0 (2013) 153 0 0 0 0 7 26 1310
2020-11-28 23:30 1.62 51 2470 (2016) 0 (2013) 234 0 0 0 0 9 61 2000
2020-11-28 22:30 1.62 51 2470 (2016) 0 (2013) 234 0 0 0 0 9 61 2000
2020-11-28 21:30 1.64 53 2470 (2016) 0 (2013) 234 0 0 0 0 9 61 2000
2020-11-28 20:30 1.66 56 2470 (2016) 0 (2013) 234 0 0 0 0 9 61 2000
2020-11-28 19:30 1.68 58 2470 (2016) 0 (2013) 234 0 0 0 0 9 61 2000
2020-11-28 18:30 1.68 58 2470 (2016) 0 (2013) 234 0 0 0 0 9 61 2000
2020-11-28 17:30 1.71 62 2470 (2016) 0 (2013) 234 0 0 0 0 9 61 2000
2020-11-28 16:30 1.72 63 2470 (2016) 0 (2013) 234 0 0 0 0 9 61 2000
2020-11-28 15:30 1.74 66 2470 (2016) 0 (2013) 234 0 0 0 0 9 61 2000
2020-11-28 14:30 1.75 67 2470 (2016) 0 (2013) 234 0 0 0 0 9 61 2000
2020-11-28 13:30 1.77 70 2470 (2016) 0 (2013) 234 0 0 0 0 9 61 2000
2020-11-28 12:30 1.78 72 2470 (2016) 0 (2013) 234 0 0 0 0 9 61 2000
2020-11-28 11:30 1.80 75 2470 (2016) 0 (2013) 234 0 0 0 0 9 61 2000
2020-11-28 10:30 1.83 79 2470 (2016) 0 (2013) 234 0 0 0 0 9 61 2000
2020-11-28 09:30 1.84 81 2470 (2016) 0 (2013) 234 0 0 0 0 9 61 2000
2020-11-28 08:30 1.85 82 2470 (2016) 0 (2013) 234 0 0 0 0 9 61 2000
2020-11-28 07:30 1.84 81 2470 (2016) 0 (2013) 234 0 0 0 0 9 61 2000
2020-11-28 06:30 1.88 87 2470 (2016) 0 (2013) 234 0 0 0 0 9 61 2000
2020-11-28 05:30 1.90 91 2470 (2016) 0 (2013) 234 0 0 0 0 9 61 2000
2020-11-28 04:30 1.90 91 2470 (2016) 0 (2013) 234 0 0 0 0 9 61 2000
2020-11-28 03:30 1.93 96 2470 (2016) 0 (2013) 234 0 0 0 0 9 61 2000
2020-11-28 02:30 1.95 100 2470 (2016) 0 (2013) 234 0 0 0 0 9 61 2000
2020-11-28 01:30 1.95 100 2470 (2016) 0 (2013) 234 0 0 0 0 9 61 2000
2020-11-28 00:30 1.97 103 2470 (2016) 0 (2013) 234 0 0 0 0 9 61 2000
2020-11-27 23:30 1.98 105 280 (2011) 0 (2013) 32 0 0 0 0 14 40 236
2020-11-27 22:30 2.01 111 280 (2011) 0 (2013) 32 0 0 0 0 14 40 236
2020-11-27 21:30 2.00 109 280 (2011) 0 (2013) 32 0 0 0 0 14 40 236
2020-11-27 20:30 2.03 115 280 (2011) 0 (2013) 32 0 0 0 0 14 40 236
2020-11-27 19:30 2.04 117 280 (2011) 0 (2013) 32 0 0 0 0 14 40 236
2020-11-27 18:30 2.07 123 280 (2011) 0 (2013) 32 0 0 0 0 14 40 236
2020-11-27 17:30 2.07 123 280 (2011) 0 (2013) 32 0 0 0 0 14 40 236
2020-11-27 16:30 2.09 127 280 (2011) 0 (2013) 32 0 0 0 0 14 40 236
2020-11-27 15:30 2.12 134 280 (2011) 0 (2013) 32 0 0 0 0 14 40 236
2020-11-27 14:30 2.09 127 280 (2011) 0 (2013) 32 0 0 0 0 14 40 236
2020-11-27 13:30 2.13 136 280 (2011) 0 (2013) 32 0 0 0 0 14 40 236
2020-11-27 12:30 2.15 141 280 (2011) 0 (2013) 32 0 0 0 0 14 40 236
2020-11-27 11:30 2.19 150 280 (2011) 0 (2013) 32 0 0 0 0 14 40 236
2020-11-27 10:30 2.17 146 280 (2011) 0 (2013) 32 0 0 0 0 14 40 236
2020-11-27 09:30 2.17 146 280 (2011) 0 (2013) 32 0 0 0 0 14 40 236
2020-11-27 08:30 2.23 160 280 (2011) 0 (2013) 32 0 0 0 0 14 40 236
2020-11-27 07:30 2.24 163 280 (2011) 0 (2013) 32 0 0 0 0 14 40 236
2020-11-27 06:30 2.25 166 280 (2011) 0 (2013) 32 0 0 0 0 14 40 236
2020-11-27 05:30 2.26 168 280 (2011) 0 (2013) 32 0 0 0 0 14 40 236
2020-11-27 04:30 2.26 168 280 (2011) 0 (2013) 32 0 0 0 0 14 40 236
2020-11-27 03:30 2.27 171 280 (2011) 0 (2013) 32 0 0 0 0 14 40 236
2020-11-27 02:30 2.28 174 280 (2011) 0 (2013) 32 0 0 0 0 14 40 236
2020-11-27 01:30 2.30 179 280 (2011) 0 (2013) 32 0 0 0 0 14 40 236
2020-11-27 00:30 2.31 182 280 (2011) 0 (2013) 32 0 0 0 0 14 40 236
2020-11-26 23:30 2.32 185 924 (2011) 0 (2013) 87 0 0 0 0 9 16 743
2020-11-26 22:30 2.32 185 924 (2011) 0 (2013) 87 0 0 0 0 9 16 743
2020-11-26 21:30 2.34 190 924 (2011) 0 (2013) 87 0 0 0 0 9 16 743
2020-11-26 20:30 2.35 193 924 (2011) 0 (2013) 87 0 0 0 0 9 16 743
2020-11-26 19:30 2.36 196 924 (2011) 0 (2013) 87 0 0 0 0 9 16 743
2020-11-26 18:30 2.35 193 924 (2011) 0 (2013) 87 0 0 0 0 9 16 743
2020-11-26 17:30 2.37 199 924 (2011) 0 (2013) 87 0 0 0 0 9 16 743
2020-11-26 16:30 2.37 199 924 (2011) 0 (2013) 87 0 0 0 0 9 16 743
2020-11-26 15:30 2.37 199 924 (2011) 0 (2013) 87 0 0 0 0 9 16 743
2020-11-26 14:30 2.38 202 924 (2011) 0 (2013) 87 0 0 0 0 9 16 743
2020-11-26 13:30 2.37 199 924 (2011) 0 (2013) 87 0 0 0 0 9 16 743
2020-11-26 12:30 2.39 205 924 (2011) 0 (2013) 87 0 0 0 0 9 16 743
2020-11-26 11:30 2.38 202 924 (2011) 0 (2013) 87 0 0 0 0 9 16 743
2020-11-26 10:30 2.37 199 924 (2011) 0 (2013) 87 0 0 0 0 9 16 743
2020-11-26 09:30 2.36 196 924 (2011) 0 (2013) 87 0 0 0 0 9 16 743
2020-11-26 08:30 2.36 196 924 (2011) 0 (2013) 87 0 0 0 0 9 16 743
2020-11-26 07:30 2.34 190 924 (2011) 0 (2013) 87 0 0 0 0 9 16 743
2020-11-26 06:30 2.35 193 924 (2011) 0 (2013) 87 0 0 0 0 9 16 743
2020-11-26 05:30 2.35 193 924 (2011) 0 (2013) 87 0 0 0 0 9 16 743
2020-11-26 04:30 2.34 190 924 (2011) 0 (2013) 87 0 0 0 0 9 16 743
2020-11-26 03:30 2.35 193 924 (2011) 0 (2013) 87 0 0 0 0 9 16 743
2020-11-26 02:30 2.34 190 924 (2011) 0 (2013) 87 0 0 0 0 9 16 743
2020-11-26 01:30 2.33 187 924 (2011) 0 (2013) 87 0 0 0 0 9 16 743
2020-11-26 00:30 2.34 190 924 (2011) 0 (2013) 87 0 0 0 0 9 16 743
2020-11-25 23:30 2.33 187 100 (2011) 0 (2013) 15 0 0 0 0 32 33 86
2020-11-25 22:30 2.33 187 100 (2011) 0 (2013) 15 0 0 0 0 32 33 86
2020-11-25 21:30 2.35 193 100 (2011) 0 (2013) 15 0 0 0 0 32 33 86
2020-11-25 20:30 2.34 190 100 (2011) 0 (2013) 15 0 0 0 0 32 33 86
2020-11-25 19:30 2.34 190 100 (2011) 0 (2013) 15 0 0 0 0 32 33 86
2020-11-25 18:30 2.37 199 100 (2011) 0 (2013) 15 0 0 0 0 32 33 86
2020-11-25 17:30 2.37 199 100 (2011) 0 (2013) 15 0 0 0 0 32 33 86
2020-11-25 16:30 2.40 208 100 (2011) 0 (2013) 15 0 0 0 0 32 33 86
2020-11-25 15:30 2.38 202 100 (2011) 0 (2013) 15 0 0 0 0 32 33 86
2020-11-25 14:30 2.42 214 100 (2011) 0 (2013) 15 0 0 0 0 32 33 86
2020-11-25 13:30 2.43 218 100 (2011) 0 (2013) 15 0 0 0 0 32 33 86
2020-11-25 12:30 2.47 230 100 (2011) 0 (2013) 15 0 0 0 0 32 33 86
2020-11-25 11:30 2.51 244 100 (2011) 0 (2013) 15 0 0 0 0 32 33 86
2020-11-25 10:30 2.44 221 100 (2011) 0 (2013) 15 0 0 0 0 32 33 86
2020-11-25 09:30 2.46 227 100 (2011) 0 (2013) 15 0 0 0 0 32 33 86
2020-11-25 08:30 2.48 234 100 (2011) 0 (2013) 15 0 0 0 0 32 33 86
2020-11-25 07:30 2.50 240 100 (2011) 0 (2013) 15 0 0 0 0 32 33 86
2020-11-25 06:30 2.50 240 100 (2011) 0 (2013) 15 0 0 0 0 32 33 86
2020-11-25 05:30 2.52 247 100 (2011) 0 (2013) 15 0 0 0 0 32 33 86
2020-11-25 04:30 2.55 258 100 (2011) 0 (2013) 15 0 0 0 0 32 33 86
2020-11-25 03:30 2.54 254 100 (2011) 0 (2013) 15 0 0 0 0 32 33 86
2020-11-25 02:30 2.56 261 100 (2011) 0 (2013) 15 0 0 0 0 32 33 86
2020-11-25 01:30 2.55 258 100 (2011) 0 (2013) 15 0 0 0 0 32 33 86
2020-11-25 00:30 2.58 269 100 (2011) 0 (2013) 15 0 0 0 0 32 33 86
2020-11-24 23:30 2.60 276 96 (2012) 0 (2011) 14 0 0 0 0 10 34 87
2020-11-24 22:30 2.63 287 96 (2012) 0 (2011) 14 0 0 0 0 10 34 87
2020-11-24 21:30 2.63 287 96 (2012) 0 (2011) 14 0 0 0 0 10 34 87
2020-11-24 20:30 2.65 295 96 (2012) 0 (2011) 14 0 0 0 0 10 34 87
2020-11-24 19:30 2.68 307 96 (2012) 0 (2011) 14 0 0 0 0 10 34 87
2020-11-24 18:30 2.69 311 96 (2012) 0 (2011) 14 0 0 0 0 10 34 87
2020-11-24 17:30 2.71 319 96 (2012) 0 (2011) 14 0 0 0 0 10 34 87
2020-11-24 16:30 2.72 323 96 (2012) 0 (2011) 14 0 0 0 0 10 34 87
2020-11-24 15:30 2.74 332 96 (2012) 0 (2011) 14 0 0 0 0 10 34 87
2020-11-24 14:30 2.73 328 96 (2012) 0 (2011) 14 0 0 0 0 10 34 87
2020-11-24 13:30 2.77 345 96 (2012) 0 (2011) 14 0 0 0 0 10 34 87
2020-11-24 12:30 2.79 354 96 (2012) 0 (2011) 14 0 0 0 0 10 34 87
2020-11-24 11:30 2.82 367 96 (2012) 0 (2011) 14 0 0 0 0 10 34 87
2020-11-24 10:30 2.84 376 96 (2012) 0 (2011) 14 0 0 0 0 10 34 87
2020-11-24 09:30 2.86 386 96 (2012) 0 (2011) 14 0 0 0 0 10 34 87
2020-11-24 08:30 2.88 395 96 (2012) 0 (2011) 14 0 0 0 0 10 34 87
2020-11-24 07:30 2.91 410 96 (2012) 0 (2011) 14 0 0 0 0 10 34 87
2020-11-24 06:30 2.94 425 96 (2012) 0 (2011) 14 0 0 0 0 10 34 87
2020-11-24 05:30 2.96 435 96 (2012) 0 (2011) 14 0 0 0 0 10 34 87
2020-11-24 04:30 2.99 451 96 (2012) 0 (2011) 14 0 0 0 0 10 34 87
2020-11-24 03:30 3.02 467 96 (2012) 0 (2011) 14 0 0 0 0 10 34 87
2020-11-24 02:30 3.08 500 96 (2012) 0 (2011) 14 0 0 0 0 10 34 87
2020-11-24 01:30 3.10 511 96 (2012) 0 (2011) 14 0 0 0 0 10 34 87
2020-11-24 00:30 3.15 540 96 (2012) 0 (2011) 14 0 0 0 0 10 34 87
2020-11-23 23:30 3.18 559 83 (2010) 0 (2011) 17 0 0 0 0 34 52 79
2020-11-23 22:30 3.22 583 83 (2010) 0 (2011) 17 0 0 0 0 34 52 79
2020-11-23 21:30 3.26 609 83 (2010) 0 (2011) 17 0 0 0 0 34 52 79
2020-11-23 20:30 3.28 622 83 (2010) 0 (2011) 17 0 0 0 0 34 52 79
2020-11-23 19:30 3.34 663 83 (2010) 0 (2011) 17 0 0 0 0 34 52 79
2020-11-23 18:30 3.37 683 83 (2010) 0 (2011) 17 0 0 0 0 34 52 79
2020-11-23 17:30 3.42 719 83 (2010) 0 (2011) 17 0 0 0 0 34 52 79
2020-11-23 16:30 3.48 764 83 (2010) 0 (2011) 17 0 0 0 0 34 52 79
2020-11-23 15:30 3.53 803 83 (2010) 0 (2011) 17 0 0 0 0 34 52 79
2020-11-23 14:30 3.59 851 83 (2010) 0 (2011) 17 0 0 0 0 34 52 79
2020-11-23 13:30 3.63 884 83 (2010) 0 (2011) 17 0 0 0 0 34 52 79
2020-11-23 12:30 3.73 972 83 (2010) 0 (2011) 17 0 0 0 0 34 52 79
2020-11-23 11:30 3.76 999 83 (2010) 0 (2011) 17 0 0 0 0 34 52 79
2020-11-23 10:30 3.85 1080 83 (2010) 0 (2011) 17 0 0 0 0 34 52 79
2020-11-23 09:30 3.93 1160 83 (2010) 0 (2011) 17 0 0 0 0 34 52 79
2020-11-23 08:30 4.04 1280 83 (2010) 0 (2011) 17 0 0 0 0 34 52 79
2020-11-23 07:30 4.12 1360 83 (2010) 0 (2011) 17 0 0 0 0 34 52 79
2020-11-23 06:30 4.23 1490 83 (2010) 0 (2011) 17 0 0 0 0 34 52 79
2020-11-23 05:30 4.32 1590 83 (2010) 0 (2011) 17 0 0 0 0 34 52 79
2020-11-23 04:30 4.48 1760 83 (2010) 0 (2011) 17 0 0 0 0 34 52 79
2020-11-23 03:30 4.69 2000 83 (2010) 0 (2011) 17 0 0 0 0 34 52 79
2020-11-23 02:30 4.87 2220 83 (2010) 0 (2011) 17 0 0 0 0 34 52 79
2020-11-23 01:30 5.16 2590 83 (2010) 0 (2011) 17 0 0 0 0 34 52 79
2020-11-23 00:30 5.51 3050 83 (2010) 0 (2011) 17 0 0 0 0 34 52 79
2020-11-22 23:30 5.88 3550 136 (2010) 0 (2011) 21 0 0 0 0 10 55 126
2020-11-22 22:30 6.36 4200 136 (2010) 0 (2011) 21 0 0 0 0 10 55 126
2020-11-22 21:30 6.87 4900 136 (2010) 0 (2011) 21 0 0 0 0 10 55 126
2020-11-22 20:30 7.22 5400 136 (2010) 0 (2011) 21 0 0 0 0 10 55 126
2020-11-22 19:30 7.41 5670 136 (2010) 0 (2011) 21 0 0 0 0 10 55 126
2020-11-22 18:30 7.41 5670 136 (2010) 0 (2011) 21 0 0 0 0 10 55 126
2020-11-22 17:30 7.25 5440 136 (2010) 0 (2011) 21 0 0 0 0 10 55 126
2020-11-22 16:30 6.96 5030 136 (2010) 0 (2011) 21 0 0 0 0 10 55 126
2020-11-22 15:30 6.54 4440 136 (2010) 0 (2011) 21 0 0 0 0 10 55 126
2020-11-22 14:30 5.75 3370 136 (2010) 0 (2011) 21 0 0 0 0 10 55 126
2020-11-22 13:30 4.51 1790 136 (2010) 0 (2011) 21 0 0 0 0 10 55 126
2020-11-22 12:30 2.17 146 136 (2010) 0 (2011) 21 0 0 0 0 10 55 126
2020-11-22 11:30 2.18 148 136 (2010) 0 (2011) 21 0 0 0 0 10 55 126
2020-11-22 10:30 2.21 155 136 (2010) 0 (2011) 21 0 0 0 0 10 55 126
2020-11-22 09:30 2.25 166 136 (2010) 0 (2011) 21 0 0 0 0 10 55 126
2020-11-22 08:30 2.31 182 136 (2010) 0 (2011) 21 0 0 0 0 10 55 126
2020-11-22 07:30 2.38 202 136 (2010) 0 (2011) 21 0 0 0 0 10 55 126
2020-11-22 06:30 2.32 185 136 (2010) 0 (2011) 21 0 0 0 0 10 55 126
2020-11-22 05:30 2.31 182 136 (2010) 0 (2011) 21 0 0 0 0 10 55 126
2020-11-22 04:30 2.29 176 136 (2010) 0 (2011) 21 0 0 0 0 10 55 126
2020-11-22 03:30 2.18 148 136 (2010) 0 (2011) 21 0 0 0 0 10 55 126
2020-11-22 02:30 1.96 101 136 (2010) 0 (2011) 21 0 0 0 0 10 55 126
2020-11-22 01:30 1.88 87 136 (2010) 0 (2011) 21 0 0 0 0 10 55 126
2020-11-22 00:30 1.93 96 136 (2010) 0 (2011) 21 0 0 0 0 10 55 126
2020-11-21 23:30 1.83 79 228 (2010) 0 (2011) 40 0 0 0 0 0 124 224
2020-11-21 22:30 1.04 10 228 (2010) 0 (2011) 40 0 0 0 0 0 124 224
2020-11-21 21:30 0.86 5 228 (2010) 0 (2011) 40 0 0 0 0 0 124 224
2020-11-21 20:30 0.80 3 228 (2010) 0 (2011) 40 0 0 0 0 0 124 224
2020-11-21 19:30 0.78 3 228 (2010) 0 (2011) 40 0 0 0 0 0 124 224
2020-11-21 18:30 0.73 2 228 (2010) 0 (2011) 40 0 0 0 0 0 124 224
2020-11-21 17:30 0.72 2 228 (2010) 0 (2011) 40 0 0 0 0 0 124 224
2020-11-21 16:30 0.72 2 228 (2010) 0 (2011) 40 0 0 0 0 0 124 224
2020-11-21 15:30 0.71 2 228 (2010) 0 (2011) 40 0 0 0 0 0 124 224
2020-11-21 14:30 0.70 2 228 (2010) 0 (2011) 40 0 0 0 0 0 124 224
2020-11-21 13:30 0.72 2 228 (2010) 0 (2011) 40 0 0 0 0 0 124 224
2020-11-21 12:30 0.72 2 228 (2010) 0 (2011) 40 0 0 0 0 0 124 224
2020-11-21 11:30 0.72 2 228 (2010) 0 (2011) 40 0 0 0 0 0 124 224
2020-11-21 10:30 0.71 2 228 (2010) 0 (2011) 40 0 0 0 0 0 124 224
2020-11-21 09:30 0.72 2 228 (2010) 0 (2011) 40 0 0 0 0 0 124 224
2020-11-21 08:30 0.71 2 228 (2010) 0 (2011) 40 0 0 0 0 0 124 224
2020-11-21 07:30 0.72 2 228 (2010) 0 (2011) 40 0 0 0 0 0 124 224
2020-11-21 06:30 0.71 2 228 (2010) 0 (2011) 40 0 0 0 0 0 124 224
2020-11-21 05:30 0.72 2 228 (2010) 0 (2011) 40 0 0 0 0 0 124 224